<?xml version="1.0" encoding="UTF-8" standalone="no" ?>
<gpx xmlns="http://www.topografix.com/GPX/1/1" xmlns:xsi="http://www.w3.org/2001/XMLSchema-instance" xsi:schemaLocation="http://www.topografix.com/GPX/1/1 http://www.topografix.com/GPX/1/1/gpx.xsd" version="1.1" creator="VisuGPX - https://www.visugpx.com">
  <metadata>
    <name>83-Me-Moissac</name>
    <desc><![CDATA[83-Me-Moissac Bellevue :  les Eyssariades - le Pin de Guillot
2023-09-13]]></desc>
  </metadata>
  <trk>
    <name><![CDATA[2023-09-13-Me-Moissac]]></name>
    <extensions>
      <line xmlns="http://www.topografix.com/GPX/gpx_style/0/2">
        <width>3</width>
      </line>
    </extensions>
    <trkseg>
      <trkpt lat="43.65552" lon="6.1625">
        <ele>584.5</ele>
        <time>2023-09-13T12:16:17.792Z</time>
      </trkpt>
      <trkpt lat="43.65583" lon="6.16241">
        <ele>583.5</ele>
        <time>2023-09-13T12:17:09.792Z</time>
      </trkpt>
      <trkpt lat="43.65622" lon="6.16246">
        <ele>584.1</ele>
        <time>2023-09-13T12:18:14.568Z</time>
      </trkpt>
      <trkpt lat="43.65645" lon="6.16265">
        <ele>586</ele>
        <time>2023-09-13T12:18:59.054Z</time>
      </trkpt>
      <trkpt lat="43.65662" lon="6.16328">
        <ele>588</ele>
        <time>2023-09-13T12:20:19.698Z</time>
      </trkpt>
      <trkpt lat="43.65703" lon="6.1643">
        <ele>594.5</ele>
        <time>2023-09-13T12:22:40.035Z</time>
      </trkpt>
      <trkpt lat="43.65737" lon="6.16529">
        <ele>598.9</ele>
        <time>2023-09-13T12:24:51.115Z</time>
      </trkpt>
      <trkpt lat="43.65741" lon="6.16625">
        <ele>603</ele>
        <time>2023-09-13T12:26:46.347Z</time>
      </trkpt>
      <trkpt lat="43.65768" lon="6.16693">
        <ele>600</ele>
        <time>2023-09-13T12:28:19.000Z</time>
      </trkpt>
      <trkpt lat="43.65788" lon="6.16723">
        <ele>600</ele>
        <time>2023-09-13T12:28:40.000Z</time>
      </trkpt>
      <trkpt lat="43.65799" lon="6.16737">
        <ele>600</ele>
        <time>2023-09-13T12:28:50.000Z</time>
      </trkpt>
      <trkpt lat="43.6581" lon="6.16753">
        <ele>601</ele>
        <time>2023-09-13T12:29:02.000Z</time>
      </trkpt>
      <trkpt lat="43.65825" lon="6.16766">
        <ele>601</ele>
        <time>2023-09-13T12:29:14.000Z</time>
      </trkpt>
      <trkpt lat="43.65834" lon="6.16783">
        <ele>602</ele>
        <time>2023-09-13T12:29:26.000Z</time>
      </trkpt>
      <trkpt lat="43.65823" lon="6.16806">
        <ele>602</ele>
        <time>2023-09-13T12:29:38.000Z</time>
      </trkpt>
      <trkpt lat="43.65817" lon="6.16828">
        <ele>604</ele>
        <time>2023-09-13T12:29:50.000Z</time>
      </trkpt>
      <trkpt lat="43.65809" lon="6.16852">
        <ele>604</ele>
        <time>2023-09-13T12:30:02.000Z</time>
      </trkpt>
      <trkpt lat="43.65806" lon="6.16875">
        <ele>605</ele>
        <time>2023-09-13T12:30:14.000Z</time>
      </trkpt>
      <trkpt lat="43.65806" lon="6.16894">
        <ele>606</ele>
        <time>2023-09-13T12:30:26.000Z</time>
      </trkpt>
      <trkpt lat="43.65821" lon="6.1691">
        <ele>607</ele>
        <time>2023-09-13T12:30:38.000Z</time>
      </trkpt>
      <trkpt lat="43.65831" lon="6.16922">
        <ele>607</ele>
        <time>2023-09-13T12:30:50.000Z</time>
      </trkpt>
      <trkpt lat="43.65844" lon="6.16934">
        <ele>608</ele>
        <time>2023-09-13T12:31:02.000Z</time>
      </trkpt>
      <trkpt lat="43.65852" lon="6.16936">
        <ele>608</ele>
        <time>2023-09-13T12:31:14.000Z</time>
      </trkpt>
      <trkpt lat="43.65851" lon="6.1694">
        <ele>608</ele>
        <time>2023-09-13T12:31:26.000Z</time>
      </trkpt>
      <trkpt lat="43.65846" lon="6.16946">
        <ele>608.8</ele>
        <time>2023-09-13T12:31:36.000Z</time>
      </trkpt>
      <trkpt lat="43.65845" lon="6.16948">
        <ele>609</ele>
        <time>2023-09-13T12:31:46.000Z</time>
      </trkpt>
      <trkpt lat="43.65846" lon="6.16948">
        <ele>609.2</ele>
        <time>2023-09-13T12:31:56.000Z</time>
      </trkpt>
      <trkpt lat="43.65847" lon="6.16948">
        <ele>609.2</ele>
        <time>2023-09-13T12:32:06.000Z</time>
      </trkpt>
      <trkpt lat="43.65848" lon="6.16948">
        <ele>609.3</ele>
        <time>2023-09-13T12:32:16.000Z</time>
      </trkpt>
      <trkpt lat="43.65848" lon="6.16948">
        <ele>609.2</ele>
        <time>2023-09-13T12:32:26.000Z</time>
      </trkpt>
      <trkpt lat="43.65848" lon="6.16949">
        <ele>609.4</ele>
        <time>2023-09-13T12:32:36.000Z</time>
      </trkpt>
      <trkpt lat="43.65848" lon="6.16949">
        <ele>609.9</ele>
        <time>2023-09-13T12:32:46.000Z</time>
      </trkpt>
      <trkpt lat="43.65847" lon="6.1695">
        <ele>609.6</ele>
        <time>2023-09-13T12:32:56.000Z</time>
      </trkpt>
      <trkpt lat="43.65844" lon="6.16954">
        <ele>609.6</ele>
        <time>2023-09-13T12:33:06.000Z</time>
      </trkpt>
      <trkpt lat="43.65844" lon="6.16969">
        <ele>610.4</ele>
        <time>2023-09-13T12:33:16.000Z</time>
      </trkpt>
      <trkpt lat="43.6584" lon="6.16982">
        <ele>610.7</ele>
        <time>2023-09-13T12:33:26.000Z</time>
      </trkpt>
      <trkpt lat="43.65838" lon="6.16998">
        <ele>612.1</ele>
        <time>2023-09-13T12:33:36.000Z</time>
      </trkpt>
      <trkpt lat="43.65838" lon="6.17015">
        <ele>613.2</ele>
        <time>2023-09-13T12:33:46.000Z</time>
      </trkpt>
      <trkpt lat="43.65837" lon="6.1703">
        <ele>613.5</ele>
        <time>2023-09-13T12:33:56.000Z</time>
      </trkpt>
      <trkpt lat="43.65838" lon="6.17055">
        <ele>614.1</ele>
        <time>2023-09-13T12:34:06.000Z</time>
      </trkpt>
      <trkpt lat="43.65841" lon="6.17078">
        <ele>614.7</ele>
        <time>2023-09-13T12:34:16.000Z</time>
      </trkpt>
      <trkpt lat="43.65843" lon="6.171">
        <ele>614.6</ele>
        <time>2023-09-13T12:34:26.000Z</time>
      </trkpt>
      <trkpt lat="43.65845" lon="6.17114">
        <ele>615.6</ele>
        <time>2023-09-13T12:34:36.000Z</time>
      </trkpt>
      <trkpt lat="43.6585" lon="6.1713">
        <ele>615.6</ele>
        <time>2023-09-13T12:34:46.000Z</time>
      </trkpt>
      <trkpt lat="43.65853" lon="6.17134">
        <ele>615.6</ele>
        <time>2023-09-13T12:34:56.000Z</time>
      </trkpt>
      <trkpt lat="43.65854" lon="6.17133">
        <ele>615.1</ele>
        <time>2023-09-13T12:35:06.000Z</time>
      </trkpt>
      <trkpt lat="43.65855" lon="6.17133">
        <ele>615.6</ele>
        <time>2023-09-13T12:35:16.000Z</time>
      </trkpt>
      <trkpt lat="43.65856" lon="6.17133">
        <ele>616.1</ele>
        <time>2023-09-13T12:35:26.000Z</time>
      </trkpt>
      <trkpt lat="43.65856" lon="6.17134">
        <ele>615.7</ele>
        <time>2023-09-13T12:35:36.000Z</time>
      </trkpt>
      <trkpt lat="43.65857" lon="6.17135">
        <ele>615.4</ele>
        <time>2023-09-13T12:35:46.000Z</time>
      </trkpt>
      <trkpt lat="43.65857" lon="6.17135">
        <ele>615.9</ele>
        <time>2023-09-13T12:35:56.000Z</time>
      </trkpt>
      <trkpt lat="43.65857" lon="6.17137">
        <ele>615.7</ele>
        <time>2023-09-13T12:36:06.000Z</time>
      </trkpt>
      <trkpt lat="43.65858" lon="6.17135">
        <ele>616.3</ele>
        <time>2023-09-13T12:36:16.000Z</time>
      </trkpt>
      <trkpt lat="43.6586" lon="6.17137">
        <ele>615.9</ele>
        <time>2023-09-13T12:36:26.000Z</time>
      </trkpt>
      <trkpt lat="43.6586" lon="6.17133">
        <ele>616</ele>
        <time>2023-09-13T12:36:36.000Z</time>
      </trkpt>
      <trkpt lat="43.6586" lon="6.17133">
        <ele>616</ele>
        <time>2023-09-13T12:36:46.000Z</time>
      </trkpt>
      <trkpt lat="43.6586" lon="6.17133">
        <ele>616.3</ele>
        <time>2023-09-13T12:36:56.000Z</time>
      </trkpt>
      <trkpt lat="43.65861" lon="6.17134">
        <ele>616.2</ele>
        <time>2023-09-13T12:37:06.000Z</time>
      </trkpt>
      <trkpt lat="43.65861" lon="6.17134">
        <ele>616.1</ele>
        <time>2023-09-13T12:37:16.000Z</time>
      </trkpt>
      <trkpt lat="43.65861" lon="6.17135">
        <ele>616.3</ele>
        <time>2023-09-13T12:37:26.000Z</time>
      </trkpt>
      <trkpt lat="43.65862" lon="6.17145">
        <ele>615.9</ele>
        <time>2023-09-13T12:37:36.000Z</time>
      </trkpt>
      <trkpt lat="43.65863" lon="6.17147">
        <ele>615.6</ele>
        <time>2023-09-13T12:37:46.000Z</time>
      </trkpt>
      <trkpt lat="43.6587" lon="6.17153">
        <ele>616</ele>
        <time>2023-09-13T12:37:56.000Z</time>
      </trkpt>
      <trkpt lat="43.65878" lon="6.17164">
        <ele>616</ele>
        <time>2023-09-13T12:38:06.000Z</time>
      </trkpt>
      <trkpt lat="43.65886" lon="6.17176">
        <ele>616</ele>
        <time>2023-09-13T12:38:16.000Z</time>
      </trkpt>
      <trkpt lat="43.65892" lon="6.17191">
        <ele>615.3</ele>
        <time>2023-09-13T12:38:26.000Z</time>
      </trkpt>
      <trkpt lat="43.65902" lon="6.17202">
        <ele>614.3</ele>
        <time>2023-09-13T12:38:36.000Z</time>
      </trkpt>
      <trkpt lat="43.65909" lon="6.17214">
        <ele>613.3</ele>
        <time>2023-09-13T12:38:46.000Z</time>
      </trkpt>
      <trkpt lat="43.65914" lon="6.17223">
        <ele>613.6</ele>
        <time>2023-09-13T12:38:56.000Z</time>
      </trkpt>
      <trkpt lat="43.65914" lon="6.17224">
        <ele>613.5</ele>
        <time>2023-09-13T12:39:06.000Z</time>
      </trkpt>
      <trkpt lat="43.65915" lon="6.17226">
        <ele>613.4</ele>
        <time>2023-09-13T12:39:16.000Z</time>
      </trkpt>
      <trkpt lat="43.65921" lon="6.17241">
        <ele>613.2</ele>
        <time>2023-09-13T12:39:26.000Z</time>
      </trkpt>
      <trkpt lat="43.65927" lon="6.17257">
        <ele>613.4</ele>
        <time>2023-09-13T12:39:36.000Z</time>
      </trkpt>
      <trkpt lat="43.65936" lon="6.17271">
        <ele>613.1</ele>
        <time>2023-09-13T12:39:46.000Z</time>
      </trkpt>
      <trkpt lat="43.65945" lon="6.1728">
        <ele>612.2</ele>
        <time>2023-09-13T12:39:56.000Z</time>
      </trkpt>
      <trkpt lat="43.65957" lon="6.17292">
        <ele>612.3</ele>
        <time>2023-09-13T12:40:06.000Z</time>
      </trkpt>
      <trkpt lat="43.65969" lon="6.17304">
        <ele>612.2</ele>
        <time>2023-09-13T12:40:16.000Z</time>
      </trkpt>
      <trkpt lat="43.6598" lon="6.17316">
        <ele>611.2</ele>
        <time>2023-09-13T12:40:26.000Z</time>
      </trkpt>
      <trkpt lat="43.65992" lon="6.17323">
        <ele>609.3</ele>
        <time>2023-09-13T12:40:36.000Z</time>
      </trkpt>
      <trkpt lat="43.65998" lon="6.17339">
        <ele>609.7</ele>
        <time>2023-09-13T12:40:46.000Z</time>
      </trkpt>
      <trkpt lat="43.66007" lon="6.17352">
        <ele>609.8</ele>
        <time>2023-09-13T12:40:56.000Z</time>
      </trkpt>
      <trkpt lat="43.66015" lon="6.17365">
        <ele>609.5</ele>
        <time>2023-09-13T12:41:06.000Z</time>
      </trkpt>
      <trkpt lat="43.66024" lon="6.17382">
        <ele>609.4</ele>
        <time>2023-09-13T12:41:16.000Z</time>
      </trkpt>
      <trkpt lat="43.66032" lon="6.17398">
        <ele>609</ele>
        <time>2023-09-13T12:41:26.000Z</time>
      </trkpt>
      <trkpt lat="43.66041" lon="6.17414">
        <ele>609.4</ele>
        <time>2023-09-13T12:41:36.000Z</time>
      </trkpt>
      <trkpt lat="43.6605" lon="6.1743">
        <ele>609.4</ele>
        <time>2023-09-13T12:41:46.000Z</time>
      </trkpt>
      <trkpt lat="43.66058" lon="6.17445">
        <ele>610.2</ele>
        <time>2023-09-13T12:41:56.000Z</time>
      </trkpt>
      <trkpt lat="43.66067" lon="6.17457">
        <ele>610.5</ele>
        <time>2023-09-13T12:42:06.000Z</time>
      </trkpt>
      <trkpt lat="43.66074" lon="6.17468">
        <ele>610.5</ele>
        <time>2023-09-13T12:42:16.000Z</time>
      </trkpt>
      <trkpt lat="43.66077" lon="6.1747">
        <ele>610.4</ele>
        <time>2023-09-13T12:42:26.000Z</time>
      </trkpt>
      <trkpt lat="43.66078" lon="6.1747">
        <ele>610.5</ele>
        <time>2023-09-13T12:42:36.000Z</time>
      </trkpt>
      <trkpt lat="43.66079" lon="6.17471">
        <ele>610.4</ele>
        <time>2023-09-13T12:42:46.000Z</time>
      </trkpt>
      <trkpt lat="43.66082" lon="6.17473">
        <ele>610.7</ele>
        <time>2023-09-13T12:42:56.000Z</time>
      </trkpt>
      <trkpt lat="43.66083" lon="6.17474">
        <ele>610.9</ele>
        <time>2023-09-13T12:43:06.000Z</time>
      </trkpt>
      <trkpt lat="43.66084" lon="6.17475">
        <ele>611.1</ele>
        <time>2023-09-13T12:43:16.000Z</time>
      </trkpt>
      <trkpt lat="43.66086" lon="6.1748">
        <ele>611</ele>
        <time>2023-09-13T12:43:26.000Z</time>
      </trkpt>
      <trkpt lat="43.66091" lon="6.17489">
        <ele>611.3</ele>
        <time>2023-09-13T12:43:36.000Z</time>
      </trkpt>
      <trkpt lat="43.66098" lon="6.17497">
        <ele>611.6</ele>
        <time>2023-09-13T12:43:46.000Z</time>
      </trkpt>
      <trkpt lat="43.66104" lon="6.17505">
        <ele>612.2</ele>
        <time>2023-09-13T12:43:56.000Z</time>
      </trkpt>
      <trkpt lat="43.6611" lon="6.17516">
        <ele>612.6</ele>
        <time>2023-09-13T12:44:06.000Z</time>
      </trkpt>
      <trkpt lat="43.66117" lon="6.17525">
        <ele>613</ele>
        <time>2023-09-13T12:44:16.000Z</time>
      </trkpt>
      <trkpt lat="43.66125" lon="6.17535">
        <ele>613.1</ele>
        <time>2023-09-13T12:44:26.000Z</time>
      </trkpt>
      <trkpt lat="43.66133" lon="6.17544">
        <ele>613.8</ele>
        <time>2023-09-13T12:44:36.000Z</time>
      </trkpt>
      <trkpt lat="43.66142" lon="6.17553">
        <ele>613.7</ele>
        <time>2023-09-13T12:44:46.000Z</time>
      </trkpt>
      <trkpt lat="43.6615" lon="6.17561">
        <ele>614.1</ele>
        <time>2023-09-13T12:44:56.000Z</time>
      </trkpt>
      <trkpt lat="43.66156" lon="6.17572">
        <ele>615</ele>
        <time>2023-09-13T12:45:06.000Z</time>
      </trkpt>
      <trkpt lat="43.66164" lon="6.17582">
        <ele>615</ele>
        <time>2023-09-13T12:45:16.000Z</time>
      </trkpt>
      <trkpt lat="43.66171" lon="6.17589">
        <ele>615.8</ele>
        <time>2023-09-13T12:45:26.000Z</time>
      </trkpt>
      <trkpt lat="43.66175" lon="6.17596">
        <ele>616.3</ele>
        <time>2023-09-13T12:45:36.000Z</time>
      </trkpt>
      <trkpt lat="43.66183" lon="6.1761">
        <ele>617</ele>
        <time>2023-09-13T12:45:46.000Z</time>
      </trkpt>
      <trkpt lat="43.66191" lon="6.1762">
        <ele>617</ele>
        <time>2023-09-13T12:45:56.000Z</time>
      </trkpt>
      <trkpt lat="43.66197" lon="6.17629">
        <ele>617.7</ele>
        <time>2023-09-13T12:46:06.000Z</time>
      </trkpt>
      <trkpt lat="43.66207" lon="6.17638">
        <ele>618.3</ele>
        <time>2023-09-13T12:46:16.000Z</time>
      </trkpt>
      <trkpt lat="43.66217" lon="6.17648">
        <ele>618.5</ele>
        <time>2023-09-13T12:46:26.000Z</time>
      </trkpt>
      <trkpt lat="43.66226" lon="6.17656">
        <ele>618.9</ele>
        <time>2023-09-13T12:46:36.000Z</time>
      </trkpt>
      <trkpt lat="43.66232" lon="6.17664">
        <ele>619.4</ele>
        <time>2023-09-13T12:46:46.000Z</time>
      </trkpt>
      <trkpt lat="43.66241" lon="6.17673">
        <ele>619.7</ele>
        <time>2023-09-13T12:46:56.000Z</time>
      </trkpt>
      <trkpt lat="43.6625" lon="6.17683">
        <ele>620.4</ele>
        <time>2023-09-13T12:47:06.000Z</time>
      </trkpt>
      <trkpt lat="43.66256" lon="6.17693">
        <ele>620.5</ele>
        <time>2023-09-13T12:47:16.000Z</time>
      </trkpt>
      <trkpt lat="43.66262" lon="6.17703">
        <ele>621.3</ele>
        <time>2023-09-13T12:47:26.000Z</time>
      </trkpt>
      <trkpt lat="43.66267" lon="6.17713">
        <ele>621.5</ele>
        <time>2023-09-13T12:47:36.000Z</time>
      </trkpt>
      <trkpt lat="43.66274" lon="6.17726">
        <ele>621.6</ele>
        <time>2023-09-13T12:47:46.000Z</time>
      </trkpt>
      <trkpt lat="43.66283" lon="6.17736">
        <ele>622.1</ele>
        <time>2023-09-13T12:47:56.000Z</time>
      </trkpt>
      <trkpt lat="43.66291" lon="6.17745">
        <ele>622.3</ele>
        <time>2023-09-13T12:48:06.000Z</time>
      </trkpt>
      <trkpt lat="43.66297" lon="6.17752">
        <ele>622.7</ele>
        <time>2023-09-13T12:48:16.000Z</time>
      </trkpt>
      <trkpt lat="43.66307" lon="6.17762">
        <ele>623.3</ele>
        <time>2023-09-13T12:48:26.000Z</time>
      </trkpt>
      <trkpt lat="43.66318" lon="6.17772">
        <ele>623.4</ele>
        <time>2023-09-13T12:48:36.000Z</time>
      </trkpt>
      <trkpt lat="43.66328" lon="6.17779">
        <ele>623.7</ele>
        <time>2023-09-13T12:48:46.000Z</time>
      </trkpt>
      <trkpt lat="43.66338" lon="6.17785">
        <ele>624.6</ele>
        <time>2023-09-13T12:48:56.000Z</time>
      </trkpt>
      <trkpt lat="43.66343" lon="6.17789">
        <ele>625.1</ele>
        <time>2023-09-13T12:49:06.000Z</time>
      </trkpt>
      <trkpt lat="43.66346" lon="6.17796">
        <ele>625.3</ele>
        <time>2023-09-13T12:49:16.000Z</time>
      </trkpt>
      <trkpt lat="43.66349" lon="6.17807">
        <ele>623.8</ele>
        <time>2023-09-13T12:49:26.000Z</time>
      </trkpt>
      <trkpt lat="43.66357" lon="6.17821">
        <ele>627.3</ele>
        <time>2023-09-13T12:49:36.000Z</time>
      </trkpt>
      <trkpt lat="43.66364" lon="6.17835">
        <ele>627.6</ele>
        <time>2023-09-13T12:49:46.000Z</time>
      </trkpt>
      <trkpt lat="43.6637" lon="6.17849">
        <ele>627.2</ele>
        <time>2023-09-13T12:49:56.000Z</time>
      </trkpt>
      <trkpt lat="43.66372" lon="6.17857">
        <ele>627.4</ele>
        <time>2023-09-13T12:50:06.000Z</time>
      </trkpt>
      <trkpt lat="43.66375" lon="6.1786">
        <ele>627.9</ele>
        <time>2023-09-13T12:50:16.000Z</time>
      </trkpt>
      <trkpt lat="43.66378" lon="6.17862">
        <ele>627.6</ele>
        <time>2023-09-13T12:50:26.000Z</time>
      </trkpt>
      <trkpt lat="43.6638" lon="6.17864">
        <ele>628.4</ele>
        <time>2023-09-13T12:50:36.000Z</time>
      </trkpt>
      <trkpt lat="43.66381" lon="6.17867">
        <ele>628.2</ele>
        <time>2023-09-13T12:50:46.000Z</time>
      </trkpt>
      <trkpt lat="43.66381" lon="6.17867">
        <ele>627.9</ele>
        <time>2023-09-13T12:50:56.000Z</time>
      </trkpt>
      <trkpt lat="43.66383" lon="6.17869">
        <ele>628.1</ele>
        <time>2023-09-13T12:51:06.000Z</time>
      </trkpt>
      <trkpt lat="43.66384" lon="6.17871">
        <ele>628.1</ele>
        <time>2023-09-13T12:51:16.000Z</time>
      </trkpt>
      <trkpt lat="43.66385" lon="6.17872">
        <ele>628.1</ele>
        <time>2023-09-13T12:51:26.000Z</time>
      </trkpt>
      <trkpt lat="43.66384" lon="6.17872">
        <ele>628.6</ele>
        <time>2023-09-13T12:51:36.000Z</time>
      </trkpt>
      <trkpt lat="43.66385" lon="6.17872">
        <ele>628.5</ele>
        <time>2023-09-13T12:51:46.000Z</time>
      </trkpt>
      <trkpt lat="43.66385" lon="6.17873">
        <ele>628</ele>
        <time>2023-09-13T12:51:56.000Z</time>
      </trkpt>
      <trkpt lat="43.66386" lon="6.17873">
        <ele>628.3</ele>
        <time>2023-09-13T12:52:06.000Z</time>
      </trkpt>
      <trkpt lat="43.66386" lon="6.17873">
        <ele>628.7</ele>
        <time>2023-09-13T12:52:16.000Z</time>
      </trkpt>
      <trkpt lat="43.66383" lon="6.17873">
        <ele>628.1</ele>
        <time>2023-09-13T12:52:26.000Z</time>
      </trkpt>
      <trkpt lat="43.66384" lon="6.17872">
        <ele>628.6</ele>
        <time>2023-09-13T12:52:36.000Z</time>
      </trkpt>
      <trkpt lat="43.66386" lon="6.17883">
        <ele>629.2</ele>
        <time>2023-09-13T12:52:46.000Z</time>
      </trkpt>
      <trkpt lat="43.66391" lon="6.17895">
        <ele>629.8</ele>
        <time>2023-09-13T12:52:56.000Z</time>
      </trkpt>
      <trkpt lat="43.66395" lon="6.17907">
        <ele>630.3</ele>
        <time>2023-09-13T12:53:06.000Z</time>
      </trkpt>
      <trkpt lat="43.66399" lon="6.17918">
        <ele>630.8</ele>
        <time>2023-09-13T12:53:16.000Z</time>
      </trkpt>
      <trkpt lat="43.66407" lon="6.17925">
        <ele>631</ele>
        <time>2023-09-13T12:53:26.000Z</time>
      </trkpt>
      <trkpt lat="43.66415" lon="6.17932">
        <ele>631.5</ele>
        <time>2023-09-13T12:53:36.000Z</time>
      </trkpt>
      <trkpt lat="43.66423" lon="6.17939">
        <ele>632.1</ele>
        <time>2023-09-13T12:53:46.000Z</time>
      </trkpt>
      <trkpt lat="43.66436" lon="6.17942">
        <ele>632.3</ele>
        <time>2023-09-13T12:53:56.000Z</time>
      </trkpt>
      <trkpt lat="43.66445" lon="6.17944">
        <ele>632.7</ele>
        <time>2023-09-13T12:54:06.000Z</time>
      </trkpt>
      <trkpt lat="43.66457" lon="6.17946">
        <ele>633.2</ele>
        <time>2023-09-13T12:54:16.000Z</time>
      </trkpt>
      <trkpt lat="43.66468" lon="6.17947">
        <ele>633.7</ele>
        <time>2023-09-13T12:54:26.000Z</time>
      </trkpt>
      <trkpt lat="43.66477" lon="6.17946">
        <ele>634.2</ele>
        <time>2023-09-13T12:54:36.000Z</time>
      </trkpt>
      <trkpt lat="43.66487" lon="6.17946">
        <ele>634.9</ele>
        <time>2023-09-13T12:54:46.000Z</time>
      </trkpt>
      <trkpt lat="43.66497" lon="6.17946">
        <ele>635.2</ele>
        <time>2023-09-13T12:54:56.000Z</time>
      </trkpt>
      <trkpt lat="43.66506" lon="6.17947">
        <ele>636.2</ele>
        <time>2023-09-13T12:55:06.000Z</time>
      </trkpt>
      <trkpt lat="43.66515" lon="6.17944">
        <ele>636.3</ele>
        <time>2023-09-13T12:55:16.000Z</time>
      </trkpt>
      <trkpt lat="43.66526" lon="6.1794">
        <ele>636.5</ele>
        <time>2023-09-13T12:55:26.000Z</time>
      </trkpt>
      <trkpt lat="43.66535" lon="6.17939">
        <ele>636.9</ele>
        <time>2023-09-13T12:55:36.000Z</time>
      </trkpt>
      <trkpt lat="43.66543" lon="6.17939">
        <ele>637.7</ele>
        <time>2023-09-13T12:55:46.000Z</time>
      </trkpt>
      <trkpt lat="43.66552" lon="6.17941">
        <ele>638</ele>
        <time>2023-09-13T12:55:56.000Z</time>
      </trkpt>
      <trkpt lat="43.6656" lon="6.17936">
        <ele>638.3</ele>
        <time>2023-09-13T12:56:06.000Z</time>
      </trkpt>
      <trkpt lat="43.66567" lon="6.17933">
        <ele>638.2</ele>
        <time>2023-09-13T12:56:16.000Z</time>
      </trkpt>
      <trkpt lat="43.66572" lon="6.17932">
        <ele>639.1</ele>
        <time>2023-09-13T12:56:26.000Z</time>
      </trkpt>
      <trkpt lat="43.66581" lon="6.17931">
        <ele>638.4</ele>
        <time>2023-09-13T12:56:36.000Z</time>
      </trkpt>
      <trkpt lat="43.6659" lon="6.17932">
        <ele>639.4</ele>
        <time>2023-09-13T12:56:46.000Z</time>
      </trkpt>
      <trkpt lat="43.66601" lon="6.17925">
        <ele>639.4</ele>
        <time>2023-09-13T12:56:56.000Z</time>
      </trkpt>
      <trkpt lat="43.66609" lon="6.17925">
        <ele>639.9</ele>
        <time>2023-09-13T12:57:06.000Z</time>
      </trkpt>
      <trkpt lat="43.6662" lon="6.17929">
        <ele>640.3</ele>
        <time>2023-09-13T12:57:16.000Z</time>
      </trkpt>
      <trkpt lat="43.66632" lon="6.17928">
        <ele>641.1</ele>
        <time>2023-09-13T12:57:26.000Z</time>
      </trkpt>
      <trkpt lat="43.66639" lon="6.17928">
        <ele>641.5</ele>
        <time>2023-09-13T12:57:36.000Z</time>
      </trkpt>
      <trkpt lat="43.66649" lon="6.1793">
        <ele>642.1</ele>
        <time>2023-09-13T12:57:46.000Z</time>
      </trkpt>
      <trkpt lat="43.6666" lon="6.17927">
        <ele>642</ele>
        <time>2023-09-13T12:57:56.000Z</time>
      </trkpt>
      <trkpt lat="43.66669" lon="6.17932">
        <ele>643</ele>
        <time>2023-09-13T12:58:06.000Z</time>
      </trkpt>
      <trkpt lat="43.66675" lon="6.17928">
        <ele>643.3</ele>
        <time>2023-09-13T12:58:16.000Z</time>
      </trkpt>
      <trkpt lat="43.66678" lon="6.17927">
        <ele>643.5</ele>
        <time>2023-09-13T12:58:26.000Z</time>
      </trkpt>
      <trkpt lat="43.66679" lon="6.17926">
        <ele>644</ele>
        <time>2023-09-13T12:58:36.000Z</time>
      </trkpt>
      <trkpt lat="43.66681" lon="6.17926">
        <ele>643.7</ele>
        <time>2023-09-13T12:58:46.000Z</time>
      </trkpt>
      <trkpt lat="43.66684" lon="6.17929">
        <ele>643.9</ele>
        <time>2023-09-13T12:58:56.000Z</time>
      </trkpt>
      <trkpt lat="43.66685" lon="6.17931">
        <ele>644.1</ele>
        <time>2023-09-13T12:59:06.000Z</time>
      </trkpt>
      <trkpt lat="43.66686" lon="6.17931">
        <ele>643.7</ele>
        <time>2023-09-13T12:59:16.000Z</time>
      </trkpt>
      <trkpt lat="43.66685" lon="6.17929">
        <ele>644.1</ele>
        <time>2023-09-13T12:59:26.000Z</time>
      </trkpt>
      <trkpt lat="43.66684" lon="6.17928">
        <ele>643.6</ele>
        <time>2023-09-13T12:59:36.000Z</time>
      </trkpt>
      <trkpt lat="43.66683" lon="6.17926">
        <ele>644.1</ele>
        <time>2023-09-13T12:59:46.000Z</time>
      </trkpt>
      <trkpt lat="43.66682" lon="6.17927">
        <ele>644.3</ele>
        <time>2023-09-13T12:59:56.000Z</time>
      </trkpt>
      <trkpt lat="43.66682" lon="6.17927">
        <ele>644.7</ele>
        <time>2023-09-13T13:00:06.000Z</time>
      </trkpt>
      <trkpt lat="43.66682" lon="6.17926">
        <ele>644.5</ele>
        <time>2023-09-13T13:00:16.000Z</time>
      </trkpt>
      <trkpt lat="43.66683" lon="6.17926">
        <ele>644.6</ele>
        <time>2023-09-13T13:00:26.000Z</time>
      </trkpt>
      <trkpt lat="43.66685" lon="6.17925">
        <ele>644.6</ele>
        <time>2023-09-13T13:00:36.000Z</time>
      </trkpt>
      <trkpt lat="43.66685" lon="6.17925">
        <ele>644.4</ele>
        <time>2023-09-13T13:00:46.000Z</time>
      </trkpt>
      <trkpt lat="43.66686" lon="6.17926">
        <ele>644.4</ele>
        <time>2023-09-13T13:00:56.000Z</time>
      </trkpt>
      <trkpt lat="43.66685" lon="6.17927">
        <ele>644.2</ele>
        <time>2023-09-13T13:01:06.000Z</time>
      </trkpt>
      <trkpt lat="43.66685" lon="6.17929">
        <ele>644.1</ele>
        <time>2023-09-13T13:01:16.000Z</time>
      </trkpt>
      <trkpt lat="43.66685" lon="6.17928">
        <ele>644.5</ele>
        <time>2023-09-13T13:01:26.000Z</time>
      </trkpt>
      <trkpt lat="43.66688" lon="6.17926">
        <ele>645.1</ele>
        <time>2023-09-13T13:01:36.000Z</time>
      </trkpt>
      <trkpt lat="43.66697" lon="6.17917">
        <ele>645.4</ele>
        <time>2023-09-13T13:01:46.000Z</time>
      </trkpt>
      <trkpt lat="43.66701" lon="6.17911">
        <ele>644.5</ele>
        <time>2023-09-13T13:01:56.000Z</time>
      </trkpt>
      <trkpt lat="43.66703" lon="6.17911">
        <ele>645.1</ele>
        <time>2023-09-13T13:02:06.000Z</time>
      </trkpt>
      <trkpt lat="43.66706" lon="6.17914">
        <ele>644.7</ele>
        <time>2023-09-13T13:02:16.000Z</time>
      </trkpt>
      <trkpt lat="43.66712" lon="6.17904">
        <ele>645.5</ele>
        <time>2023-09-13T13:02:26.000Z</time>
      </trkpt>
      <trkpt lat="43.66715" lon="6.17895">
        <ele>646.5</ele>
        <time>2023-09-13T13:02:36.000Z</time>
      </trkpt>
      <trkpt lat="43.66714" lon="6.17896">
        <ele>646.2</ele>
        <time>2023-09-13T13:02:46.000Z</time>
      </trkpt>
      <trkpt lat="43.66715" lon="6.17895">
        <ele>646.4</ele>
        <time>2023-09-13T13:02:56.000Z</time>
      </trkpt>
      <trkpt lat="43.66713" lon="6.17896">
        <ele>646.8</ele>
        <time>2023-09-13T13:03:06.000Z</time>
      </trkpt>
      <trkpt lat="43.66716" lon="6.17896">
        <ele>645.8</ele>
        <time>2023-09-13T13:03:16.000Z</time>
      </trkpt>
      <trkpt lat="43.66717" lon="6.17895">
        <ele>647.2</ele>
        <time>2023-09-13T13:03:26.000Z</time>
      </trkpt>
      <trkpt lat="43.6672" lon="6.17886">
        <ele>646.9</ele>
        <time>2023-09-13T13:03:36.000Z</time>
      </trkpt>
      <trkpt lat="43.66718" lon="6.17886">
        <ele>646.7</ele>
        <time>2023-09-13T13:03:46.000Z</time>
      </trkpt>
      <trkpt lat="43.66719" lon="6.17886">
        <ele>647.1</ele>
        <time>2023-09-13T13:03:56.000Z</time>
      </trkpt>
      <trkpt lat="43.66721" lon="6.1789">
        <ele>646.9</ele>
        <time>2023-09-13T13:04:06.000Z</time>
      </trkpt>
      <trkpt lat="43.66718" lon="6.17885">
        <ele>647.3</ele>
        <time>2023-09-13T13:04:16.000Z</time>
      </trkpt>
      <trkpt lat="43.6671" lon="6.17884">
        <ele>646.9</ele>
        <time>2023-09-13T13:04:26.000Z</time>
      </trkpt>
      <trkpt lat="43.66705" lon="6.17886">
        <ele>646.2</ele>
        <time>2023-09-13T13:04:36.000Z</time>
      </trkpt>
      <trkpt lat="43.66702" lon="6.17888">
        <ele>646.2</ele>
        <time>2023-09-13T13:04:46.000Z</time>
      </trkpt>
      <trkpt lat="43.66703" lon="6.17887">
        <ele>646.5</ele>
        <time>2023-09-13T13:04:56.000Z</time>
      </trkpt>
      <trkpt lat="43.66703" lon="6.17887">
        <ele>646.5</ele>
        <time>2023-09-13T13:05:06.000Z</time>
      </trkpt>
      <trkpt lat="43.66703" lon="6.17886">
        <ele>646.3</ele>
        <time>2023-09-13T13:05:16.000Z</time>
      </trkpt>
      <trkpt lat="43.66705" lon="6.17895">
        <ele>646.5</ele>
        <time>2023-09-13T13:05:26.000Z</time>
      </trkpt>
      <trkpt lat="43.66712" lon="6.1791">
        <ele>646.9</ele>
        <time>2023-09-13T13:05:36.000Z</time>
      </trkpt>
      <trkpt lat="43.66715" lon="6.17925">
        <ele>647.5</ele>
        <time>2023-09-13T13:05:46.000Z</time>
      </trkpt>
      <trkpt lat="43.66721" lon="6.17937">
        <ele>648.7</ele>
        <time>2023-09-13T13:05:56.000Z</time>
      </trkpt>
      <trkpt lat="43.66726" lon="6.17944">
        <ele>649.3</ele>
        <time>2023-09-13T13:06:06.000Z</time>
      </trkpt>
      <trkpt lat="43.66734" lon="6.17953">
        <ele>649</ele>
        <time>2023-09-13T13:06:16.000Z</time>
      </trkpt>
      <trkpt lat="43.66741" lon="6.17963">
        <ele>650.3</ele>
        <time>2023-09-13T13:06:26.000Z</time>
      </trkpt>
      <trkpt lat="43.66747" lon="6.17973">
        <ele>651.7</ele>
        <time>2023-09-13T13:06:36.000Z</time>
      </trkpt>
      <trkpt lat="43.66754" lon="6.1798">
        <ele>651.4</ele>
        <time>2023-09-13T13:06:46.000Z</time>
      </trkpt>
      <trkpt lat="43.66762" lon="6.17987">
        <ele>653</ele>
        <time>2023-09-13T13:06:56.000Z</time>
      </trkpt>
      <trkpt lat="43.66769" lon="6.17995">
        <ele>653.3</ele>
        <time>2023-09-13T13:07:06.000Z</time>
      </trkpt>
      <trkpt lat="43.66777" lon="6.18001">
        <ele>652.6</ele>
        <time>2023-09-13T13:07:16.000Z</time>
      </trkpt>
      <trkpt lat="43.66785" lon="6.1801">
        <ele>652.7</ele>
        <time>2023-09-13T13:07:26.000Z</time>
      </trkpt>
      <trkpt lat="43.66793" lon="6.18021">
        <ele>654.4</ele>
        <time>2023-09-13T13:07:36.000Z</time>
      </trkpt>
      <trkpt lat="43.66803" lon="6.18026">
        <ele>655.5</ele>
        <time>2023-09-13T13:07:46.000Z</time>
      </trkpt>
      <trkpt lat="43.66812" lon="6.18033">
        <ele>655.9</ele>
        <time>2023-09-13T13:07:56.000Z</time>
      </trkpt>
      <trkpt lat="43.66822" lon="6.18039">
        <ele>655.4</ele>
        <time>2023-09-13T13:08:06.000Z</time>
      </trkpt>
      <trkpt lat="43.66829" lon="6.18041">
        <ele>656.1</ele>
        <time>2023-09-13T13:08:16.000Z</time>
      </trkpt>
      <trkpt lat="43.66837" lon="6.18049">
        <ele>657.6</ele>
        <time>2023-09-13T13:08:26.000Z</time>
      </trkpt>
      <trkpt lat="43.66845" lon="6.18053">
        <ele>657.8</ele>
        <time>2023-09-13T13:08:36.000Z</time>
      </trkpt>
      <trkpt lat="43.66855" lon="6.18059">
        <ele>658</ele>
        <time>2023-09-13T13:08:46.000Z</time>
      </trkpt>
      <trkpt lat="43.66862" lon="6.18065">
        <ele>659.2</ele>
        <time>2023-09-13T13:08:56.000Z</time>
      </trkpt>
      <trkpt lat="43.66871" lon="6.18071">
        <ele>659.5</ele>
        <time>2023-09-13T13:09:06.000Z</time>
      </trkpt>
      <trkpt lat="43.6688" lon="6.18079">
        <ele>659.5</ele>
        <time>2023-09-13T13:09:16.000Z</time>
      </trkpt>
      <trkpt lat="43.66888" lon="6.18082">
        <ele>660.2</ele>
        <time>2023-09-13T13:09:26.000Z</time>
      </trkpt>
      <trkpt lat="43.66898" lon="6.18083">
        <ele>661.5</ele>
        <time>2023-09-13T13:09:36.000Z</time>
      </trkpt>
      <trkpt lat="43.6691" lon="6.18076">
        <ele>662.7</ele>
        <time>2023-09-13T13:09:46.000Z</time>
      </trkpt>
      <trkpt lat="43.66919" lon="6.1808">
        <ele>662.6</ele>
        <time>2023-09-13T13:09:56.000Z</time>
      </trkpt>
      <trkpt lat="43.66927" lon="6.18084">
        <ele>664.4</ele>
        <time>2023-09-13T13:10:06.000Z</time>
      </trkpt>
      <trkpt lat="43.66935" lon="6.18082">
        <ele>664.3</ele>
        <time>2023-09-13T13:10:16.000Z</time>
      </trkpt>
      <trkpt lat="43.66938" lon="6.18081">
        <ele>664.1</ele>
        <time>2023-09-13T13:10:26.000Z</time>
      </trkpt>
      <trkpt lat="43.66941" lon="6.18081">
        <ele>664.3</ele>
        <time>2023-09-13T13:10:36.000Z</time>
      </trkpt>
      <trkpt lat="43.66942" lon="6.18082">
        <ele>663.8</ele>
        <time>2023-09-13T13:10:46.000Z</time>
      </trkpt>
      <trkpt lat="43.66946" lon="6.18084">
        <ele>665</ele>
        <time>2023-09-13T13:10:56.000Z</time>
      </trkpt>
      <trkpt lat="43.66951" lon="6.18089">
        <ele>666</ele>
        <time>2023-09-13T13:11:06.000Z</time>
      </trkpt>
      <trkpt lat="43.66958" lon="6.18095">
        <ele>666.3</ele>
        <time>2023-09-13T13:11:16.000Z</time>
      </trkpt>
      <trkpt lat="43.66964" lon="6.18096">
        <ele>666.9</ele>
        <time>2023-09-13T13:11:26.000Z</time>
      </trkpt>
      <trkpt lat="43.66969" lon="6.18097">
        <ele>667.2</ele>
        <time>2023-09-13T13:11:36.000Z</time>
      </trkpt>
      <trkpt lat="43.66975" lon="6.18103">
        <ele>668</ele>
        <time>2023-09-13T13:11:46.000Z</time>
      </trkpt>
      <trkpt lat="43.66982" lon="6.18105">
        <ele>668.5</ele>
        <time>2023-09-13T13:11:56.000Z</time>
      </trkpt>
      <trkpt lat="43.66986" lon="6.18107">
        <ele>669.2</ele>
        <time>2023-09-13T13:12:06.000Z</time>
      </trkpt>
      <trkpt lat="43.66993" lon="6.18112">
        <ele>670.2</ele>
        <time>2023-09-13T13:12:16.000Z</time>
      </trkpt>
      <trkpt lat="43.66999" lon="6.18116">
        <ele>671.2</ele>
        <time>2023-09-13T13:12:26.000Z</time>
      </trkpt>
      <trkpt lat="43.67004" lon="6.18124">
        <ele>671.7</ele>
        <time>2023-09-13T13:12:36.000Z</time>
      </trkpt>
      <trkpt lat="43.67011" lon="6.18129">
        <ele>672.4</ele>
        <time>2023-09-13T13:12:46.000Z</time>
      </trkpt>
      <trkpt lat="43.67015" lon="6.18133">
        <ele>673.1</ele>
        <time>2023-09-13T13:12:56.000Z</time>
      </trkpt>
      <trkpt lat="43.6702" lon="6.18139">
        <ele>674.4</ele>
        <time>2023-09-13T13:13:06.000Z</time>
      </trkpt>
      <trkpt lat="43.67025" lon="6.18145">
        <ele>674.9</ele>
        <time>2023-09-13T13:13:16.000Z</time>
      </trkpt>
      <trkpt lat="43.67035" lon="6.1815">
        <ele>675.7</ele>
        <time>2023-09-13T13:13:26.000Z</time>
      </trkpt>
      <trkpt lat="43.67043" lon="6.18154">
        <ele>676.5</ele>
        <time>2023-09-13T13:13:36.000Z</time>
      </trkpt>
      <trkpt lat="43.6705" lon="6.18153">
        <ele>677.1</ele>
        <time>2023-09-13T13:13:46.000Z</time>
      </trkpt>
      <trkpt lat="43.67059" lon="6.18154">
        <ele>677</ele>
        <time>2023-09-13T13:13:56.000Z</time>
      </trkpt>
      <trkpt lat="43.67069" lon="6.18153">
        <ele>677.4</ele>
        <time>2023-09-13T13:14:06.000Z</time>
      </trkpt>
      <trkpt lat="43.67079" lon="6.1815">
        <ele>677.1</ele>
        <time>2023-09-13T13:14:16.000Z</time>
      </trkpt>
      <trkpt lat="43.67087" lon="6.18149">
        <ele>676.9</ele>
        <time>2023-09-13T13:14:26.000Z</time>
      </trkpt>
      <trkpt lat="43.67091" lon="6.18144">
        <ele>676.6</ele>
        <time>2023-09-13T13:14:36.000Z</time>
      </trkpt>
      <trkpt lat="43.67096" lon="6.18143">
        <ele>676.9</ele>
        <time>2023-09-13T13:14:46.000Z</time>
      </trkpt>
      <trkpt lat="43.67103" lon="6.18143">
        <ele>676.7</ele>
        <time>2023-09-13T13:14:56.000Z</time>
      </trkpt>
      <trkpt lat="43.67112" lon="6.18145">
        <ele>677.1</ele>
        <time>2023-09-13T13:15:06.000Z</time>
      </trkpt>
      <trkpt lat="43.67118" lon="6.18146">
        <ele>676.9</ele>
        <time>2023-09-13T13:15:16.000Z</time>
      </trkpt>
      <trkpt lat="43.67124" lon="6.18144">
        <ele>676.8</ele>
        <time>2023-09-13T13:15:26.000Z</time>
      </trkpt>
      <trkpt lat="43.67129" lon="6.18147">
        <ele>677.2</ele>
        <time>2023-09-13T13:15:36.000Z</time>
      </trkpt>
      <trkpt lat="43.67133" lon="6.18153">
        <ele>678.3</ele>
        <time>2023-09-13T13:15:46.000Z</time>
      </trkpt>
      <trkpt lat="43.67137" lon="6.18157">
        <ele>677.8</ele>
        <time>2023-09-13T13:15:56.000Z</time>
      </trkpt>
      <trkpt lat="43.67144" lon="6.18166">
        <ele>678.9</ele>
        <time>2023-09-13T13:16:06.000Z</time>
      </trkpt>
      <trkpt lat="43.67149" lon="6.18169">
        <ele>679.3</ele>
        <time>2023-09-13T13:16:16.000Z</time>
      </trkpt>
      <trkpt lat="43.67158" lon="6.18179">
        <ele>679.9</ele>
        <time>2023-09-13T13:16:26.000Z</time>
      </trkpt>
      <trkpt lat="43.67166" lon="6.18184">
        <ele>680.4</ele>
        <time>2023-09-13T13:16:36.000Z</time>
      </trkpt>
      <trkpt lat="43.67174" lon="6.18192">
        <ele>680.5</ele>
        <time>2023-09-13T13:16:46.000Z</time>
      </trkpt>
      <trkpt lat="43.67179" lon="6.18192">
        <ele>680.6</ele>
        <time>2023-09-13T13:16:56.000Z</time>
      </trkpt>
      <trkpt lat="43.67181" lon="6.18196">
        <ele>681.3</ele>
        <time>2023-09-13T13:17:06.000Z</time>
      </trkpt>
      <trkpt lat="43.67187" lon="6.18203">
        <ele>682.2</ele>
        <time>2023-09-13T13:17:16.000Z</time>
      </trkpt>
      <trkpt lat="43.67193" lon="6.18213">
        <ele>681.7</ele>
        <time>2023-09-13T13:17:26.000Z</time>
      </trkpt>
      <trkpt lat="43.672" lon="6.18221">
        <ele>682.3</ele>
        <time>2023-09-13T13:17:36.000Z</time>
      </trkpt>
      <trkpt lat="43.6721" lon="6.18227">
        <ele>682.4</ele>
        <time>2023-09-13T13:17:46.000Z</time>
      </trkpt>
      <trkpt lat="43.67215" lon="6.18236">
        <ele>682.7</ele>
        <time>2023-09-13T13:17:56.000Z</time>
      </trkpt>
      <trkpt lat="43.67223" lon="6.18246">
        <ele>683.1</ele>
        <time>2023-09-13T13:18:06.000Z</time>
      </trkpt>
      <trkpt lat="43.67229" lon="6.18254">
        <ele>683.3</ele>
        <time>2023-09-13T13:18:16.000Z</time>
      </trkpt>
      <trkpt lat="43.67234" lon="6.18261">
        <ele>683.9</ele>
        <time>2023-09-13T13:18:26.000Z</time>
      </trkpt>
      <trkpt lat="43.67237" lon="6.18268">
        <ele>684.3</ele>
        <time>2023-09-13T13:18:36.000Z</time>
      </trkpt>
      <trkpt lat="43.67238" lon="6.18271">
        <ele>684.4</ele>
        <time>2023-09-13T13:18:46.000Z</time>
      </trkpt>
      <trkpt lat="43.6724" lon="6.18277">
        <ele>684.2</ele>
        <time>2023-09-13T13:18:56.000Z</time>
      </trkpt>
      <trkpt lat="43.67242" lon="6.18286">
        <ele>684.3</ele>
        <time>2023-09-13T13:19:06.000Z</time>
      </trkpt>
      <trkpt lat="43.67246" lon="6.18295">
        <ele>684.5</ele>
        <time>2023-09-13T13:19:16.000Z</time>
      </trkpt>
      <trkpt lat="43.67253" lon="6.18307">
        <ele>684.8</ele>
        <time>2023-09-13T13:19:26.000Z</time>
      </trkpt>
      <trkpt lat="43.6726" lon="6.18316">
        <ele>686</ele>
        <time>2023-09-13T13:19:36.000Z</time>
      </trkpt>
      <trkpt lat="43.67265" lon="6.18325">
        <ele>686</ele>
        <time>2023-09-13T13:19:46.000Z</time>
      </trkpt>
      <trkpt lat="43.67271" lon="6.18336">
        <ele>686.5</ele>
        <time>2023-09-13T13:19:56.000Z</time>
      </trkpt>
      <trkpt lat="43.67274" lon="6.18345">
        <ele>687.1</ele>
        <time>2023-09-13T13:20:06.000Z</time>
      </trkpt>
      <trkpt lat="43.67278" lon="6.18353">
        <ele>687.5</ele>
        <time>2023-09-13T13:20:16.000Z</time>
      </trkpt>
      <trkpt lat="43.67282" lon="6.18362">
        <ele>687.8</ele>
        <time>2023-09-13T13:20:26.000Z</time>
      </trkpt>
      <trkpt lat="43.67286" lon="6.18373">
        <ele>687.8</ele>
        <time>2023-09-13T13:20:36.000Z</time>
      </trkpt>
      <trkpt lat="43.6729" lon="6.18385">
        <ele>688.2</ele>
        <time>2023-09-13T13:20:46.000Z</time>
      </trkpt>
      <trkpt lat="43.67291" lon="6.18395">
        <ele>688.1</ele>
        <time>2023-09-13T13:20:56.000Z</time>
      </trkpt>
      <trkpt lat="43.67293" lon="6.18398">
        <ele>687.5</ele>
        <time>2023-09-13T13:21:06.000Z</time>
      </trkpt>
      <trkpt lat="43.67294" lon="6.184">
        <ele>687.7</ele>
        <time>2023-09-13T13:21:16.000Z</time>
      </trkpt>
      <trkpt lat="43.67296" lon="6.18405">
        <ele>687.5</ele>
        <time>2023-09-13T13:21:26.000Z</time>
      </trkpt>
      <trkpt lat="43.67297" lon="6.18408">
        <ele>686.9</ele>
        <time>2023-09-13T13:21:36.000Z</time>
      </trkpt>
      <trkpt lat="43.67299" lon="6.18411">
        <ele>686.2</ele>
        <time>2023-09-13T13:21:46.000Z</time>
      </trkpt>
      <trkpt lat="43.67299" lon="6.18412">
        <ele>686.3</ele>
        <time>2023-09-13T13:21:56.000Z</time>
      </trkpt>
      <trkpt lat="43.673" lon="6.18414">
        <ele>687</ele>
        <time>2023-09-13T13:22:06.000Z</time>
      </trkpt>
      <trkpt lat="43.67301" lon="6.18415">
        <ele>687.1</ele>
        <time>2023-09-13T13:22:16.000Z</time>
      </trkpt>
      <trkpt lat="43.67303" lon="6.1842">
        <ele>687.8</ele>
        <time>2023-09-13T13:22:26.000Z</time>
      </trkpt>
      <trkpt lat="43.67304" lon="6.18426">
        <ele>687.4</ele>
        <time>2023-09-13T13:22:36.000Z</time>
      </trkpt>
      <trkpt lat="43.67304" lon="6.18429">
        <ele>687.1</ele>
        <time>2023-09-13T13:22:46.000Z</time>
      </trkpt>
      <trkpt lat="43.67306" lon="6.18433">
        <ele>686.6</ele>
        <time>2023-09-13T13:22:56.000Z</time>
      </trkpt>
      <trkpt lat="43.67306" lon="6.18435">
        <ele>686.6</ele>
        <time>2023-09-13T13:23:06.000Z</time>
      </trkpt>
      <trkpt lat="43.67306" lon="6.18439">
        <ele>686</ele>
        <time>2023-09-13T13:23:16.000Z</time>
      </trkpt>
      <trkpt lat="43.67306" lon="6.18437">
        <ele>685.8</ele>
        <time>2023-09-13T13:23:26.000Z</time>
      </trkpt>
      <trkpt lat="43.67306" lon="6.18438">
        <ele>686.2</ele>
        <time>2023-09-13T13:23:36.000Z</time>
      </trkpt>
      <trkpt lat="43.67305" lon="6.18442">
        <ele>686</ele>
        <time>2023-09-13T13:23:46.000Z</time>
      </trkpt>
      <trkpt lat="43.67305" lon="6.18444">
        <ele>685.9</ele>
        <time>2023-09-13T13:23:56.000Z</time>
      </trkpt>
      <trkpt lat="43.67305" lon="6.18444">
        <ele>686.1</ele>
        <time>2023-09-13T13:24:06.000Z</time>
      </trkpt>
      <trkpt lat="43.67306" lon="6.18445">
        <ele>686</ele>
        <time>2023-09-13T13:24:16.000Z</time>
      </trkpt>
      <trkpt lat="43.67306" lon="6.18444">
        <ele>686</ele>
        <time>2023-09-13T13:24:26.000Z</time>
      </trkpt>
      <trkpt lat="43.67307" lon="6.18444">
        <ele>686.3</ele>
        <time>2023-09-13T13:24:36.000Z</time>
      </trkpt>
      <trkpt lat="43.67307" lon="6.18445">
        <ele>686.6</ele>
        <time>2023-09-13T13:24:46.000Z</time>
      </trkpt>
      <trkpt lat="43.67307" lon="6.18446">
        <ele>686.6</ele>
        <time>2023-09-13T13:24:56.000Z</time>
      </trkpt>
      <trkpt lat="43.67306" lon="6.18448">
        <ele>686.4</ele>
        <time>2023-09-13T13:25:06.000Z</time>
      </trkpt>
      <trkpt lat="43.67304" lon="6.18454">
        <ele>687.6</ele>
        <time>2023-09-13T13:25:16.000Z</time>
      </trkpt>
      <trkpt lat="43.67302" lon="6.18461">
        <ele>688.6</ele>
        <time>2023-09-13T13:25:26.000Z</time>
      </trkpt>
      <trkpt lat="43.67299" lon="6.1847">
        <ele>689</ele>
        <time>2023-09-13T13:25:36.000Z</time>
      </trkpt>
      <trkpt lat="43.67296" lon="6.18478">
        <ele>689.9</ele>
        <time>2023-09-13T13:25:46.000Z</time>
      </trkpt>
      <trkpt lat="43.67291" lon="6.18486">
        <ele>690.7</ele>
        <time>2023-09-13T13:25:56.000Z</time>
      </trkpt>
      <trkpt lat="43.6729" lon="6.18498">
        <ele>691.1</ele>
        <time>2023-09-13T13:26:06.000Z</time>
      </trkpt>
      <trkpt lat="43.67288" lon="6.18506">
        <ele>692.2</ele>
        <time>2023-09-13T13:26:16.000Z</time>
      </trkpt>
      <trkpt lat="43.67285" lon="6.18512">
        <ele>693.5</ele>
        <time>2023-09-13T13:26:26.000Z</time>
      </trkpt>
      <trkpt lat="43.67281" lon="6.1852">
        <ele>694.5</ele>
        <time>2023-09-13T13:26:36.000Z</time>
      </trkpt>
      <trkpt lat="43.67277" lon="6.18525">
        <ele>694.5</ele>
        <time>2023-09-13T13:26:46.000Z</time>
      </trkpt>
      <trkpt lat="43.67273" lon="6.1853">
        <ele>696.4</ele>
        <time>2023-09-13T13:26:56.000Z</time>
      </trkpt>
      <trkpt lat="43.67268" lon="6.18538">
        <ele>697.3</ele>
        <time>2023-09-13T13:27:06.000Z</time>
      </trkpt>
      <trkpt lat="43.67263" lon="6.18545">
        <ele>697.6</ele>
        <time>2023-09-13T13:27:16.000Z</time>
      </trkpt>
      <trkpt lat="43.67259" lon="6.18554">
        <ele>698.5</ele>
        <time>2023-09-13T13:27:26.000Z</time>
      </trkpt>
      <trkpt lat="43.67256" lon="6.18565">
        <ele>699</ele>
        <time>2023-09-13T13:27:36.000Z</time>
      </trkpt>
      <trkpt lat="43.67253" lon="6.18576">
        <ele>700.2</ele>
        <time>2023-09-13T13:27:46.000Z</time>
      </trkpt>
      <trkpt lat="43.6725" lon="6.18588">
        <ele>700.6</ele>
        <time>2023-09-13T13:27:56.000Z</time>
      </trkpt>
      <trkpt lat="43.67247" lon="6.18602">
        <ele>701.9</ele>
        <time>2023-09-13T13:28:06.000Z</time>
      </trkpt>
      <trkpt lat="43.67246" lon="6.18615">
        <ele>702.6</ele>
        <time>2023-09-13T13:28:16.000Z</time>
      </trkpt>
      <trkpt lat="43.67244" lon="6.18628">
        <ele>703.4</ele>
        <time>2023-09-13T13:28:26.000Z</time>
      </trkpt>
      <trkpt lat="43.67244" lon="6.18642">
        <ele>703.8</ele>
        <time>2023-09-13T13:28:36.000Z</time>
      </trkpt>
      <trkpt lat="43.67242" lon="6.18654">
        <ele>704.5</ele>
        <time>2023-09-13T13:28:46.000Z</time>
      </trkpt>
      <trkpt lat="43.67241" lon="6.18665">
        <ele>705.7</ele>
        <time>2023-09-13T13:28:56.000Z</time>
      </trkpt>
      <trkpt lat="43.67237" lon="6.18673">
        <ele>706.1</ele>
        <time>2023-09-13T13:29:06.000Z</time>
      </trkpt>
      <trkpt lat="43.67235" lon="6.1868">
        <ele>706.8</ele>
        <time>2023-09-13T13:29:16.000Z</time>
      </trkpt>
      <trkpt lat="43.67229" lon="6.18685">
        <ele>707.9</ele>
        <time>2023-09-13T13:29:26.000Z</time>
      </trkpt>
      <trkpt lat="43.67224" lon="6.18691">
        <ele>708.8</ele>
        <time>2023-09-13T13:29:36.000Z</time>
      </trkpt>
      <trkpt lat="43.67218" lon="6.18698">
        <ele>709.8</ele>
        <time>2023-09-13T13:29:46.000Z</time>
      </trkpt>
      <trkpt lat="43.67211" lon="6.18704">
        <ele>711.1</ele>
        <time>2023-09-13T13:29:56.000Z</time>
      </trkpt>
      <trkpt lat="43.67206" lon="6.18709">
        <ele>711.9</ele>
        <time>2023-09-13T13:30:06.000Z</time>
      </trkpt>
      <trkpt lat="43.672" lon="6.18714">
        <ele>712.8</ele>
        <time>2023-09-13T13:30:16.000Z</time>
      </trkpt>
      <trkpt lat="43.67194" lon="6.18721">
        <ele>713.5</ele>
        <time>2023-09-13T13:30:26.000Z</time>
      </trkpt>
      <trkpt lat="43.67187" lon="6.18727">
        <ele>714.1</ele>
        <time>2023-09-13T13:30:36.000Z</time>
      </trkpt>
      <trkpt lat="43.67185" lon="6.18731">
        <ele>715.1</ele>
        <time>2023-09-13T13:30:46.000Z</time>
      </trkpt>
      <trkpt lat="43.67186" lon="6.18733">
        <ele>715.1</ele>
        <time>2023-09-13T13:30:56.000Z</time>
      </trkpt>
      <trkpt lat="43.67177" lon="6.18739">
        <ele>716</ele>
        <time>2023-09-13T13:31:06.000Z</time>
      </trkpt>
      <trkpt lat="43.67168" lon="6.18746">
        <ele>716.5</ele>
        <time>2023-09-13T13:31:16.000Z</time>
      </trkpt>
      <trkpt lat="43.67161" lon="6.18755">
        <ele>718.1</ele>
        <time>2023-09-13T13:31:26.000Z</time>
      </trkpt>
      <trkpt lat="43.67155" lon="6.18764">
        <ele>719.2</ele>
        <time>2023-09-13T13:31:36.000Z</time>
      </trkpt>
      <trkpt lat="43.67148" lon="6.18775">
        <ele>720.2</ele>
        <time>2023-09-13T13:31:46.000Z</time>
      </trkpt>
      <trkpt lat="43.67143" lon="6.18786">
        <ele>720.7</ele>
        <time>2023-09-13T13:31:56.000Z</time>
      </trkpt>
      <trkpt lat="43.67137" lon="6.18796">
        <ele>721.5</ele>
        <time>2023-09-13T13:32:06.000Z</time>
      </trkpt>
      <trkpt lat="43.6713" lon="6.18806">
        <ele>722.6</ele>
        <time>2023-09-13T13:32:16.000Z</time>
      </trkpt>
      <trkpt lat="43.67125" lon="6.18812">
        <ele>723.2</ele>
        <time>2023-09-13T13:32:26.000Z</time>
      </trkpt>
      <trkpt lat="43.67121" lon="6.1882">
        <ele>724.6</ele>
        <time>2023-09-13T13:32:36.000Z</time>
      </trkpt>
      <trkpt lat="43.67119" lon="6.18822">
        <ele>724.2</ele>
        <time>2023-09-13T13:32:46.000Z</time>
      </trkpt>
      <trkpt lat="43.67119" lon="6.18822">
        <ele>725.2</ele>
        <time>2023-09-13T13:32:56.000Z</time>
      </trkpt>
      <trkpt lat="43.67118" lon="6.18825">
        <ele>725.7</ele>
        <time>2023-09-13T13:33:06.000Z</time>
      </trkpt>
      <trkpt lat="43.67117" lon="6.18825">
        <ele>726</ele>
        <time>2023-09-13T13:33:16.000Z</time>
      </trkpt>
      <trkpt lat="43.67118" lon="6.18825">
        <ele>725.6</ele>
        <time>2023-09-13T13:33:26.000Z</time>
      </trkpt>
      <trkpt lat="43.67117" lon="6.18825">
        <ele>725.5</ele>
        <time>2023-09-13T13:33:36.000Z</time>
      </trkpt>
      <trkpt lat="43.67117" lon="6.18826">
        <ele>725.6</ele>
        <time>2023-09-13T13:33:46.000Z</time>
      </trkpt>
      <trkpt lat="43.67117" lon="6.18831">
        <ele>725.4</ele>
        <time>2023-09-13T13:33:56.000Z</time>
      </trkpt>
      <trkpt lat="43.67115" lon="6.18833">
        <ele>725.8</ele>
        <time>2023-09-13T13:34:06.000Z</time>
      </trkpt>
      <trkpt lat="43.6711" lon="6.18835">
        <ele>726.1</ele>
        <time>2023-09-13T13:34:16.000Z</time>
      </trkpt>
      <trkpt lat="43.671" lon="6.18839">
        <ele>728.3</ele>
        <time>2023-09-13T13:34:26.000Z</time>
      </trkpt>
      <trkpt lat="43.67088" lon="6.18843">
        <ele>730</ele>
        <time>2023-09-13T13:34:36.000Z</time>
      </trkpt>
      <trkpt lat="43.67079" lon="6.18848">
        <ele>730</ele>
        <time>2023-09-13T13:34:46.000Z</time>
      </trkpt>
      <trkpt lat="43.67072" lon="6.18852">
        <ele>731.3</ele>
        <time>2023-09-13T13:34:56.000Z</time>
      </trkpt>
      <trkpt lat="43.67064" lon="6.18857">
        <ele>731.5</ele>
        <time>2023-09-13T13:35:06.000Z</time>
      </trkpt>
      <trkpt lat="43.67059" lon="6.18864">
        <ele>733</ele>
        <time>2023-09-13T13:35:16.000Z</time>
      </trkpt>
      <trkpt lat="43.6705" lon="6.18869">
        <ele>733.4</ele>
        <time>2023-09-13T13:35:26.000Z</time>
      </trkpt>
      <trkpt lat="43.67045" lon="6.18879">
        <ele>733.7</ele>
        <time>2023-09-13T13:35:36.000Z</time>
      </trkpt>
      <trkpt lat="43.67037" lon="6.1889">
        <ele>734.8</ele>
        <time>2023-09-13T13:35:46.000Z</time>
      </trkpt>
      <trkpt lat="43.6703" lon="6.18899">
        <ele>735.2</ele>
        <time>2023-09-13T13:35:56.000Z</time>
      </trkpt>
      <trkpt lat="43.67024" lon="6.18905">
        <ele>735.8</ele>
        <time>2023-09-13T13:36:06.000Z</time>
      </trkpt>
      <trkpt lat="43.67025" lon="6.18913">
        <ele>736</ele>
        <time>2023-09-13T13:36:16.000Z</time>
      </trkpt>
      <trkpt lat="43.67025" lon="6.18915">
        <ele>735.5</ele>
        <time>2023-09-13T13:36:26.000Z</time>
      </trkpt>
      <trkpt lat="43.67021" lon="6.18915">
        <ele>735.3</ele>
        <time>2023-09-13T13:36:36.000Z</time>
      </trkpt>
      <trkpt lat="43.6702" lon="6.18915">
        <ele>734.8</ele>
        <time>2023-09-13T13:36:46.000Z</time>
      </trkpt>
      <trkpt lat="43.6702" lon="6.18916">
        <ele>735.1</ele>
        <time>2023-09-13T13:36:56.000Z</time>
      </trkpt>
      <trkpt lat="43.67019" lon="6.18916">
        <ele>735.5</ele>
        <time>2023-09-13T13:37:06.000Z</time>
      </trkpt>
      <trkpt lat="43.67018" lon="6.18917">
        <ele>735.2</ele>
        <time>2023-09-13T13:37:16.000Z</time>
      </trkpt>
      <trkpt lat="43.67019" lon="6.18917">
        <ele>735</ele>
        <time>2023-09-13T13:37:26.000Z</time>
      </trkpt>
      <trkpt lat="43.67019" lon="6.18916">
        <ele>734.8</ele>
        <time>2023-09-13T13:37:36.000Z</time>
      </trkpt>
      <trkpt lat="43.67019" lon="6.18915">
        <ele>734.9</ele>
        <time>2023-09-13T13:37:46.000Z</time>
      </trkpt>
      <trkpt lat="43.67018" lon="6.18915">
        <ele>734.9</ele>
        <time>2023-09-13T13:37:56.000Z</time>
      </trkpt>
      <trkpt lat="43.67016" lon="6.18916">
        <ele>735</ele>
        <time>2023-09-13T13:38:06.000Z</time>
      </trkpt>
      <trkpt lat="43.67015" lon="6.18918">
        <ele>735</ele>
        <time>2023-09-13T13:38:16.000Z</time>
      </trkpt>
      <trkpt lat="43.67013" lon="6.18919">
        <ele>734.9</ele>
        <time>2023-09-13T13:38:26.000Z</time>
      </trkpt>
      <trkpt lat="43.67013" lon="6.18921">
        <ele>735</ele>
        <time>2023-09-13T13:38:36.000Z</time>
      </trkpt>
      <trkpt lat="43.67013" lon="6.18921">
        <ele>735</ele>
        <time>2023-09-13T13:38:46.000Z</time>
      </trkpt>
      <trkpt lat="43.67013" lon="6.1892">
        <ele>735</ele>
        <time>2023-09-13T13:38:56.000Z</time>
      </trkpt>
      <trkpt lat="43.67013" lon="6.1892">
        <ele>735.2</ele>
        <time>2023-09-13T13:39:06.000Z</time>
      </trkpt>
      <trkpt lat="43.67013" lon="6.18921">
        <ele>735.4</ele>
        <time>2023-09-13T13:39:16.000Z</time>
      </trkpt>
      <trkpt lat="43.67013" lon="6.18922">
        <ele>735.5</ele>
        <time>2023-09-13T13:39:26.000Z</time>
      </trkpt>
      <trkpt lat="43.67013" lon="6.18922">
        <ele>735.4</ele>
        <time>2023-09-13T13:39:36.000Z</time>
      </trkpt>
      <trkpt lat="43.67013" lon="6.18921">
        <ele>735.2</ele>
        <time>2023-09-13T13:39:46.000Z</time>
      </trkpt>
      <trkpt lat="43.67013" lon="6.18921">
        <ele>735</ele>
        <time>2023-09-13T13:39:56.000Z</time>
      </trkpt>
      <trkpt lat="43.67014" lon="6.1892">
        <ele>735.1</ele>
        <time>2023-09-13T13:40:06.000Z</time>
      </trkpt>
      <trkpt lat="43.67015" lon="6.1892">
        <ele>735.1</ele>
        <time>2023-09-13T13:40:16.000Z</time>
      </trkpt>
      <trkpt lat="43.67016" lon="6.18919">
        <ele>735.1</ele>
        <time>2023-09-13T13:40:26.000Z</time>
      </trkpt>
      <trkpt lat="43.67016" lon="6.18917">
        <ele>734.9</ele>
        <time>2023-09-13T13:40:36.000Z</time>
      </trkpt>
      <trkpt lat="43.67016" lon="6.18917">
        <ele>735.6</ele>
        <time>2023-09-13T13:40:46.000Z</time>
      </trkpt>
      <trkpt lat="43.67017" lon="6.18919">
        <ele>736</ele>
        <time>2023-09-13T13:40:56.000Z</time>
      </trkpt>
      <trkpt lat="43.67019" lon="6.1892">
        <ele>736</ele>
        <time>2023-09-13T13:41:06.000Z</time>
      </trkpt>
      <trkpt lat="43.67022" lon="6.1892">
        <ele>735.8</ele>
        <time>2023-09-13T13:41:16.000Z</time>
      </trkpt>
      <trkpt lat="43.6702" lon="6.18922">
        <ele>735.5</ele>
        <time>2023-09-13T13:41:26.000Z</time>
      </trkpt>
      <trkpt lat="43.67017" lon="6.18923">
        <ele>736</ele>
        <time>2023-09-13T13:41:36.000Z</time>
      </trkpt>
      <trkpt lat="43.67015" lon="6.18923">
        <ele>735.5</ele>
        <time>2023-09-13T13:41:46.000Z</time>
      </trkpt>
      <trkpt lat="43.67014" lon="6.18923">
        <ele>735.9</ele>
        <time>2023-09-13T13:41:56.000Z</time>
      </trkpt>
      <trkpt lat="43.67014" lon="6.18922">
        <ele>735.9</ele>
        <time>2023-09-13T13:42:06.000Z</time>
      </trkpt>
      <trkpt lat="43.67014" lon="6.18921">
        <ele>735.6</ele>
        <time>2023-09-13T13:42:16.000Z</time>
      </trkpt>
      <trkpt lat="43.67014" lon="6.18921">
        <ele>735.8</ele>
        <time>2023-09-13T13:42:26.000Z</time>
      </trkpt>
      <trkpt lat="43.67013" lon="6.18922">
        <ele>735.5</ele>
        <time>2023-09-13T13:42:36.000Z</time>
      </trkpt>
      <trkpt lat="43.67015" lon="6.18917">
        <ele>735.8</ele>
        <time>2023-09-13T13:42:46.000Z</time>
      </trkpt>
      <trkpt lat="43.67009" lon="6.18916">
        <ele>736</ele>
        <time>2023-09-13T13:42:56.000Z</time>
      </trkpt>
      <trkpt lat="43.67004" lon="6.1892">
        <ele>736.4</ele>
        <time>2023-09-13T13:43:06.000Z</time>
      </trkpt>
      <trkpt lat="43.66998" lon="6.18925">
        <ele>736.5</ele>
        <time>2023-09-13T13:43:16.000Z</time>
      </trkpt>
      <trkpt lat="43.66991" lon="6.18931">
        <ele>737</ele>
        <time>2023-09-13T13:43:26.000Z</time>
      </trkpt>
      <trkpt lat="43.66985" lon="6.18939">
        <ele>737</ele>
        <time>2023-09-13T13:43:36.000Z</time>
      </trkpt>
      <trkpt lat="43.6698" lon="6.18949">
        <ele>737.6</ele>
        <time>2023-09-13T13:43:46.000Z</time>
      </trkpt>
      <trkpt lat="43.66976" lon="6.18959">
        <ele>738.4</ele>
        <time>2023-09-13T13:43:56.000Z</time>
      </trkpt>
      <trkpt lat="43.66968" lon="6.18971">
        <ele>738.9</ele>
        <time>2023-09-13T13:44:06.000Z</time>
      </trkpt>
      <trkpt lat="43.6696" lon="6.18984">
        <ele>739.1</ele>
        <time>2023-09-13T13:44:16.000Z</time>
      </trkpt>
      <trkpt lat="43.66953" lon="6.18995">
        <ele>739.3</ele>
        <time>2023-09-13T13:44:26.000Z</time>
      </trkpt>
      <trkpt lat="43.66948" lon="6.19008">
        <ele>739.6</ele>
        <time>2023-09-13T13:44:36.000Z</time>
      </trkpt>
      <trkpt lat="43.66944" lon="6.1902">
        <ele>739.7</ele>
        <time>2023-09-13T13:44:46.000Z</time>
      </trkpt>
      <trkpt lat="43.6694" lon="6.19033">
        <ele>740.3</ele>
        <time>2023-09-13T13:44:56.000Z</time>
      </trkpt>
      <trkpt lat="43.66935" lon="6.19044">
        <ele>741.4</ele>
        <time>2023-09-13T13:45:06.000Z</time>
      </trkpt>
      <trkpt lat="43.6693" lon="6.19056">
        <ele>741.5</ele>
        <time>2023-09-13T13:45:16.000Z</time>
      </trkpt>
      <trkpt lat="43.66926" lon="6.19065">
        <ele>741.8</ele>
        <time>2023-09-13T13:45:26.000Z</time>
      </trkpt>
      <trkpt lat="43.6692" lon="6.19081">
        <ele>742.2</ele>
        <time>2023-09-13T13:45:36.000Z</time>
      </trkpt>
      <trkpt lat="43.66915" lon="6.19092">
        <ele>742.5</ele>
        <time>2023-09-13T13:45:46.000Z</time>
      </trkpt>
      <trkpt lat="43.6691" lon="6.19102">
        <ele>743.7</ele>
        <time>2023-09-13T13:45:56.000Z</time>
      </trkpt>
      <trkpt lat="43.66903" lon="6.19113">
        <ele>744.1</ele>
        <time>2023-09-13T13:46:06.000Z</time>
      </trkpt>
      <trkpt lat="43.66895" lon="6.19124">
        <ele>744.7</ele>
        <time>2023-09-13T13:46:16.000Z</time>
      </trkpt>
      <trkpt lat="43.66888" lon="6.19137">
        <ele>745.3</ele>
        <time>2023-09-13T13:46:26.000Z</time>
      </trkpt>
      <trkpt lat="43.66881" lon="6.19151">
        <ele>746.1</ele>
        <time>2023-09-13T13:46:36.000Z</time>
      </trkpt>
      <trkpt lat="43.66878" lon="6.19167">
        <ele>746.7</ele>
        <time>2023-09-13T13:46:46.000Z</time>
      </trkpt>
      <trkpt lat="43.66873" lon="6.19181">
        <ele>746.6</ele>
        <time>2023-09-13T13:46:56.000Z</time>
      </trkpt>
      <trkpt lat="43.66867" lon="6.19195">
        <ele>747.4</ele>
        <time>2023-09-13T13:47:06.000Z</time>
      </trkpt>
      <trkpt lat="43.66859" lon="6.19209">
        <ele>747.6</ele>
        <time>2023-09-13T13:47:16.000Z</time>
      </trkpt>
      <trkpt lat="43.66851" lon="6.19221">
        <ele>749.2</ele>
        <time>2023-09-13T13:47:26.000Z</time>
      </trkpt>
      <trkpt lat="43.66842" lon="6.19237">
        <ele>750</ele>
        <time>2023-09-13T13:47:36.000Z</time>
      </trkpt>
      <trkpt lat="43.66835" lon="6.19252">
        <ele>750.6</ele>
        <time>2023-09-13T13:47:46.000Z</time>
      </trkpt>
      <trkpt lat="43.66827" lon="6.19264">
        <ele>751.5</ele>
        <time>2023-09-13T13:47:56.000Z</time>
      </trkpt>
      <trkpt lat="43.66818" lon="6.19277">
        <ele>752.2</ele>
        <time>2023-09-13T13:48:06.000Z</time>
      </trkpt>
      <trkpt lat="43.6681" lon="6.19292">
        <ele>752.1</ele>
        <time>2023-09-13T13:48:16.000Z</time>
      </trkpt>
      <trkpt lat="43.66805" lon="6.19305">
        <ele>752.3</ele>
        <time>2023-09-13T13:48:26.000Z</time>
      </trkpt>
      <trkpt lat="43.66803" lon="6.19311">
        <ele>751.9</ele>
        <time>2023-09-13T13:48:36.000Z</time>
      </trkpt>
      <trkpt lat="43.66804" lon="6.19314">
        <ele>752.5</ele>
        <time>2023-09-13T13:48:46.000Z</time>
      </trkpt>
      <trkpt lat="43.66803" lon="6.19314">
        <ele>752.3</ele>
        <time>2023-09-13T13:48:56.000Z</time>
      </trkpt>
      <trkpt lat="43.66804" lon="6.19316">
        <ele>752.6</ele>
        <time>2023-09-13T13:49:06.000Z</time>
      </trkpt>
      <trkpt lat="43.66804" lon="6.19318">
        <ele>752.9</ele>
        <time>2023-09-13T13:49:16.000Z</time>
      </trkpt>
      <trkpt lat="43.66804" lon="6.19319">
        <ele>752.9</ele>
        <time>2023-09-13T13:49:26.000Z</time>
      </trkpt>
      <trkpt lat="43.66805" lon="6.1932">
        <ele>752.8</ele>
        <time>2023-09-13T13:49:36.000Z</time>
      </trkpt>
      <trkpt lat="43.66802" lon="6.19325">
        <ele>753.1</ele>
        <time>2023-09-13T13:49:46.000Z</time>
      </trkpt>
      <trkpt lat="43.66796" lon="6.19338">
        <ele>752.7</ele>
        <time>2023-09-13T13:49:56.000Z</time>
      </trkpt>
      <trkpt lat="43.66789" lon="6.19349">
        <ele>751.9</ele>
        <time>2023-09-13T13:50:06.000Z</time>
      </trkpt>
      <trkpt lat="43.66784" lon="6.19359">
        <ele>750.4</ele>
        <time>2023-09-13T13:50:16.000Z</time>
      </trkpt>
      <trkpt lat="43.66774" lon="6.19369">
        <ele>749.8</ele>
        <time>2023-09-13T13:50:26.000Z</time>
      </trkpt>
      <trkpt lat="43.66769" lon="6.19379">
        <ele>749.4</ele>
        <time>2023-09-13T13:50:36.000Z</time>
      </trkpt>
      <trkpt lat="43.6676" lon="6.1939">
        <ele>748.2</ele>
        <time>2023-09-13T13:50:46.000Z</time>
      </trkpt>
      <trkpt lat="43.66753" lon="6.19404">
        <ele>748</ele>
        <time>2023-09-13T13:50:56.000Z</time>
      </trkpt>
      <trkpt lat="43.66754" lon="6.19404">
        <ele>747.5</ele>
        <time>2023-09-13T13:51:06.000Z</time>
      </trkpt>
      <trkpt lat="43.66752" lon="6.19405">
        <ele>747.9</ele>
        <time>2023-09-13T13:51:16.000Z</time>
      </trkpt>
      <trkpt lat="43.66751" lon="6.19422">
        <ele>748.5</ele>
        <time>2023-09-13T13:51:26.000Z</time>
      </trkpt>
      <trkpt lat="43.66751" lon="6.19438">
        <ele>748.5</ele>
        <time>2023-09-13T13:51:36.000Z</time>
      </trkpt>
      <trkpt lat="43.66751" lon="6.1946">
        <ele>749.1</ele>
        <time>2023-09-13T13:51:46.000Z</time>
      </trkpt>
      <trkpt lat="43.66752" lon="6.19478">
        <ele>749.6</ele>
        <time>2023-09-13T13:51:56.000Z</time>
      </trkpt>
      <trkpt lat="43.66755" lon="6.19493">
        <ele>750.8</ele>
        <time>2023-09-13T13:52:06.000Z</time>
      </trkpt>
      <trkpt lat="43.66759" lon="6.19507">
        <ele>751.9</ele>
        <time>2023-09-13T13:52:16.000Z</time>
      </trkpt>
      <trkpt lat="43.66764" lon="6.19519">
        <ele>752.1</ele>
        <time>2023-09-13T13:52:26.000Z</time>
      </trkpt>
      <trkpt lat="43.6677" lon="6.19534">
        <ele>753.7</ele>
        <time>2023-09-13T13:52:36.000Z</time>
      </trkpt>
      <trkpt lat="43.66774" lon="6.19549">
        <ele>754.8</ele>
        <time>2023-09-13T13:52:46.000Z</time>
      </trkpt>
      <trkpt lat="43.6678" lon="6.19564">
        <ele>756.3</ele>
        <time>2023-09-13T13:52:56.000Z</time>
      </trkpt>
      <trkpt lat="43.66784" lon="6.19578">
        <ele>757.6</ele>
        <time>2023-09-13T13:53:06.000Z</time>
      </trkpt>
      <trkpt lat="43.66785" lon="6.19594">
        <ele>758.8</ele>
        <time>2023-09-13T13:53:16.000Z</time>
      </trkpt>
      <trkpt lat="43.66787" lon="6.1961">
        <ele>760.8</ele>
        <time>2023-09-13T13:53:26.000Z</time>
      </trkpt>
      <trkpt lat="43.6679" lon="6.19625">
        <ele>761.7</ele>
        <time>2023-09-13T13:53:36.000Z</time>
      </trkpt>
      <trkpt lat="43.66793" lon="6.19639">
        <ele>763.5</ele>
        <time>2023-09-13T13:53:46.000Z</time>
      </trkpt>
      <trkpt lat="43.66796" lon="6.19654">
        <ele>764.1</ele>
        <time>2023-09-13T13:53:56.000Z</time>
      </trkpt>
      <trkpt lat="43.668" lon="6.19668">
        <ele>765.5</ele>
        <time>2023-09-13T13:54:06.000Z</time>
      </trkpt>
      <trkpt lat="43.66803" lon="6.19682">
        <ele>768</ele>
        <time>2023-09-13T13:54:16.000Z</time>
      </trkpt>
      <trkpt lat="43.66808" lon="6.19696">
        <ele>769.2</ele>
        <time>2023-09-13T13:54:26.000Z</time>
      </trkpt>
      <trkpt lat="43.66812" lon="6.19711">
        <ele>770.3</ele>
        <time>2023-09-13T13:54:36.000Z</time>
      </trkpt>
      <trkpt lat="43.66816" lon="6.19726">
        <ele>771.1</ele>
        <time>2023-09-13T13:54:46.000Z</time>
      </trkpt>
      <trkpt lat="43.6682" lon="6.19741">
        <ele>772</ele>
        <time>2023-09-13T13:54:56.000Z</time>
      </trkpt>
      <trkpt lat="43.66824" lon="6.19756">
        <ele>772.7</ele>
        <time>2023-09-13T13:55:06.000Z</time>
      </trkpt>
      <trkpt lat="43.66827" lon="6.19772">
        <ele>773.9</ele>
        <time>2023-09-13T13:55:16.000Z</time>
      </trkpt>
      <trkpt lat="43.66831" lon="6.19787">
        <ele>774.7</ele>
        <time>2023-09-13T13:55:26.000Z</time>
      </trkpt>
      <trkpt lat="43.66835" lon="6.19802">
        <ele>776.1</ele>
        <time>2023-09-13T13:55:36.000Z</time>
      </trkpt>
      <trkpt lat="43.66839" lon="6.19818">
        <ele>776.9</ele>
        <time>2023-09-13T13:55:46.000Z</time>
      </trkpt>
      <trkpt lat="43.66842" lon="6.19834">
        <ele>778.1</ele>
        <time>2023-09-13T13:55:56.000Z</time>
      </trkpt>
      <trkpt lat="43.66845" lon="6.19846">
        <ele>778.8</ele>
        <time>2023-09-13T13:56:06.000Z</time>
      </trkpt>
      <trkpt lat="43.66846" lon="6.19861">
        <ele>780.6</ele>
        <time>2023-09-13T13:56:16.000Z</time>
      </trkpt>
      <trkpt lat="43.66848" lon="6.19874">
        <ele>782.5</ele>
        <time>2023-09-13T13:56:26.000Z</time>
      </trkpt>
      <trkpt lat="43.66847" lon="6.19884">
        <ele>785.9</ele>
        <time>2023-09-13T13:56:36.000Z</time>
      </trkpt>
      <trkpt lat="43.66844" lon="6.19888">
        <ele>786.2</ele>
        <time>2023-09-13T13:56:46.000Z</time>
      </trkpt>
      <trkpt lat="43.66846" lon="6.19891">
        <ele>786.3</ele>
        <time>2023-09-13T13:56:56.000Z</time>
      </trkpt>
      <trkpt lat="43.66845" lon="6.19893">
        <ele>786.9</ele>
        <time>2023-09-13T13:57:06.000Z</time>
      </trkpt>
      <trkpt lat="43.66845" lon="6.19895">
        <ele>787</ele>
        <time>2023-09-13T13:57:16.000Z</time>
      </trkpt>
      <trkpt lat="43.66846" lon="6.19896">
        <ele>787.2</ele>
        <time>2023-09-13T13:57:26.000Z</time>
      </trkpt>
      <trkpt lat="43.66846" lon="6.19897">
        <ele>786.7</ele>
        <time>2023-09-13T13:57:36.000Z</time>
      </trkpt>
      <trkpt lat="43.66847" lon="6.19898">
        <ele>786.9</ele>
        <time>2023-09-13T13:57:46.000Z</time>
      </trkpt>
      <trkpt lat="43.66847" lon="6.19898">
        <ele>786.9</ele>
        <time>2023-09-13T13:57:56.000Z</time>
      </trkpt>
      <trkpt lat="43.66847" lon="6.19898">
        <ele>786.9</ele>
        <time>2023-09-13T13:58:06.000Z</time>
      </trkpt>
      <trkpt lat="43.66847" lon="6.19899">
        <ele>786.9</ele>
        <time>2023-09-13T13:58:16.000Z</time>
      </trkpt>
      <trkpt lat="43.66848" lon="6.19899">
        <ele>786.7</ele>
        <time>2023-09-13T13:58:26.000Z</time>
      </trkpt>
      <trkpt lat="43.66849" lon="6.199">
        <ele>786.8</ele>
        <time>2023-09-13T13:58:36.000Z</time>
      </trkpt>
      <trkpt lat="43.66848" lon="6.199">
        <ele>787.3</ele>
        <time>2023-09-13T13:58:46.000Z</time>
      </trkpt>
      <trkpt lat="43.66849" lon="6.19901">
        <ele>786.9</ele>
        <time>2023-09-13T13:58:56.000Z</time>
      </trkpt>
      <trkpt lat="43.66853" lon="6.19901">
        <ele>787.3</ele>
        <time>2023-09-13T13:59:06.000Z</time>
      </trkpt>
      <trkpt lat="43.66855" lon="6.19901">
        <ele>787.1</ele>
        <time>2023-09-13T13:59:16.000Z</time>
      </trkpt>
      <trkpt lat="43.66857" lon="6.19901">
        <ele>787.2</ele>
        <time>2023-09-13T13:59:26.000Z</time>
      </trkpt>
      <trkpt lat="43.66856" lon="6.19902">
        <ele>787.4</ele>
        <time>2023-09-13T13:59:36.000Z</time>
      </trkpt>
      <trkpt lat="43.66854" lon="6.19902">
        <ele>787</ele>
        <time>2023-09-13T13:59:46.000Z</time>
      </trkpt>
      <trkpt lat="43.66852" lon="6.19903">
        <ele>786.2</ele>
        <time>2023-09-13T13:59:56.000Z</time>
      </trkpt>
      <trkpt lat="43.66851" lon="6.19906">
        <ele>787.4</ele>
        <time>2023-09-13T14:00:06.000Z</time>
      </trkpt>
      <trkpt lat="43.6685" lon="6.19906">
        <ele>787.2</ele>
        <time>2023-09-13T14:00:16.000Z</time>
      </trkpt>
      <trkpt lat="43.66851" lon="6.19906">
        <ele>787.2</ele>
        <time>2023-09-13T14:00:26.000Z</time>
      </trkpt>
      <trkpt lat="43.66851" lon="6.19904">
        <ele>787.4</ele>
        <time>2023-09-13T14:00:36.000Z</time>
      </trkpt>
      <trkpt lat="43.66851" lon="6.19903">
        <ele>787.5</ele>
        <time>2023-09-13T14:00:46.000Z</time>
      </trkpt>
      <trkpt lat="43.66851" lon="6.19903">
        <ele>787.7</ele>
        <time>2023-09-13T14:00:56.000Z</time>
      </trkpt>
      <trkpt lat="43.6685" lon="6.19904">
        <ele>787.4</ele>
        <time>2023-09-13T14:01:06.000Z</time>
      </trkpt>
      <trkpt lat="43.66847" lon="6.19906">
        <ele>787.5</ele>
        <time>2023-09-13T14:01:16.000Z</time>
      </trkpt>
      <trkpt lat="43.66847" lon="6.19912">
        <ele>788.4</ele>
        <time>2023-09-13T14:01:26.000Z</time>
      </trkpt>
      <trkpt lat="43.66848" lon="6.19912">
        <ele>788.1</ele>
        <time>2023-09-13T14:01:36.000Z</time>
      </trkpt>
      <trkpt lat="43.66849" lon="6.19911">
        <ele>787.7</ele>
        <time>2023-09-13T14:01:46.000Z</time>
      </trkpt>
      <trkpt lat="43.66852" lon="6.19912">
        <ele>788.5</ele>
        <time>2023-09-13T14:01:56.000Z</time>
      </trkpt>
      <trkpt lat="43.6685" lon="6.1991">
        <ele>788.3</ele>
        <time>2023-09-13T14:02:06.000Z</time>
      </trkpt>
      <trkpt lat="43.66849" lon="6.19909">
        <ele>788.2</ele>
        <time>2023-09-13T14:02:16.000Z</time>
      </trkpt>
      <trkpt lat="43.66848" lon="6.19909">
        <ele>788.1</ele>
        <time>2023-09-13T14:02:26.000Z</time>
      </trkpt>
      <trkpt lat="43.66848" lon="6.19908">
        <ele>787.7</ele>
        <time>2023-09-13T14:02:36.000Z</time>
      </trkpt>
      <trkpt lat="43.66848" lon="6.19908">
        <ele>787.5</ele>
        <time>2023-09-13T14:02:46.000Z</time>
      </trkpt>
      <trkpt lat="43.66848" lon="6.19908">
        <ele>787.5</ele>
        <time>2023-09-13T14:02:56.000Z</time>
      </trkpt>
      <trkpt lat="43.66848" lon="6.19908">
        <ele>787.5</ele>
        <time>2023-09-13T14:03:06.000Z</time>
      </trkpt>
      <trkpt lat="43.66849" lon="6.19907">
        <ele>787.3</ele>
        <time>2023-09-13T14:03:16.000Z</time>
      </trkpt>
      <trkpt lat="43.6685" lon="6.19907">
        <ele>787.2</ele>
        <time>2023-09-13T14:03:26.000Z</time>
      </trkpt>
      <trkpt lat="43.66851" lon="6.19907">
        <ele>787.3</ele>
        <time>2023-09-13T14:03:36.000Z</time>
      </trkpt>
      <trkpt lat="43.6685" lon="6.19907">
        <ele>787.3</ele>
        <time>2023-09-13T14:03:46.000Z</time>
      </trkpt>
      <trkpt lat="43.6685" lon="6.19907">
        <ele>787.3</ele>
        <time>2023-09-13T14:03:56.000Z</time>
      </trkpt>
      <trkpt lat="43.6685" lon="6.19907">
        <ele>787.3</ele>
        <time>2023-09-13T14:04:06.000Z</time>
      </trkpt>
      <trkpt lat="43.66851" lon="6.19906">
        <ele>787.3</ele>
        <time>2023-09-13T14:04:16.000Z</time>
      </trkpt>
      <trkpt lat="43.66851" lon="6.19906">
        <ele>787.4</ele>
        <time>2023-09-13T14:04:26.000Z</time>
      </trkpt>
      <trkpt lat="43.66852" lon="6.19907">
        <ele>787.4</ele>
        <time>2023-09-13T14:04:36.000Z</time>
      </trkpt>
      <trkpt lat="43.66852" lon="6.19907">
        <ele>787.4</ele>
        <time>2023-09-13T14:04:46.000Z</time>
      </trkpt>
      <trkpt lat="43.66852" lon="6.19908">
        <ele>787.4</ele>
        <time>2023-09-13T14:04:56.000Z</time>
      </trkpt>
      <trkpt lat="43.66852" lon="6.19908">
        <ele>787.4</ele>
        <time>2023-09-13T14:05:06.000Z</time>
      </trkpt>
      <trkpt lat="43.66853" lon="6.19908">
        <ele>787.4</ele>
        <time>2023-09-13T14:05:16.000Z</time>
      </trkpt>
      <trkpt lat="43.66853" lon="6.19908">
        <ele>787.2</ele>
        <time>2023-09-13T14:05:26.000Z</time>
      </trkpt>
      <trkpt lat="43.66853" lon="6.19908">
        <ele>787.7</ele>
        <time>2023-09-13T14:05:36.000Z</time>
      </trkpt>
      <trkpt lat="43.66853" lon="6.19908">
        <ele>787.6</ele>
        <time>2023-09-13T14:05:46.000Z</time>
      </trkpt>
      <trkpt lat="43.66853" lon="6.19909">
        <ele>787.6</ele>
        <time>2023-09-13T14:05:56.000Z</time>
      </trkpt>
      <trkpt lat="43.66853" lon="6.19909">
        <ele>787.6</ele>
        <time>2023-09-13T14:06:06.000Z</time>
      </trkpt>
      <trkpt lat="43.66853" lon="6.1991">
        <ele>787.6</ele>
        <time>2023-09-13T14:06:16.000Z</time>
      </trkpt>
      <trkpt lat="43.66853" lon="6.1991">
        <ele>787.7</ele>
        <time>2023-09-13T14:06:26.000Z</time>
      </trkpt>
      <trkpt lat="43.66853" lon="6.19911">
        <ele>787.7</ele>
        <time>2023-09-13T14:06:36.000Z</time>
      </trkpt>
      <trkpt lat="43.66853" lon="6.19911">
        <ele>787.7</ele>
        <time>2023-09-13T14:06:46.000Z</time>
      </trkpt>
      <trkpt lat="43.66852" lon="6.19911">
        <ele>787.7</ele>
        <time>2023-09-13T14:06:56.000Z</time>
      </trkpt>
      <trkpt lat="43.66851" lon="6.19912">
        <ele>788.1</ele>
        <time>2023-09-13T14:07:06.000Z</time>
      </trkpt>
      <trkpt lat="43.66851" lon="6.19911">
        <ele>787.7</ele>
        <time>2023-09-13T14:07:16.000Z</time>
      </trkpt>
      <trkpt lat="43.6685" lon="6.1991">
        <ele>788.3</ele>
        <time>2023-09-13T14:07:26.000Z</time>
      </trkpt>
      <trkpt lat="43.66849" lon="6.19909">
        <ele>788.7</ele>
        <time>2023-09-13T14:07:36.000Z</time>
      </trkpt>
      <trkpt lat="43.66849" lon="6.1991">
        <ele>789.2</ele>
        <time>2023-09-13T14:07:46.000Z</time>
      </trkpt>
      <trkpt lat="43.66847" lon="6.19911">
        <ele>789.4</ele>
        <time>2023-09-13T14:07:56.000Z</time>
      </trkpt>
      <trkpt lat="43.66847" lon="6.19911">
        <ele>789.6</ele>
        <time>2023-09-13T14:08:06.000Z</time>
      </trkpt>
      <trkpt lat="43.66848" lon="6.19912">
        <ele>789.3</ele>
        <time>2023-09-13T14:08:16.000Z</time>
      </trkpt>
      <trkpt lat="43.66848" lon="6.19912">
        <ele>789.3</ele>
        <time>2023-09-13T14:08:26.000Z</time>
      </trkpt>
      <trkpt lat="43.66849" lon="6.19911">
        <ele>789.3</ele>
        <time>2023-09-13T14:08:36.000Z</time>
      </trkpt>
      <trkpt lat="43.66848" lon="6.1991">
        <ele>789.2</ele>
        <time>2023-09-13T14:08:46.000Z</time>
      </trkpt>
      <trkpt lat="43.66841" lon="6.19908">
        <ele>788.6</ele>
        <time>2023-09-13T14:08:56.000Z</time>
      </trkpt>
      <trkpt lat="43.66831" lon="6.19904">
        <ele>788.3</ele>
        <time>2023-09-13T14:09:06.000Z</time>
      </trkpt>
      <trkpt lat="43.6682" lon="6.199">
        <ele>789</ele>
        <time>2023-09-13T14:09:16.000Z</time>
      </trkpt>
      <trkpt lat="43.6681" lon="6.19895">
        <ele>791.6</ele>
        <time>2023-09-13T14:09:26.000Z</time>
      </trkpt>
      <trkpt lat="43.66797" lon="6.19889">
        <ele>791.6</ele>
        <time>2023-09-13T14:09:36.000Z</time>
      </trkpt>
      <trkpt lat="43.66785" lon="6.19885">
        <ele>791.9</ele>
        <time>2023-09-13T14:09:46.000Z</time>
      </trkpt>
      <trkpt lat="43.66775" lon="6.19883">
        <ele>793.2</ele>
        <time>2023-09-13T14:09:56.000Z</time>
      </trkpt>
      <trkpt lat="43.66763" lon="6.1988">
        <ele>793.3</ele>
        <time>2023-09-13T14:10:06.000Z</time>
      </trkpt>
      <trkpt lat="43.66752" lon="6.19874">
        <ele>794.6</ele>
        <time>2023-09-13T14:10:16.000Z</time>
      </trkpt>
      <trkpt lat="43.66742" lon="6.19865">
        <ele>797.1</ele>
        <time>2023-09-13T14:10:26.000Z</time>
      </trkpt>
      <trkpt lat="43.6673" lon="6.19862">
        <ele>797.2</ele>
        <time>2023-09-13T14:10:36.000Z</time>
      </trkpt>
      <trkpt lat="43.66718" lon="6.19858">
        <ele>798.3</ele>
        <time>2023-09-13T14:10:46.000Z</time>
      </trkpt>
      <trkpt lat="43.66705" lon="6.19851">
        <ele>797.2</ele>
        <time>2023-09-13T14:10:56.000Z</time>
      </trkpt>
      <trkpt lat="43.66698" lon="6.19843">
        <ele>796.8</ele>
        <time>2023-09-13T14:11:06.000Z</time>
      </trkpt>
      <trkpt lat="43.66691" lon="6.1984">
        <ele>795.8</ele>
        <time>2023-09-13T14:11:16.000Z</time>
      </trkpt>
      <trkpt lat="43.66689" lon="6.19839">
        <ele>795</ele>
        <time>2023-09-13T14:11:26.000Z</time>
      </trkpt>
      <trkpt lat="43.66689" lon="6.1984">
        <ele>794.9</ele>
        <time>2023-09-13T14:11:36.000Z</time>
      </trkpt>
      <trkpt lat="43.66688" lon="6.19841">
        <ele>794.7</ele>
        <time>2023-09-13T14:11:46.000Z</time>
      </trkpt>
      <trkpt lat="43.66688" lon="6.19841">
        <ele>794.8</ele>
        <time>2023-09-13T14:11:56.000Z</time>
      </trkpt>
      <trkpt lat="43.66688" lon="6.1984">
        <ele>794.6</ele>
        <time>2023-09-13T14:12:06.000Z</time>
      </trkpt>
      <trkpt lat="43.66688" lon="6.1984">
        <ele>794.7</ele>
        <time>2023-09-13T14:12:16.000Z</time>
      </trkpt>
      <trkpt lat="43.66688" lon="6.19842">
        <ele>794.6</ele>
        <time>2023-09-13T14:12:26.000Z</time>
      </trkpt>
      <trkpt lat="43.66689" lon="6.19842">
        <ele>794.7</ele>
        <time>2023-09-13T14:12:36.000Z</time>
      </trkpt>
      <trkpt lat="43.66688" lon="6.19843">
        <ele>794.8</ele>
        <time>2023-09-13T14:12:46.000Z</time>
      </trkpt>
      <trkpt lat="43.66687" lon="6.19844">
        <ele>794.6</ele>
        <time>2023-09-13T14:12:56.000Z</time>
      </trkpt>
      <trkpt lat="43.66687" lon="6.19845">
        <ele>794.6</ele>
        <time>2023-09-13T14:13:06.000Z</time>
      </trkpt>
      <trkpt lat="43.66687" lon="6.19846">
        <ele>794.7</ele>
        <time>2023-09-13T14:13:16.000Z</time>
      </trkpt>
      <trkpt lat="43.66687" lon="6.19846">
        <ele>794.6</ele>
        <time>2023-09-13T14:13:26.000Z</time>
      </trkpt>
      <trkpt lat="43.66687" lon="6.19846">
        <ele>794.5</ele>
        <time>2023-09-13T14:13:36.000Z</time>
      </trkpt>
      <trkpt lat="43.66688" lon="6.19846">
        <ele>794.5</ele>
        <time>2023-09-13T14:13:46.000Z</time>
      </trkpt>
      <trkpt lat="43.66688" lon="6.19845">
        <ele>794.7</ele>
        <time>2023-09-13T14:13:56.000Z</time>
      </trkpt>
      <trkpt lat="43.66688" lon="6.19845">
        <ele>794.7</ele>
        <time>2023-09-13T14:14:06.000Z</time>
      </trkpt>
      <trkpt lat="43.66688" lon="6.19845">
        <ele>795</ele>
        <time>2023-09-13T14:14:16.000Z</time>
      </trkpt>
      <trkpt lat="43.66686" lon="6.19847">
        <ele>795</ele>
        <time>2023-09-13T14:14:26.000Z</time>
      </trkpt>
      <trkpt lat="43.66685" lon="6.19847">
        <ele>794.8</ele>
        <time>2023-09-13T14:14:36.000Z</time>
      </trkpt>
      <trkpt lat="43.66685" lon="6.19848">
        <ele>794.9</ele>
        <time>2023-09-13T14:14:46.000Z</time>
      </trkpt>
      <trkpt lat="43.66685" lon="6.19848">
        <ele>794.6</ele>
        <time>2023-09-13T14:14:56.000Z</time>
      </trkpt>
      <trkpt lat="43.66685" lon="6.19849">
        <ele>795.4</ele>
        <time>2023-09-13T14:15:06.000Z</time>
      </trkpt>
      <trkpt lat="43.66687" lon="6.19849">
        <ele>795.7</ele>
        <time>2023-09-13T14:15:16.000Z</time>
      </trkpt>
      <trkpt lat="43.66691" lon="6.19851">
        <ele>796.3</ele>
        <time>2023-09-13T14:15:26.000Z</time>
      </trkpt>
      <trkpt lat="43.66694" lon="6.1985">
        <ele>796.1</ele>
        <time>2023-09-13T14:15:36.000Z</time>
      </trkpt>
      <trkpt lat="43.66696" lon="6.1985">
        <ele>796</ele>
        <time>2023-09-13T14:15:46.000Z</time>
      </trkpt>
      <trkpt lat="43.66697" lon="6.19851">
        <ele>796.1</ele>
        <time>2023-09-13T14:15:56.000Z</time>
      </trkpt>
      <trkpt lat="43.66698" lon="6.19851">
        <ele>796</ele>
        <time>2023-09-13T14:16:06.000Z</time>
      </trkpt>
      <trkpt lat="43.66698" lon="6.19852">
        <ele>795.9</ele>
        <time>2023-09-13T14:16:16.000Z</time>
      </trkpt>
      <trkpt lat="43.66699" lon="6.19854">
        <ele>796.1</ele>
        <time>2023-09-13T14:16:26.000Z</time>
      </trkpt>
      <trkpt lat="43.66704" lon="6.19859">
        <ele>796.9</ele>
        <time>2023-09-13T14:16:36.000Z</time>
      </trkpt>
      <trkpt lat="43.66709" lon="6.19865">
        <ele>796.9</ele>
        <time>2023-09-13T14:16:46.000Z</time>
      </trkpt>
      <trkpt lat="43.66716" lon="6.1987">
        <ele>797.9</ele>
        <time>2023-09-13T14:16:56.000Z</time>
      </trkpt>
      <trkpt lat="43.66718" lon="6.1987">
        <ele>797.8</ele>
        <time>2023-09-13T14:17:06.000Z</time>
      </trkpt>
      <trkpt lat="43.6672" lon="6.1987">
        <ele>798.1</ele>
        <time>2023-09-13T14:17:16.000Z</time>
      </trkpt>
      <trkpt lat="43.6672" lon="6.19869">
        <ele>798.1</ele>
        <time>2023-09-13T14:17:26.000Z</time>
      </trkpt>
      <trkpt lat="43.6672" lon="6.19868">
        <ele>797.9</ele>
        <time>2023-09-13T14:17:36.000Z</time>
      </trkpt>
      <trkpt lat="43.6672" lon="6.19867">
        <ele>797.4</ele>
        <time>2023-09-13T14:17:46.000Z</time>
      </trkpt>
      <trkpt lat="43.66716" lon="6.19873">
        <ele>797.5</ele>
        <time>2023-09-13T14:17:56.000Z</time>
      </trkpt>
      <trkpt lat="43.66709" lon="6.1988">
        <ele>795.8</ele>
        <time>2023-09-13T14:18:06.000Z</time>
      </trkpt>
      <trkpt lat="43.66707" lon="6.19884">
        <ele>794.8</ele>
        <time>2023-09-13T14:18:16.000Z</time>
      </trkpt>
      <trkpt lat="43.66703" lon="6.19889">
        <ele>794.1</ele>
        <time>2023-09-13T14:18:26.000Z</time>
      </trkpt>
      <trkpt lat="43.66699" lon="6.19895">
        <ele>792.8</ele>
        <time>2023-09-13T14:18:36.000Z</time>
      </trkpt>
      <trkpt lat="43.66695" lon="6.19901">
        <ele>791.7</ele>
        <time>2023-09-13T14:18:46.000Z</time>
      </trkpt>
      <trkpt lat="43.6669" lon="6.19907">
        <ele>790.7</ele>
        <time>2023-09-13T14:18:56.000Z</time>
      </trkpt>
      <trkpt lat="43.66688" lon="6.19915">
        <ele>790</ele>
        <time>2023-09-13T14:19:06.000Z</time>
      </trkpt>
      <trkpt lat="43.66684" lon="6.19921">
        <ele>788.9</ele>
        <time>2023-09-13T14:19:16.000Z</time>
      </trkpt>
      <trkpt lat="43.66678" lon="6.19926">
        <ele>788.1</ele>
        <time>2023-09-13T14:19:26.000Z</time>
      </trkpt>
      <trkpt lat="43.66674" lon="6.19932">
        <ele>787.2</ele>
        <time>2023-09-13T14:19:36.000Z</time>
      </trkpt>
      <trkpt lat="43.66673" lon="6.19934">
        <ele>786.8</ele>
        <time>2023-09-13T14:19:46.000Z</time>
      </trkpt>
      <trkpt lat="43.66671" lon="6.19937">
        <ele>786.6</ele>
        <time>2023-09-13T14:19:56.000Z</time>
      </trkpt>
      <trkpt lat="43.66668" lon="6.19942">
        <ele>785.8</ele>
        <time>2023-09-13T14:20:06.000Z</time>
      </trkpt>
      <trkpt lat="43.66665" lon="6.19945">
        <ele>785</ele>
        <time>2023-09-13T14:20:16.000Z</time>
      </trkpt>
      <trkpt lat="43.66663" lon="6.19947">
        <ele>784.6</ele>
        <time>2023-09-13T14:20:26.000Z</time>
      </trkpt>
      <trkpt lat="43.66657" lon="6.19951">
        <ele>783.3</ele>
        <time>2023-09-13T14:20:36.000Z</time>
      </trkpt>
      <trkpt lat="43.66652" lon="6.19954">
        <ele>783</ele>
        <time>2023-09-13T14:20:46.000Z</time>
      </trkpt>
      <trkpt lat="43.66648" lon="6.19957">
        <ele>781.9</ele>
        <time>2023-09-13T14:20:56.000Z</time>
      </trkpt>
      <trkpt lat="43.66641" lon="6.19958">
        <ele>780.8</ele>
        <time>2023-09-13T14:21:06.000Z</time>
      </trkpt>
      <trkpt lat="43.66638" lon="6.19961">
        <ele>780</ele>
        <time>2023-09-13T14:21:16.000Z</time>
      </trkpt>
      <trkpt lat="43.66633" lon="6.19965">
        <ele>777.2</ele>
        <time>2023-09-13T14:21:26.000Z</time>
      </trkpt>
      <trkpt lat="43.66625" lon="6.19966">
        <ele>776.1</ele>
        <time>2023-09-13T14:21:36.000Z</time>
      </trkpt>
      <trkpt lat="43.66618" lon="6.19971">
        <ele>774.5</ele>
        <time>2023-09-13T14:21:46.000Z</time>
      </trkpt>
      <trkpt lat="43.66612" lon="6.19974">
        <ele>773.2</ele>
        <time>2023-09-13T14:21:56.000Z</time>
      </trkpt>
      <trkpt lat="43.66608" lon="6.19977">
        <ele>772.2</ele>
        <time>2023-09-13T14:22:06.000Z</time>
      </trkpt>
      <trkpt lat="43.66606" lon="6.19979">
        <ele>771.3</ele>
        <time>2023-09-13T14:22:16.000Z</time>
      </trkpt>
      <trkpt lat="43.66603" lon="6.19983">
        <ele>770.1</ele>
        <time>2023-09-13T14:22:26.000Z</time>
      </trkpt>
      <trkpt lat="43.666" lon="6.19984">
        <ele>769.4</ele>
        <time>2023-09-13T14:22:36.000Z</time>
      </trkpt>
      <trkpt lat="43.66596" lon="6.19985">
        <ele>767.5</ele>
        <time>2023-09-13T14:22:46.000Z</time>
      </trkpt>
      <trkpt lat="43.66592" lon="6.19988">
        <ele>766.2</ele>
        <time>2023-09-13T14:22:56.000Z</time>
      </trkpt>
      <trkpt lat="43.66589" lon="6.19989">
        <ele>764.1</ele>
        <time>2023-09-13T14:23:06.000Z</time>
      </trkpt>
      <trkpt lat="43.66584" lon="6.19994">
        <ele>762.3</ele>
        <time>2023-09-13T14:23:16.000Z</time>
      </trkpt>
      <trkpt lat="43.66579" lon="6.19996">
        <ele>762.6</ele>
        <time>2023-09-13T14:23:26.000Z</time>
      </trkpt>
      <trkpt lat="43.66574" lon="6.19995">
        <ele>760.5</ele>
        <time>2023-09-13T14:23:36.000Z</time>
      </trkpt>
      <trkpt lat="43.66571" lon="6.19997">
        <ele>761.3</ele>
        <time>2023-09-13T14:23:46.000Z</time>
      </trkpt>
      <trkpt lat="43.66571" lon="6.19999">
        <ele>761</ele>
        <time>2023-09-13T14:23:56.000Z</time>
      </trkpt>
      <trkpt lat="43.6657" lon="6.20001">
        <ele>759.4</ele>
        <time>2023-09-13T14:24:06.000Z</time>
      </trkpt>
      <trkpt lat="43.66571" lon="6.2">
        <ele>759.5</ele>
        <time>2023-09-13T14:24:16.000Z</time>
      </trkpt>
      <trkpt lat="43.66567" lon="6.20002">
        <ele>757.9</ele>
        <time>2023-09-13T14:24:26.000Z</time>
      </trkpt>
      <trkpt lat="43.66563" lon="6.20004">
        <ele>756.9</ele>
        <time>2023-09-13T14:24:36.000Z</time>
      </trkpt>
      <trkpt lat="43.66561" lon="6.20005">
        <ele>756.1</ele>
        <time>2023-09-13T14:24:46.000Z</time>
      </trkpt>
      <trkpt lat="43.6656" lon="6.20005">
        <ele>755.2</ele>
        <time>2023-09-13T14:24:56.000Z</time>
      </trkpt>
      <trkpt lat="43.66559" lon="6.20006">
        <ele>754.1</ele>
        <time>2023-09-13T14:25:06.000Z</time>
      </trkpt>
      <trkpt lat="43.66557" lon="6.20007">
        <ele>755.4</ele>
        <time>2023-09-13T14:25:16.000Z</time>
      </trkpt>
      <trkpt lat="43.66555" lon="6.20006">
        <ele>754.6</ele>
        <time>2023-09-13T14:25:26.000Z</time>
      </trkpt>
      <trkpt lat="43.66553" lon="6.20007">
        <ele>754.9</ele>
        <time>2023-09-13T14:25:36.000Z</time>
      </trkpt>
      <trkpt lat="43.66551" lon="6.20009">
        <ele>756.3</ele>
        <time>2023-09-13T14:25:46.000Z</time>
      </trkpt>
      <trkpt lat="43.66549" lon="6.20011">
        <ele>754.2</ele>
        <time>2023-09-13T14:25:56.000Z</time>
      </trkpt>
      <trkpt lat="43.66547" lon="6.20012">
        <ele>753.9</ele>
        <time>2023-09-13T14:26:06.000Z</time>
      </trkpt>
      <trkpt lat="43.66548" lon="6.20013">
        <ele>754.3</ele>
        <time>2023-09-13T14:26:16.000Z</time>
      </trkpt>
      <trkpt lat="43.66547" lon="6.20012">
        <ele>753.7</ele>
        <time>2023-09-13T14:26:26.000Z</time>
      </trkpt>
      <trkpt lat="43.66543" lon="6.20015">
        <ele>752</ele>
        <time>2023-09-13T14:26:36.000Z</time>
      </trkpt>
      <trkpt lat="43.66539" lon="6.20016">
        <ele>750.9</ele>
        <time>2023-09-13T14:26:46.000Z</time>
      </trkpt>
      <trkpt lat="43.66534" lon="6.20021">
        <ele>750.1</ele>
        <time>2023-09-13T14:26:56.000Z</time>
      </trkpt>
      <trkpt lat="43.66528" lon="6.20022">
        <ele>749.3</ele>
        <time>2023-09-13T14:27:06.000Z</time>
      </trkpt>
      <trkpt lat="43.66526" lon="6.20023">
        <ele>749.9</ele>
        <time>2023-09-13T14:27:16.000Z</time>
      </trkpt>
      <trkpt lat="43.66526" lon="6.20027">
        <ele>749.6</ele>
        <time>2023-09-13T14:27:26.000Z</time>
      </trkpt>
      <trkpt lat="43.6652" lon="6.20028">
        <ele>749.6</ele>
        <time>2023-09-13T14:27:36.000Z</time>
      </trkpt>
      <trkpt lat="43.66514" lon="6.20035">
        <ele>749.6</ele>
        <time>2023-09-13T14:27:46.000Z</time>
      </trkpt>
      <trkpt lat="43.66507" lon="6.20037">
        <ele>749.6</ele>
        <time>2023-09-13T14:27:56.000Z</time>
      </trkpt>
      <trkpt lat="43.66497" lon="6.20039">
        <ele>750.3</ele>
        <time>2023-09-13T14:28:06.000Z</time>
      </trkpt>
      <trkpt lat="43.66489" lon="6.20043">
        <ele>751</ele>
        <time>2023-09-13T14:28:16.000Z</time>
      </trkpt>
      <trkpt lat="43.66484" lon="6.20045">
        <ele>752.1</ele>
        <time>2023-09-13T14:28:26.000Z</time>
      </trkpt>
      <trkpt lat="43.66478" lon="6.20048">
        <ele>752.6</ele>
        <time>2023-09-13T14:28:36.000Z</time>
      </trkpt>
      <trkpt lat="43.66472" lon="6.20052">
        <ele>754.2</ele>
        <time>2023-09-13T14:28:46.000Z</time>
      </trkpt>
      <trkpt lat="43.66466" lon="6.20056">
        <ele>756.8</ele>
        <time>2023-09-13T14:28:56.000Z</time>
      </trkpt>
      <trkpt lat="43.66463" lon="6.20057">
        <ele>757.7</ele>
        <time>2023-09-13T14:29:06.000Z</time>
      </trkpt>
      <trkpt lat="43.6646" lon="6.20059">
        <ele>759.2</ele>
        <time>2023-09-13T14:29:16.000Z</time>
      </trkpt>
      <trkpt lat="43.66459" lon="6.20065">
        <ele>760.6</ele>
        <time>2023-09-13T14:29:26.000Z</time>
      </trkpt>
      <trkpt lat="43.66457" lon="6.20068">
        <ele>761.6</ele>
        <time>2023-09-13T14:29:36.000Z</time>
      </trkpt>
      <trkpt lat="43.66454" lon="6.20067">
        <ele>763</ele>
        <time>2023-09-13T14:29:46.000Z</time>
      </trkpt>
      <trkpt lat="43.66451" lon="6.20067">
        <ele>763.6</ele>
        <time>2023-09-13T14:29:56.000Z</time>
      </trkpt>
      <trkpt lat="43.66448" lon="6.20067">
        <ele>765.1</ele>
        <time>2023-09-13T14:30:06.000Z</time>
      </trkpt>
      <trkpt lat="43.66446" lon="6.20069">
        <ele>765.9</ele>
        <time>2023-09-13T14:30:16.000Z</time>
      </trkpt>
      <trkpt lat="43.66445" lon="6.20068">
        <ele>766.8</ele>
        <time>2023-09-13T14:30:26.000Z</time>
      </trkpt>
      <trkpt lat="43.66447" lon="6.20068">
        <ele>766.1</ele>
        <time>2023-09-13T14:30:36.000Z</time>
      </trkpt>
      <trkpt lat="43.66448" lon="6.2007">
        <ele>766.5</ele>
        <time>2023-09-13T14:30:46.000Z</time>
      </trkpt>
      <trkpt lat="43.66448" lon="6.2007">
        <ele>766.9</ele>
        <time>2023-09-13T14:30:56.000Z</time>
      </trkpt>
      <trkpt lat="43.66449" lon="6.20071">
        <ele>766.9</ele>
        <time>2023-09-13T14:31:06.000Z</time>
      </trkpt>
      <trkpt lat="43.6645" lon="6.20072">
        <ele>766.9</ele>
        <time>2023-09-13T14:31:16.000Z</time>
      </trkpt>
      <trkpt lat="43.66448" lon="6.20069">
        <ele>767.5</ele>
        <time>2023-09-13T14:31:26.000Z</time>
      </trkpt>
      <trkpt lat="43.66441" lon="6.20069">
        <ele>768.9</ele>
        <time>2023-09-13T14:31:36.000Z</time>
      </trkpt>
      <trkpt lat="43.66437" lon="6.20069">
        <ele>769.8</ele>
        <time>2023-09-13T14:31:46.000Z</time>
      </trkpt>
      <trkpt lat="43.66434" lon="6.20073">
        <ele>771.6</ele>
        <time>2023-09-13T14:31:56.000Z</time>
      </trkpt>
      <trkpt lat="43.66432" lon="6.20075">
        <ele>771.9</ele>
        <time>2023-09-13T14:32:06.000Z</time>
      </trkpt>
      <trkpt lat="43.6643" lon="6.20077">
        <ele>772.2</ele>
        <time>2023-09-13T14:32:16.000Z</time>
      </trkpt>
      <trkpt lat="43.6643" lon="6.2008">
        <ele>771.3</ele>
        <time>2023-09-13T14:32:26.000Z</time>
      </trkpt>
      <trkpt lat="43.6643" lon="6.20081">
        <ele>771</ele>
        <time>2023-09-13T14:32:36.000Z</time>
      </trkpt>
      <trkpt lat="43.6643" lon="6.20082">
        <ele>770.9</ele>
        <time>2023-09-13T14:32:46.000Z</time>
      </trkpt>
      <trkpt lat="43.6643" lon="6.20082">
        <ele>771</ele>
        <time>2023-09-13T14:32:56.000Z</time>
      </trkpt>
      <trkpt lat="43.6643" lon="6.20083">
        <ele>771</ele>
        <time>2023-09-13T14:33:06.000Z</time>
      </trkpt>
      <trkpt lat="43.6643" lon="6.20084">
        <ele>770.9</ele>
        <time>2023-09-13T14:33:16.000Z</time>
      </trkpt>
      <trkpt lat="43.6643" lon="6.20084">
        <ele>770.8</ele>
        <time>2023-09-13T14:33:26.000Z</time>
      </trkpt>
      <trkpt lat="43.6643" lon="6.20084">
        <ele>770.8</ele>
        <time>2023-09-13T14:33:36.000Z</time>
      </trkpt>
      <trkpt lat="43.6643" lon="6.20084">
        <ele>770.9</ele>
        <time>2023-09-13T14:33:46.000Z</time>
      </trkpt>
      <trkpt lat="43.6643" lon="6.20085">
        <ele>770.9</ele>
        <time>2023-09-13T14:33:56.000Z</time>
      </trkpt>
      <trkpt lat="43.66431" lon="6.20085">
        <ele>770.9</ele>
        <time>2023-09-13T14:34:06.000Z</time>
      </trkpt>
      <trkpt lat="43.66431" lon="6.20085">
        <ele>770.9</ele>
        <time>2023-09-13T14:34:16.000Z</time>
      </trkpt>
      <trkpt lat="43.66431" lon="6.20085">
        <ele>770.9</ele>
        <time>2023-09-13T14:34:26.000Z</time>
      </trkpt>
      <trkpt lat="43.66431" lon="6.20085">
        <ele>770.9</ele>
        <time>2023-09-13T14:34:36.000Z</time>
      </trkpt>
      <trkpt lat="43.6643" lon="6.20085">
        <ele>770.9</ele>
        <time>2023-09-13T14:34:46.000Z</time>
      </trkpt>
      <trkpt lat="43.6643" lon="6.20085">
        <ele>770.9</ele>
        <time>2023-09-13T14:34:56.000Z</time>
      </trkpt>
      <trkpt lat="43.6643" lon="6.20086">
        <ele>771</ele>
        <time>2023-09-13T14:35:06.000Z</time>
      </trkpt>
      <trkpt lat="43.66429" lon="6.20085">
        <ele>771</ele>
        <time>2023-09-13T14:35:16.000Z</time>
      </trkpt>
      <trkpt lat="43.66429" lon="6.20085">
        <ele>771</ele>
        <time>2023-09-13T14:35:26.000Z</time>
      </trkpt>
      <trkpt lat="43.66429" lon="6.20084">
        <ele>771.1</ele>
        <time>2023-09-13T14:35:36.000Z</time>
      </trkpt>
      <trkpt lat="43.66428" lon="6.20084">
        <ele>771.1</ele>
        <time>2023-09-13T14:35:46.000Z</time>
      </trkpt>
      <trkpt lat="43.66428" lon="6.20081">
        <ele>772</ele>
        <time>2023-09-13T14:35:56.000Z</time>
      </trkpt>
      <trkpt lat="43.66428" lon="6.20079">
        <ele>771.8</ele>
        <time>2023-09-13T14:36:06.000Z</time>
      </trkpt>
      <trkpt lat="43.66428" lon="6.20079">
        <ele>771.8</ele>
        <time>2023-09-13T14:36:16.000Z</time>
      </trkpt>
      <trkpt lat="43.66428" lon="6.20077">
        <ele>771.6</ele>
        <time>2023-09-13T14:36:26.000Z</time>
      </trkpt>
      <trkpt lat="43.66428" lon="6.20077">
        <ele>771.9</ele>
        <time>2023-09-13T14:36:36.000Z</time>
      </trkpt>
      <trkpt lat="43.66427" lon="6.20077">
        <ele>771.9</ele>
        <time>2023-09-13T14:36:46.000Z</time>
      </trkpt>
      <trkpt lat="43.66426" lon="6.20078">
        <ele>772</ele>
        <time>2023-09-13T14:36:56.000Z</time>
      </trkpt>
      <trkpt lat="43.66426" lon="6.20078">
        <ele>772.3</ele>
        <time>2023-09-13T14:37:06.000Z</time>
      </trkpt>
      <trkpt lat="43.66427" lon="6.20077">
        <ele>772.2</ele>
        <time>2023-09-13T14:37:16.000Z</time>
      </trkpt>
      <trkpt lat="43.66426" lon="6.20077">
        <ele>772.5</ele>
        <time>2023-09-13T14:37:26.000Z</time>
      </trkpt>
      <trkpt lat="43.66425" lon="6.20074">
        <ele>772.1</ele>
        <time>2023-09-13T14:37:36.000Z</time>
      </trkpt>
      <trkpt lat="43.66424" lon="6.2007">
        <ele>771.5</ele>
        <time>2023-09-13T14:37:46.000Z</time>
      </trkpt>
      <trkpt lat="43.66425" lon="6.20069">
        <ele>770.4</ele>
        <time>2023-09-13T14:37:56.000Z</time>
      </trkpt>
      <trkpt lat="43.66424" lon="6.20066">
        <ele>769.8</ele>
        <time>2023-09-13T14:38:06.000Z</time>
      </trkpt>
      <trkpt lat="43.66424" lon="6.20064">
        <ele>770.2</ele>
        <time>2023-09-13T14:38:16.000Z</time>
      </trkpt>
      <trkpt lat="43.66424" lon="6.20063">
        <ele>768.5</ele>
        <time>2023-09-13T14:38:26.000Z</time>
      </trkpt>
      <trkpt lat="43.66423" lon="6.20061">
        <ele>768</ele>
        <time>2023-09-13T14:38:36.000Z</time>
      </trkpt>
      <trkpt lat="43.66422" lon="6.20057">
        <ele>767.5</ele>
        <time>2023-09-13T14:38:46.000Z</time>
      </trkpt>
      <trkpt lat="43.6642" lon="6.20053">
        <ele>765.2</ele>
        <time>2023-09-13T14:38:56.000Z</time>
      </trkpt>
      <trkpt lat="43.66419" lon="6.2005">
        <ele>764.1</ele>
        <time>2023-09-13T14:39:06.000Z</time>
      </trkpt>
      <trkpt lat="43.66417" lon="6.20049">
        <ele>763</ele>
        <time>2023-09-13T14:39:16.000Z</time>
      </trkpt>
      <trkpt lat="43.66415" lon="6.20044">
        <ele>761.4</ele>
        <time>2023-09-13T14:39:26.000Z</time>
      </trkpt>
      <trkpt lat="43.66412" lon="6.20038">
        <ele>759.9</ele>
        <time>2023-09-13T14:39:36.000Z</time>
      </trkpt>
      <trkpt lat="43.66411" lon="6.20034">
        <ele>758.8</ele>
        <time>2023-09-13T14:39:46.000Z</time>
      </trkpt>
      <trkpt lat="43.66407" lon="6.20026">
        <ele>756.9</ele>
        <time>2023-09-13T14:39:56.000Z</time>
      </trkpt>
      <trkpt lat="43.66405" lon="6.20022">
        <ele>755.7</ele>
        <time>2023-09-13T14:40:06.000Z</time>
      </trkpt>
      <trkpt lat="43.66403" lon="6.20017">
        <ele>754.7</ele>
        <time>2023-09-13T14:40:16.000Z</time>
      </trkpt>
      <trkpt lat="43.66399" lon="6.20013">
        <ele>753</ele>
        <time>2023-09-13T14:40:26.000Z</time>
      </trkpt>
      <trkpt lat="43.66396" lon="6.20011">
        <ele>752.3</ele>
        <time>2023-09-13T14:40:36.000Z</time>
      </trkpt>
      <trkpt lat="43.66396" lon="6.20008">
        <ele>751.6</ele>
        <time>2023-09-13T14:40:46.000Z</time>
      </trkpt>
      <trkpt lat="43.66395" lon="6.20005">
        <ele>751.2</ele>
        <time>2023-09-13T14:40:56.000Z</time>
      </trkpt>
      <trkpt lat="43.66393" lon="6.20002">
        <ele>750.5</ele>
        <time>2023-09-13T14:41:06.000Z</time>
      </trkpt>
      <trkpt lat="43.66391" lon="6.19998">
        <ele>749</ele>
        <time>2023-09-13T14:41:16.000Z</time>
      </trkpt>
      <trkpt lat="43.66388" lon="6.19994">
        <ele>747.6</ele>
        <time>2023-09-13T14:41:26.000Z</time>
      </trkpt>
      <trkpt lat="43.66386" lon="6.19989">
        <ele>746.4</ele>
        <time>2023-09-13T14:41:36.000Z</time>
      </trkpt>
      <trkpt lat="43.66381" lon="6.19984">
        <ele>745.5</ele>
        <time>2023-09-13T14:41:46.000Z</time>
      </trkpt>
      <trkpt lat="43.66377" lon="6.19978">
        <ele>744.1</ele>
        <time>2023-09-13T14:41:56.000Z</time>
      </trkpt>
      <trkpt lat="43.66374" lon="6.19974">
        <ele>742.8</ele>
        <time>2023-09-13T14:42:06.000Z</time>
      </trkpt>
      <trkpt lat="43.66374" lon="6.19971">
        <ele>740.5</ele>
        <time>2023-09-13T14:42:16.000Z</time>
      </trkpt>
      <trkpt lat="43.66374" lon="6.19974">
        <ele>741.7</ele>
        <time>2023-09-13T14:42:26.000Z</time>
      </trkpt>
      <trkpt lat="43.66374" lon="6.19977">
        <ele>741</ele>
        <time>2023-09-13T14:42:36.000Z</time>
      </trkpt>
      <trkpt lat="43.66373" lon="6.19977">
        <ele>740.9</ele>
        <time>2023-09-13T14:42:46.000Z</time>
      </trkpt>
      <trkpt lat="43.66371" lon="6.19978">
        <ele>741.1</ele>
        <time>2023-09-13T14:42:56.000Z</time>
      </trkpt>
      <trkpt lat="43.6637" lon="6.19979">
        <ele>741.1</ele>
        <time>2023-09-13T14:43:06.000Z</time>
      </trkpt>
      <trkpt lat="43.66368" lon="6.19979">
        <ele>741.1</ele>
        <time>2023-09-13T14:43:16.000Z</time>
      </trkpt>
      <trkpt lat="43.66367" lon="6.19978">
        <ele>741.2</ele>
        <time>2023-09-13T14:43:26.000Z</time>
      </trkpt>
      <trkpt lat="43.66367" lon="6.19977">
        <ele>740.9</ele>
        <time>2023-09-13T14:43:36.000Z</time>
      </trkpt>
      <trkpt lat="43.66365" lon="6.19971">
        <ele>739.3</ele>
        <time>2023-09-13T14:43:46.000Z</time>
      </trkpt>
      <trkpt lat="43.66367" lon="6.19966">
        <ele>737.2</ele>
        <time>2023-09-13T14:43:56.000Z</time>
      </trkpt>
      <trkpt lat="43.66359" lon="6.19963">
        <ele>735.9</ele>
        <time>2023-09-13T14:44:06.000Z</time>
      </trkpt>
      <trkpt lat="43.66352" lon="6.1995">
        <ele>732.5</ele>
        <time>2023-09-13T14:44:16.000Z</time>
      </trkpt>
      <trkpt lat="43.66346" lon="6.19945">
        <ele>728.8</ele>
        <time>2023-09-13T14:44:26.000Z</time>
      </trkpt>
      <trkpt lat="43.6634" lon="6.19937">
        <ele>725.7</ele>
        <time>2023-09-13T14:44:36.000Z</time>
      </trkpt>
      <trkpt lat="43.66338" lon="6.19929">
        <ele>723.1</ele>
        <time>2023-09-13T14:44:46.000Z</time>
      </trkpt>
      <trkpt lat="43.66334" lon="6.19923">
        <ele>721</ele>
        <time>2023-09-13T14:44:56.000Z</time>
      </trkpt>
      <trkpt lat="43.66331" lon="6.19919">
        <ele>719</ele>
        <time>2023-09-13T14:45:06.000Z</time>
      </trkpt>
      <trkpt lat="43.66331" lon="6.19914">
        <ele>717.6</ele>
        <time>2023-09-13T14:45:16.000Z</time>
      </trkpt>
      <trkpt lat="43.66327" lon="6.19911">
        <ele>716.1</ele>
        <time>2023-09-13T14:45:26.000Z</time>
      </trkpt>
      <trkpt lat="43.66324" lon="6.19907">
        <ele>714.7</ele>
        <time>2023-09-13T14:45:36.000Z</time>
      </trkpt>
      <trkpt lat="43.66321" lon="6.19903">
        <ele>713.4</ele>
        <time>2023-09-13T14:45:46.000Z</time>
      </trkpt>
      <trkpt lat="43.66319" lon="6.19901">
        <ele>712.7</ele>
        <time>2023-09-13T14:45:56.000Z</time>
      </trkpt>
      <trkpt lat="43.66314" lon="6.19898">
        <ele>710.4</ele>
        <time>2023-09-13T14:46:06.000Z</time>
      </trkpt>
      <trkpt lat="43.66311" lon="6.19894">
        <ele>709.1</ele>
        <time>2023-09-13T14:46:16.000Z</time>
      </trkpt>
      <trkpt lat="43.6631" lon="6.19893">
        <ele>708.4</ele>
        <time>2023-09-13T14:46:26.000Z</time>
      </trkpt>
      <trkpt lat="43.66309" lon="6.19889">
        <ele>707.3</ele>
        <time>2023-09-13T14:46:36.000Z</time>
      </trkpt>
      <trkpt lat="43.66307" lon="6.19887">
        <ele>706.8</ele>
        <time>2023-09-13T14:46:46.000Z</time>
      </trkpt>
      <trkpt lat="43.66306" lon="6.19886">
        <ele>706.2</ele>
        <time>2023-09-13T14:46:56.000Z</time>
      </trkpt>
      <trkpt lat="43.66304" lon="6.19885">
        <ele>705.6</ele>
        <time>2023-09-13T14:47:06.000Z</time>
      </trkpt>
      <trkpt lat="43.66302" lon="6.19883">
        <ele>704.8</ele>
        <time>2023-09-13T14:47:16.000Z</time>
      </trkpt>
      <trkpt lat="43.66302" lon="6.19881">
        <ele>704.2</ele>
        <time>2023-09-13T14:47:26.000Z</time>
      </trkpt>
      <trkpt lat="43.66302" lon="6.1988">
        <ele>703.4</ele>
        <time>2023-09-13T14:47:36.000Z</time>
      </trkpt>
      <trkpt lat="43.66299" lon="6.19879">
        <ele>702.9</ele>
        <time>2023-09-13T14:47:46.000Z</time>
      </trkpt>
      <trkpt lat="43.66298" lon="6.19877">
        <ele>700.1</ele>
        <time>2023-09-13T14:47:56.000Z</time>
      </trkpt>
      <trkpt lat="43.66297" lon="6.19873">
        <ele>701.1</ele>
        <time>2023-09-13T14:48:06.000Z</time>
      </trkpt>
      <trkpt lat="43.66293" lon="6.19866">
        <ele>698.3</ele>
        <time>2023-09-13T14:48:16.000Z</time>
      </trkpt>
      <trkpt lat="43.6629" lon="6.19863">
        <ele>696.6</ele>
        <time>2023-09-13T14:48:26.000Z</time>
      </trkpt>
      <trkpt lat="43.66288" lon="6.19861">
        <ele>695.4</ele>
        <time>2023-09-13T14:48:36.000Z</time>
      </trkpt>
      <trkpt lat="43.66286" lon="6.1986">
        <ele>694.1</ele>
        <time>2023-09-13T14:48:46.000Z</time>
      </trkpt>
      <trkpt lat="43.66283" lon="6.19857">
        <ele>693.9</ele>
        <time>2023-09-13T14:48:56.000Z</time>
      </trkpt>
      <trkpt lat="43.6628" lon="6.19854">
        <ele>692.5</ele>
        <time>2023-09-13T14:49:06.000Z</time>
      </trkpt>
      <trkpt lat="43.66279" lon="6.19852">
        <ele>691</ele>
        <time>2023-09-13T14:49:16.000Z</time>
      </trkpt>
      <trkpt lat="43.66275" lon="6.19847">
        <ele>689.7</ele>
        <time>2023-09-13T14:49:26.000Z</time>
      </trkpt>
      <trkpt lat="43.66272" lon="6.19844">
        <ele>688.3</ele>
        <time>2023-09-13T14:49:36.000Z</time>
      </trkpt>
      <trkpt lat="43.6627" lon="6.19838">
        <ele>686.2</ele>
        <time>2023-09-13T14:49:46.000Z</time>
      </trkpt>
      <trkpt lat="43.66269" lon="6.19836">
        <ele>685.3</ele>
        <time>2023-09-13T14:49:56.000Z</time>
      </trkpt>
      <trkpt lat="43.66265" lon="6.19833">
        <ele>684</ele>
        <time>2023-09-13T14:50:06.000Z</time>
      </trkpt>
      <trkpt lat="43.66261" lon="6.19829">
        <ele>681.6</ele>
        <time>2023-09-13T14:50:16.000Z</time>
      </trkpt>
      <trkpt lat="43.66257" lon="6.19822">
        <ele>679.7</ele>
        <time>2023-09-13T14:50:26.000Z</time>
      </trkpt>
      <trkpt lat="43.66253" lon="6.19814">
        <ele>677.7</ele>
        <time>2023-09-13T14:50:36.000Z</time>
      </trkpt>
      <trkpt lat="43.66247" lon="6.1981">
        <ele>675.9</ele>
        <time>2023-09-13T14:50:46.000Z</time>
      </trkpt>
      <trkpt lat="43.66237" lon="6.19802">
        <ele>673.4</ele>
        <time>2023-09-13T14:50:56.000Z</time>
      </trkpt>
      <trkpt lat="43.6623" lon="6.19793">
        <ele>671.5</ele>
        <time>2023-09-13T14:51:06.000Z</time>
      </trkpt>
      <trkpt lat="43.66225" lon="6.19787">
        <ele>670.1</ele>
        <time>2023-09-13T14:51:16.000Z</time>
      </trkpt>
      <trkpt lat="43.66219" lon="6.1978">
        <ele>668.6</ele>
        <time>2023-09-13T14:51:26.000Z</time>
      </trkpt>
      <trkpt lat="43.66215" lon="6.19772">
        <ele>667.2</ele>
        <time>2023-09-13T14:51:36.000Z</time>
      </trkpt>
      <trkpt lat="43.66211" lon="6.19766">
        <ele>665.7</ele>
        <time>2023-09-13T14:51:46.000Z</time>
      </trkpt>
      <trkpt lat="43.66206" lon="6.1976">
        <ele>664.3</ele>
        <time>2023-09-13T14:51:56.000Z</time>
      </trkpt>
      <trkpt lat="43.66201" lon="6.19756">
        <ele>663.4</ele>
        <time>2023-09-13T14:52:06.000Z</time>
      </trkpt>
      <trkpt lat="43.66197" lon="6.19749">
        <ele>662.3</ele>
        <time>2023-09-13T14:52:16.000Z</time>
      </trkpt>
      <trkpt lat="43.66191" lon="6.19743">
        <ele>661.3</ele>
        <time>2023-09-13T14:52:26.000Z</time>
      </trkpt>
      <trkpt lat="43.66188" lon="6.19737">
        <ele>660</ele>
        <time>2023-09-13T14:52:36.000Z</time>
      </trkpt>
      <trkpt lat="43.66183" lon="6.19733">
        <ele>659.4</ele>
        <time>2023-09-13T14:52:46.000Z</time>
      </trkpt>
      <trkpt lat="43.66179" lon="6.1973">
        <ele>658.3</ele>
        <time>2023-09-13T14:52:56.000Z</time>
      </trkpt>
      <trkpt lat="43.66172" lon="6.19725">
        <ele>657</ele>
        <time>2023-09-13T14:53:06.000Z</time>
      </trkpt>
      <trkpt lat="43.66166" lon="6.19718">
        <ele>655.7</ele>
        <time>2023-09-13T14:53:16.000Z</time>
      </trkpt>
      <trkpt lat="43.66161" lon="6.19712">
        <ele>654.8</ele>
        <time>2023-09-13T14:53:26.000Z</time>
      </trkpt>
      <trkpt lat="43.66156" lon="6.19706">
        <ele>654.1</ele>
        <time>2023-09-13T14:53:36.000Z</time>
      </trkpt>
      <trkpt lat="43.66151" lon="6.19699">
        <ele>654.3</ele>
        <time>2023-09-13T14:53:46.000Z</time>
      </trkpt>
      <trkpt lat="43.66142" lon="6.19691">
        <ele>653.3</ele>
        <time>2023-09-13T14:53:56.000Z</time>
      </trkpt>
      <trkpt lat="43.66136" lon="6.19686">
        <ele>652.5</ele>
        <time>2023-09-13T14:54:06.000Z</time>
      </trkpt>
      <trkpt lat="43.66129" lon="6.19682">
        <ele>651.7</ele>
        <time>2023-09-13T14:54:16.000Z</time>
      </trkpt>
      <trkpt lat="43.66122" lon="6.19676">
        <ele>650.7</ele>
        <time>2023-09-13T14:54:26.000Z</time>
      </trkpt>
      <trkpt lat="43.66116" lon="6.19671">
        <ele>650.1</ele>
        <time>2023-09-13T14:54:36.000Z</time>
      </trkpt>
      <trkpt lat="43.6611" lon="6.19661">
        <ele>648.7</ele>
        <time>2023-09-13T14:54:46.000Z</time>
      </trkpt>
      <trkpt lat="43.66104" lon="6.19653">
        <ele>648</ele>
        <time>2023-09-13T14:54:56.000Z</time>
      </trkpt>
      <trkpt lat="43.66101" lon="6.19645">
        <ele>647.1</ele>
        <time>2023-09-13T14:55:06.000Z</time>
      </trkpt>
      <trkpt lat="43.661" lon="6.19642">
        <ele>646.8</ele>
        <time>2023-09-13T14:55:16.000Z</time>
      </trkpt>
      <trkpt lat="43.66097" lon="6.19639">
        <ele>646.4</ele>
        <time>2023-09-13T14:55:26.000Z</time>
      </trkpt>
      <trkpt lat="43.66096" lon="6.19637">
        <ele>646.2</ele>
        <time>2023-09-13T14:55:36.000Z</time>
      </trkpt>
      <trkpt lat="43.66093" lon="6.19634">
        <ele>645.8</ele>
        <time>2023-09-13T14:55:46.000Z</time>
      </trkpt>
      <trkpt lat="43.66091" lon="6.1963">
        <ele>644.8</ele>
        <time>2023-09-13T14:55:56.000Z</time>
      </trkpt>
      <trkpt lat="43.66086" lon="6.19624">
        <ele>644.7</ele>
        <time>2023-09-13T14:56:06.000Z</time>
      </trkpt>
      <trkpt lat="43.66079" lon="6.19617">
        <ele>643.7</ele>
        <time>2023-09-13T14:56:16.000Z</time>
      </trkpt>
      <trkpt lat="43.66074" lon="6.19608">
        <ele>643.1</ele>
        <time>2023-09-13T14:56:26.000Z</time>
      </trkpt>
      <trkpt lat="43.66066" lon="6.19598">
        <ele>641.9</ele>
        <time>2023-09-13T14:56:36.000Z</time>
      </trkpt>
      <trkpt lat="43.66058" lon="6.1959">
        <ele>640.9</ele>
        <time>2023-09-13T14:56:46.000Z</time>
      </trkpt>
      <trkpt lat="43.66055" lon="6.19586">
        <ele>640.2</ele>
        <time>2023-09-13T14:56:56.000Z</time>
      </trkpt>
      <trkpt lat="43.66055" lon="6.19587">
        <ele>639.7</ele>
        <time>2023-09-13T14:57:06.000Z</time>
      </trkpt>
      <trkpt lat="43.66056" lon="6.19589">
        <ele>639.6</ele>
        <time>2023-09-13T14:57:16.000Z</time>
      </trkpt>
      <trkpt lat="43.66054" lon="6.1959">
        <ele>640.1</ele>
        <time>2023-09-13T14:57:26.000Z</time>
      </trkpt>
      <trkpt lat="43.66054" lon="6.19592">
        <ele>640</ele>
        <time>2023-09-13T14:57:36.000Z</time>
      </trkpt>
      <trkpt lat="43.66055" lon="6.19592">
        <ele>639.9</ele>
        <time>2023-09-13T14:57:46.000Z</time>
      </trkpt>
      <trkpt lat="43.66056" lon="6.19591">
        <ele>640</ele>
        <time>2023-09-13T14:57:56.000Z</time>
      </trkpt>
      <trkpt lat="43.66057" lon="6.19591">
        <ele>640.1</ele>
        <time>2023-09-13T14:58:06.000Z</time>
      </trkpt>
      <trkpt lat="43.66058" lon="6.19591">
        <ele>640.1</ele>
        <time>2023-09-13T14:58:16.000Z</time>
      </trkpt>
      <trkpt lat="43.66059" lon="6.19592">
        <ele>639.9</ele>
        <time>2023-09-13T14:58:26.000Z</time>
      </trkpt>
      <trkpt lat="43.6606" lon="6.19592">
        <ele>640</ele>
        <time>2023-09-13T14:58:36.000Z</time>
      </trkpt>
      <trkpt lat="43.66061" lon="6.19592">
        <ele>640.2</ele>
        <time>2023-09-13T14:58:46.000Z</time>
      </trkpt>
      <trkpt lat="43.66061" lon="6.1959">
        <ele>640.3</ele>
        <time>2023-09-13T14:58:56.000Z</time>
      </trkpt>
      <trkpt lat="43.6606" lon="6.1959">
        <ele>640.4</ele>
        <time>2023-09-13T14:59:06.000Z</time>
      </trkpt>
      <trkpt lat="43.6606" lon="6.19589">
        <ele>640.2</ele>
        <time>2023-09-13T14:59:16.000Z</time>
      </trkpt>
      <trkpt lat="43.66059" lon="6.19588">
        <ele>640.2</ele>
        <time>2023-09-13T14:59:26.000Z</time>
      </trkpt>
      <trkpt lat="43.6606" lon="6.19586">
        <ele>640.1</ele>
        <time>2023-09-13T14:59:36.000Z</time>
      </trkpt>
      <trkpt lat="43.66059" lon="6.19586">
        <ele>640.1</ele>
        <time>2023-09-13T14:59:46.000Z</time>
      </trkpt>
      <trkpt lat="43.66056" lon="6.19583">
        <ele>640.4</ele>
        <time>2023-09-13T14:59:56.000Z</time>
      </trkpt>
      <trkpt lat="43.66054" lon="6.19582">
        <ele>639.4</ele>
        <time>2023-09-13T15:00:06.000Z</time>
      </trkpt>
      <trkpt lat="43.66051" lon="6.19579">
        <ele>640.2</ele>
        <time>2023-09-13T15:00:16.000Z</time>
      </trkpt>
      <trkpt lat="43.66046" lon="6.19574">
        <ele>639.5</ele>
        <time>2023-09-13T15:00:26.000Z</time>
      </trkpt>
      <trkpt lat="43.66044" lon="6.1957">
        <ele>639</ele>
        <time>2023-09-13T15:00:36.000Z</time>
      </trkpt>
      <trkpt lat="43.6604" lon="6.19566">
        <ele>638.5</ele>
        <time>2023-09-13T15:00:46.000Z</time>
      </trkpt>
      <trkpt lat="43.66038" lon="6.19562">
        <ele>638.3</ele>
        <time>2023-09-13T15:00:56.000Z</time>
      </trkpt>
      <trkpt lat="43.66035" lon="6.19559">
        <ele>638.3</ele>
        <time>2023-09-13T15:01:06.000Z</time>
      </trkpt>
      <trkpt lat="43.66033" lon="6.19556">
        <ele>637.8</ele>
        <time>2023-09-13T15:01:16.000Z</time>
      </trkpt>
      <trkpt lat="43.66029" lon="6.19552">
        <ele>637.2</ele>
        <time>2023-09-13T15:01:26.000Z</time>
      </trkpt>
      <trkpt lat="43.66021" lon="6.19542">
        <ele>636.8</ele>
        <time>2023-09-13T15:01:36.000Z</time>
      </trkpt>
      <trkpt lat="43.66014" lon="6.19531">
        <ele>635.4</ele>
        <time>2023-09-13T15:01:46.000Z</time>
      </trkpt>
      <trkpt lat="43.6601" lon="6.19522">
        <ele>634.9</ele>
        <time>2023-09-13T15:01:56.000Z</time>
      </trkpt>
      <trkpt lat="43.66007" lon="6.19516">
        <ele>634.1</ele>
        <time>2023-09-13T15:02:06.000Z</time>
      </trkpt>
      <trkpt lat="43.66" lon="6.1951">
        <ele>633.2</ele>
        <time>2023-09-13T15:02:16.000Z</time>
      </trkpt>
      <trkpt lat="43.65994" lon="6.19506">
        <ele>632.2</ele>
        <time>2023-09-13T15:02:26.000Z</time>
      </trkpt>
      <trkpt lat="43.65992" lon="6.19504">
        <ele>632.4</ele>
        <time>2023-09-13T15:02:36.000Z</time>
      </trkpt>
      <trkpt lat="43.6599" lon="6.195">
        <ele>631.9</ele>
        <time>2023-09-13T15:02:46.000Z</time>
      </trkpt>
      <trkpt lat="43.65988" lon="6.19497">
        <ele>631.3</ele>
        <time>2023-09-13T15:02:56.000Z</time>
      </trkpt>
      <trkpt lat="43.65984" lon="6.19492">
        <ele>630.8</ele>
        <time>2023-09-13T15:03:06.000Z</time>
      </trkpt>
      <trkpt lat="43.65982" lon="6.19488">
        <ele>630.1</ele>
        <time>2023-09-13T15:03:16.000Z</time>
      </trkpt>
      <trkpt lat="43.65977" lon="6.19483">
        <ele>629.4</ele>
        <time>2023-09-13T15:03:26.000Z</time>
      </trkpt>
      <trkpt lat="43.65975" lon="6.19477">
        <ele>628.1</ele>
        <time>2023-09-13T15:03:36.000Z</time>
      </trkpt>
      <trkpt lat="43.65969" lon="6.19469">
        <ele>627.9</ele>
        <time>2023-09-13T15:03:46.000Z</time>
      </trkpt>
      <trkpt lat="43.65965" lon="6.19463">
        <ele>627</ele>
        <time>2023-09-13T15:03:56.000Z</time>
      </trkpt>
      <trkpt lat="43.65963" lon="6.19454">
        <ele>625.8</ele>
        <time>2023-09-13T15:04:06.000Z</time>
      </trkpt>
      <trkpt lat="43.65959" lon="6.19451">
        <ele>625.7</ele>
        <time>2023-09-13T15:04:16.000Z</time>
      </trkpt>
      <trkpt lat="43.6595" lon="6.1945">
        <ele>625.1</ele>
        <time>2023-09-13T15:04:26.000Z</time>
      </trkpt>
      <trkpt lat="43.65943" lon="6.19443">
        <ele>624.9</ele>
        <time>2023-09-13T15:04:36.000Z</time>
      </trkpt>
      <trkpt lat="43.65937" lon="6.19437">
        <ele>623.7</ele>
        <time>2023-09-13T15:04:46.000Z</time>
      </trkpt>
      <trkpt lat="43.65931" lon="6.1943">
        <ele>622.8</ele>
        <time>2023-09-13T15:04:56.000Z</time>
      </trkpt>
      <trkpt lat="43.65925" lon="6.19422">
        <ele>622</ele>
        <time>2023-09-13T15:05:06.000Z</time>
      </trkpt>
      <trkpt lat="43.65918" lon="6.19417">
        <ele>621</ele>
        <time>2023-09-13T15:05:16.000Z</time>
      </trkpt>
      <trkpt lat="43.65916" lon="6.19412">
        <ele>620.3</ele>
        <time>2023-09-13T15:05:26.000Z</time>
      </trkpt>
      <trkpt lat="43.65912" lon="6.19409">
        <ele>619.1</ele>
        <time>2023-09-13T15:05:36.000Z</time>
      </trkpt>
      <trkpt lat="43.65908" lon="6.19402">
        <ele>618</ele>
        <time>2023-09-13T15:05:46.000Z</time>
      </trkpt>
      <trkpt lat="43.65905" lon="6.19396">
        <ele>617.9</ele>
        <time>2023-09-13T15:05:56.000Z</time>
      </trkpt>
      <trkpt lat="43.65897" lon="6.19388">
        <ele>617.5</ele>
        <time>2023-09-13T15:06:06.000Z</time>
      </trkpt>
      <trkpt lat="43.65888" lon="6.1938">
        <ele>617.3</ele>
        <time>2023-09-13T15:06:16.000Z</time>
      </trkpt>
      <trkpt lat="43.65884" lon="6.19371">
        <ele>617.6</ele>
        <time>2023-09-13T15:06:26.000Z</time>
      </trkpt>
      <trkpt lat="43.65875" lon="6.19365">
        <ele>617.8</ele>
        <time>2023-09-13T15:06:36.000Z</time>
      </trkpt>
      <trkpt lat="43.65871" lon="6.19361">
        <ele>618.1</ele>
        <time>2023-09-13T15:06:46.000Z</time>
      </trkpt>
      <trkpt lat="43.65862" lon="6.19359">
        <ele>617.8</ele>
        <time>2023-09-13T15:06:56.000Z</time>
      </trkpt>
      <trkpt lat="43.65852" lon="6.1935">
        <ele>617.9</ele>
        <time>2023-09-13T15:07:06.000Z</time>
      </trkpt>
      <trkpt lat="43.65841" lon="6.19345">
        <ele>617.8</ele>
        <time>2023-09-13T15:07:16.000Z</time>
      </trkpt>
      <trkpt lat="43.65841" lon="6.19345">
        <ele>617.4</ele>
        <time>2023-09-13T15:07:26.000Z</time>
      </trkpt>
      <trkpt lat="43.65837" lon="6.19342">
        <ele>617.2</ele>
        <time>2023-09-13T15:07:36.000Z</time>
      </trkpt>
      <trkpt lat="43.65836" lon="6.19334">
        <ele>617</ele>
        <time>2023-09-13T15:07:46.000Z</time>
      </trkpt>
      <trkpt lat="43.6584" lon="6.19328">
        <ele>617.4</ele>
        <time>2023-09-13T15:07:56.000Z</time>
      </trkpt>
      <trkpt lat="43.65837" lon="6.1932">
        <ele>617.3</ele>
        <time>2023-09-13T15:08:06.000Z</time>
      </trkpt>
      <trkpt lat="43.65832" lon="6.19309">
        <ele>616.6</ele>
        <time>2023-09-13T15:08:16.000Z</time>
      </trkpt>
      <trkpt lat="43.65831" lon="6.19304">
        <ele>616.3</ele>
        <time>2023-09-13T15:08:26.000Z</time>
      </trkpt>
      <trkpt lat="43.65826" lon="6.19298">
        <ele>616.6</ele>
        <time>2023-09-13T15:08:36.000Z</time>
      </trkpt>
      <trkpt lat="43.6582" lon="6.19293">
        <ele>615.7</ele>
        <time>2023-09-13T15:08:46.000Z</time>
      </trkpt>
      <trkpt lat="43.65813" lon="6.19289">
        <ele>615.3</ele>
        <time>2023-09-13T15:08:56.000Z</time>
      </trkpt>
      <trkpt lat="43.65809" lon="6.19287">
        <ele>615</ele>
        <time>2023-09-13T15:09:06.000Z</time>
      </trkpt>
      <trkpt lat="43.65803" lon="6.19282">
        <ele>614.7</ele>
        <time>2023-09-13T15:09:16.000Z</time>
      </trkpt>
      <trkpt lat="43.658" lon="6.1928">
        <ele>614.3</ele>
        <time>2023-09-13T15:09:26.000Z</time>
      </trkpt>
      <trkpt lat="43.65797" lon="6.19275">
        <ele>614.2</ele>
        <time>2023-09-13T15:09:36.000Z</time>
      </trkpt>
      <trkpt lat="43.65789" lon="6.19266">
        <ele>614</ele>
        <time>2023-09-13T15:09:46.000Z</time>
      </trkpt>
      <trkpt lat="43.65784" lon="6.19258">
        <ele>613.3</ele>
        <time>2023-09-13T15:09:56.000Z</time>
      </trkpt>
      <trkpt lat="43.65779" lon="6.19249">
        <ele>612.3</ele>
        <time>2023-09-13T15:10:06.000Z</time>
      </trkpt>
      <trkpt lat="43.65773" lon="6.19241">
        <ele>612.1</ele>
        <time>2023-09-13T15:10:16.000Z</time>
      </trkpt>
      <trkpt lat="43.65765" lon="6.19234">
        <ele>610.8</ele>
        <time>2023-09-13T15:10:26.000Z</time>
      </trkpt>
      <trkpt lat="43.65757" lon="6.19225">
        <ele>610.5</ele>
        <time>2023-09-13T15:10:36.000Z</time>
      </trkpt>
      <trkpt lat="43.65748" lon="6.19217">
        <ele>609.9</ele>
        <time>2023-09-13T15:10:46.000Z</time>
      </trkpt>
      <trkpt lat="43.65741" lon="6.19206">
        <ele>609</ele>
        <time>2023-09-13T15:10:56.000Z</time>
      </trkpt>
      <trkpt lat="43.65737" lon="6.19199">
        <ele>608.3</ele>
        <time>2023-09-13T15:11:06.000Z</time>
      </trkpt>
      <trkpt lat="43.65728" lon="6.19191">
        <ele>608</ele>
        <time>2023-09-13T15:11:16.000Z</time>
      </trkpt>
      <trkpt lat="43.6572" lon="6.1918">
        <ele>607.3</ele>
        <time>2023-09-13T15:11:26.000Z</time>
      </trkpt>
      <trkpt lat="43.65714" lon="6.19173">
        <ele>606.7</ele>
        <time>2023-09-13T15:11:36.000Z</time>
      </trkpt>
      <trkpt lat="43.65708" lon="6.19166">
        <ele>606.4</ele>
        <time>2023-09-13T15:11:46.000Z</time>
      </trkpt>
      <trkpt lat="43.65701" lon="6.19157">
        <ele>605.8</ele>
        <time>2023-09-13T15:11:56.000Z</time>
      </trkpt>
      <trkpt lat="43.65693" lon="6.1915">
        <ele>605.3</ele>
        <time>2023-09-13T15:12:06.000Z</time>
      </trkpt>
      <trkpt lat="43.65692" lon="6.19149">
        <ele>604.9</ele>
        <time>2023-09-13T15:12:16.000Z</time>
      </trkpt>
      <trkpt lat="43.65692" lon="6.19146">
        <ele>605.2</ele>
        <time>2023-09-13T15:12:26.000Z</time>
      </trkpt>
      <trkpt lat="43.6569" lon="6.19143">
        <ele>604.9</ele>
        <time>2023-09-13T15:12:36.000Z</time>
      </trkpt>
      <trkpt lat="43.65684" lon="6.19134">
        <ele>604.6</ele>
        <time>2023-09-13T15:12:46.000Z</time>
      </trkpt>
      <trkpt lat="43.65674" lon="6.19126">
        <ele>603.9</ele>
        <time>2023-09-13T15:12:56.000Z</time>
      </trkpt>
      <trkpt lat="43.65669" lon="6.19125">
        <ele>603.3</ele>
        <time>2023-09-13T15:13:06.000Z</time>
      </trkpt>
      <trkpt lat="43.65666" lon="6.19121">
        <ele>603</ele>
        <time>2023-09-13T15:13:16.000Z</time>
      </trkpt>
      <trkpt lat="43.65655" lon="6.19107">
        <ele>602.7</ele>
        <time>2023-09-13T15:13:26.000Z</time>
      </trkpt>
      <trkpt lat="43.65651" lon="6.19094">
        <ele>601.7</ele>
        <time>2023-09-13T15:13:36.000Z</time>
      </trkpt>
      <trkpt lat="43.65642" lon="6.19086">
        <ele>601.5</ele>
        <time>2023-09-13T15:13:46.000Z</time>
      </trkpt>
      <trkpt lat="43.65632" lon="6.19079">
        <ele>600.8</ele>
        <time>2023-09-13T15:13:56.000Z</time>
      </trkpt>
      <trkpt lat="43.65624" lon="6.1907">
        <ele>600.4</ele>
        <time>2023-09-13T15:14:06.000Z</time>
      </trkpt>
      <trkpt lat="43.65615" lon="6.1906">
        <ele>599.8</ele>
        <time>2023-09-13T15:14:16.000Z</time>
      </trkpt>
      <trkpt lat="43.65609" lon="6.19052">
        <ele>599.1</ele>
        <time>2023-09-13T15:14:26.000Z</time>
      </trkpt>
      <trkpt lat="43.65604" lon="6.19045">
        <ele>598</ele>
        <time>2023-09-13T15:14:36.000Z</time>
      </trkpt>
      <trkpt lat="43.65604" lon="6.19041">
        <ele>597.1</ele>
        <time>2023-09-13T15:14:46.000Z</time>
      </trkpt>
      <trkpt lat="43.65599" lon="6.19036">
        <ele>595.8</ele>
        <time>2023-09-13T15:14:56.000Z</time>
      </trkpt>
      <trkpt lat="43.65595" lon="6.1903">
        <ele>594.1</ele>
        <time>2023-09-13T15:15:06.000Z</time>
      </trkpt>
      <trkpt lat="43.65594" lon="6.19024">
        <ele>594.9</ele>
        <time>2023-09-13T15:15:16.000Z</time>
      </trkpt>
      <trkpt lat="43.65588" lon="6.19019">
        <ele>595.8</ele>
        <time>2023-09-13T15:15:26.000Z</time>
      </trkpt>
      <trkpt lat="43.65585" lon="6.19013">
        <ele>597.5</ele>
        <time>2023-09-13T15:15:36.000Z</time>
      </trkpt>
      <trkpt lat="43.65576" lon="6.19012">
        <ele>598.1</ele>
        <time>2023-09-13T15:15:46.000Z</time>
      </trkpt>
      <trkpt lat="43.6557" lon="6.19009">
        <ele>598</ele>
        <time>2023-09-13T15:15:56.000Z</time>
      </trkpt>
      <trkpt lat="43.65562" lon="6.18998">
        <ele>598.1</ele>
        <time>2023-09-13T15:16:06.000Z</time>
      </trkpt>
      <trkpt lat="43.65553" lon="6.18988">
        <ele>597.8</ele>
        <time>2023-09-13T15:16:16.000Z</time>
      </trkpt>
      <trkpt lat="43.65547" lon="6.18981">
        <ele>596.6</ele>
        <time>2023-09-13T15:16:26.000Z</time>
      </trkpt>
      <trkpt lat="43.65543" lon="6.18973">
        <ele>595.6</ele>
        <time>2023-09-13T15:16:36.000Z</time>
      </trkpt>
      <trkpt lat="43.65533" lon="6.18962">
        <ele>594.6</ele>
        <time>2023-09-13T15:16:46.000Z</time>
      </trkpt>
      <trkpt lat="43.65529" lon="6.18955">
        <ele>594.3</ele>
        <time>2023-09-13T15:16:56.000Z</time>
      </trkpt>
      <trkpt lat="43.65526" lon="6.18951">
        <ele>593.6</ele>
        <time>2023-09-13T15:17:06.000Z</time>
      </trkpt>
      <trkpt lat="43.6552" lon="6.18945">
        <ele>592.7</ele>
        <time>2023-09-13T15:17:16.000Z</time>
      </trkpt>
      <trkpt lat="43.65514" lon="6.18937">
        <ele>591.2</ele>
        <time>2023-09-13T15:17:26.000Z</time>
      </trkpt>
      <trkpt lat="43.65505" lon="6.18932">
        <ele>590</ele>
        <time>2023-09-13T15:17:36.000Z</time>
      </trkpt>
      <trkpt lat="43.65498" lon="6.18929">
        <ele>588.6</ele>
        <time>2023-09-13T15:17:46.000Z</time>
      </trkpt>
      <trkpt lat="43.65494" lon="6.18922">
        <ele>588</ele>
        <time>2023-09-13T15:17:56.000Z</time>
      </trkpt>
      <trkpt lat="43.65492" lon="6.1892">
        <ele>588.4</ele>
        <time>2023-09-13T15:18:06.000Z</time>
      </trkpt>
      <trkpt lat="43.65489" lon="6.18917">
        <ele>588.2</ele>
        <time>2023-09-13T15:18:16.000Z</time>
      </trkpt>
      <trkpt lat="43.6549" lon="6.18917">
        <ele>588.5</ele>
        <time>2023-09-13T15:18:26.000Z</time>
      </trkpt>
      <trkpt lat="43.6549" lon="6.18916">
        <ele>588.4</ele>
        <time>2023-09-13T15:18:36.000Z</time>
      </trkpt>
      <trkpt lat="43.6549" lon="6.18915">
        <ele>588.4</ele>
        <time>2023-09-13T15:18:46.000Z</time>
      </trkpt>
      <trkpt lat="43.65489" lon="6.18916">
        <ele>588.5</ele>
        <time>2023-09-13T15:18:56.000Z</time>
      </trkpt>
      <trkpt lat="43.65488" lon="6.18916">
        <ele>588.7</ele>
        <time>2023-09-13T15:19:06.000Z</time>
      </trkpt>
      <trkpt lat="43.65486" lon="6.18916">
        <ele>588.4</ele>
        <time>2023-09-13T15:19:16.000Z</time>
      </trkpt>
      <trkpt lat="43.65487" lon="6.18918">
        <ele>588.3</ele>
        <time>2023-09-13T15:19:26.000Z</time>
      </trkpt>
      <trkpt lat="43.65485" lon="6.18917">
        <ele>588.4</ele>
        <time>2023-09-13T15:19:36.000Z</time>
      </trkpt>
      <trkpt lat="43.65484" lon="6.18914">
        <ele>588.4</ele>
        <time>2023-09-13T15:19:46.000Z</time>
      </trkpt>
      <trkpt lat="43.65484" lon="6.18913">
        <ele>588.7</ele>
        <time>2023-09-13T15:19:56.000Z</time>
      </trkpt>
      <trkpt lat="43.65484" lon="6.18912">
        <ele>588.6</ele>
        <time>2023-09-13T15:20:06.000Z</time>
      </trkpt>
      <trkpt lat="43.65485" lon="6.18912">
        <ele>588.7</ele>
        <time>2023-09-13T15:20:16.000Z</time>
      </trkpt>
      <trkpt lat="43.65484" lon="6.18911">
        <ele>589.5</ele>
        <time>2023-09-13T15:20:26.000Z</time>
      </trkpt>
      <trkpt lat="43.6548" lon="6.18902">
        <ele>590.2</ele>
        <time>2023-09-13T15:20:36.000Z</time>
      </trkpt>
      <trkpt lat="43.65476" lon="6.18896">
        <ele>589.8</ele>
        <time>2023-09-13T15:20:46.000Z</time>
      </trkpt>
      <trkpt lat="43.65473" lon="6.18892">
        <ele>592.5</ele>
        <time>2023-09-13T15:20:56.000Z</time>
      </trkpt>
      <trkpt lat="43.6547" lon="6.18887">
        <ele>593.5</ele>
        <time>2023-09-13T15:21:06.000Z</time>
      </trkpt>
      <trkpt lat="43.65463" lon="6.18878">
        <ele>593.6</ele>
        <time>2023-09-13T15:21:16.000Z</time>
      </trkpt>
      <trkpt lat="43.65459" lon="6.18871">
        <ele>594</ele>
        <time>2023-09-13T15:21:26.000Z</time>
      </trkpt>
      <trkpt lat="43.65452" lon="6.18864">
        <ele>594.5</ele>
        <time>2023-09-13T15:21:36.000Z</time>
      </trkpt>
      <trkpt lat="43.65445" lon="6.18855">
        <ele>594.8</ele>
        <time>2023-09-13T15:21:46.000Z</time>
      </trkpt>
      <trkpt lat="43.65436" lon="6.18847">
        <ele>595.2</ele>
        <time>2023-09-13T15:21:56.000Z</time>
      </trkpt>
      <trkpt lat="43.65427" lon="6.18838">
        <ele>596.5</ele>
        <time>2023-09-13T15:22:06.000Z</time>
      </trkpt>
      <trkpt lat="43.65421" lon="6.18832">
        <ele>597.3</ele>
        <time>2023-09-13T15:22:16.000Z</time>
      </trkpt>
      <trkpt lat="43.65416" lon="6.18822">
        <ele>599</ele>
        <time>2023-09-13T15:22:26.000Z</time>
      </trkpt>
      <trkpt lat="43.65411" lon="6.18815">
        <ele>600.7</ele>
        <time>2023-09-13T15:22:36.000Z</time>
      </trkpt>
      <trkpt lat="43.65405" lon="6.18806">
        <ele>601.1</ele>
        <time>2023-09-13T15:22:46.000Z</time>
      </trkpt>
      <trkpt lat="43.65396" lon="6.18796">
        <ele>602.4</ele>
        <time>2023-09-13T15:22:56.000Z</time>
      </trkpt>
      <trkpt lat="43.65391" lon="6.18788">
        <ele>603.8</ele>
        <time>2023-09-13T15:23:06.000Z</time>
      </trkpt>
      <trkpt lat="43.65383" lon="6.18778">
        <ele>604.4</ele>
        <time>2023-09-13T15:23:16.000Z</time>
      </trkpt>
      <trkpt lat="43.65372" lon="6.1877">
        <ele>604.6</ele>
        <time>2023-09-13T15:23:26.000Z</time>
      </trkpt>
      <trkpt lat="43.65365" lon="6.18763">
        <ele>606.2</ele>
        <time>2023-09-13T15:23:36.000Z</time>
      </trkpt>
      <trkpt lat="43.65362" lon="6.18756">
        <ele>606.4</ele>
        <time>2023-09-13T15:23:46.000Z</time>
      </trkpt>
      <trkpt lat="43.65353" lon="6.1875">
        <ele>607.9</ele>
        <time>2023-09-13T15:23:56.000Z</time>
      </trkpt>
      <trkpt lat="43.65349" lon="6.18743">
        <ele>608.5</ele>
        <time>2023-09-13T15:24:06.000Z</time>
      </trkpt>
      <trkpt lat="43.6534" lon="6.18737">
        <ele>609.8</ele>
        <time>2023-09-13T15:24:16.000Z</time>
      </trkpt>
      <trkpt lat="43.65333" lon="6.18732">
        <ele>610.6</ele>
        <time>2023-09-13T15:24:26.000Z</time>
      </trkpt>
      <trkpt lat="43.65328" lon="6.18731">
        <ele>611.1</ele>
        <time>2023-09-13T15:24:36.000Z</time>
      </trkpt>
      <trkpt lat="43.65326" lon="6.18733">
        <ele>610.6</ele>
        <time>2023-09-13T15:24:46.000Z</time>
      </trkpt>
      <trkpt lat="43.65325" lon="6.18734">
        <ele>611.5</ele>
        <time>2023-09-13T15:24:56.000Z</time>
      </trkpt>
      <trkpt lat="43.65326" lon="6.18736">
        <ele>611</ele>
        <time>2023-09-13T15:25:06.000Z</time>
      </trkpt>
      <trkpt lat="43.65325" lon="6.18733">
        <ele>611.2</ele>
        <time>2023-09-13T15:25:16.000Z</time>
      </trkpt>
      <trkpt lat="43.65325" lon="6.18731">
        <ele>611.2</ele>
        <time>2023-09-13T15:25:26.000Z</time>
      </trkpt>
      <trkpt lat="43.65325" lon="6.1873">
        <ele>611.1</ele>
        <time>2023-09-13T15:25:36.000Z</time>
      </trkpt>
      <trkpt lat="43.65323" lon="6.18726">
        <ele>610.9</ele>
        <time>2023-09-13T15:25:46.000Z</time>
      </trkpt>
      <trkpt lat="43.65324" lon="6.18726">
        <ele>611.1</ele>
        <time>2023-09-13T15:25:56.000Z</time>
      </trkpt>
      <trkpt lat="43.65324" lon="6.18726">
        <ele>611.1</ele>
        <time>2023-09-13T15:26:06.000Z</time>
      </trkpt>
      <trkpt lat="43.65323" lon="6.18725">
        <ele>611</ele>
        <time>2023-09-13T15:26:16.000Z</time>
      </trkpt>
      <trkpt lat="43.65321" lon="6.18724">
        <ele>611.3</ele>
        <time>2023-09-13T15:26:26.000Z</time>
      </trkpt>
      <trkpt lat="43.65318" lon="6.18727">
        <ele>611.5</ele>
        <time>2023-09-13T15:26:36.000Z</time>
      </trkpt>
      <trkpt lat="43.65318" lon="6.18731">
        <ele>612</ele>
        <time>2023-09-13T15:26:46.000Z</time>
      </trkpt>
      <trkpt lat="43.65321" lon="6.18733">
        <ele>611.3</ele>
        <time>2023-09-13T15:26:56.000Z</time>
      </trkpt>
      <trkpt lat="43.65322" lon="6.18737">
        <ele>611.4</ele>
        <time>2023-09-13T15:27:06.000Z</time>
      </trkpt>
      <trkpt lat="43.65322" lon="6.18735">
        <ele>611.4</ele>
        <time>2023-09-13T15:27:16.000Z</time>
      </trkpt>
      <trkpt lat="43.65325" lon="6.18732">
        <ele>611.2</ele>
        <time>2023-09-13T15:27:26.000Z</time>
      </trkpt>
      <trkpt lat="43.65319" lon="6.18724">
        <ele>612.2</ele>
        <time>2023-09-13T15:27:36.000Z</time>
      </trkpt>
      <trkpt lat="43.65317" lon="6.1872">
        <ele>612.6</ele>
        <time>2023-09-13T15:27:46.000Z</time>
      </trkpt>
      <trkpt lat="43.65316" lon="6.18713">
        <ele>612.2</ele>
        <time>2023-09-13T15:27:56.000Z</time>
      </trkpt>
      <trkpt lat="43.65312" lon="6.18703">
        <ele>613.4</ele>
        <time>2023-09-13T15:28:06.000Z</time>
      </trkpt>
      <trkpt lat="43.65307" lon="6.18698">
        <ele>613.6</ele>
        <time>2023-09-13T15:28:16.000Z</time>
      </trkpt>
      <trkpt lat="43.65301" lon="6.18694">
        <ele>614.4</ele>
        <time>2023-09-13T15:28:26.000Z</time>
      </trkpt>
      <trkpt lat="43.65296" lon="6.1869">
        <ele>613.7</ele>
        <time>2023-09-13T15:28:36.000Z</time>
      </trkpt>
      <trkpt lat="43.65296" lon="6.18689">
        <ele>616.4</ele>
        <time>2023-09-13T15:28:46.000Z</time>
      </trkpt>
      <trkpt lat="43.65296" lon="6.18688">
        <ele>616.4</ele>
        <time>2023-09-13T15:28:56.000Z</time>
      </trkpt>
      <trkpt lat="43.65291" lon="6.18682">
        <ele>615.8</ele>
        <time>2023-09-13T15:29:06.000Z</time>
      </trkpt>
      <trkpt lat="43.65285" lon="6.18675">
        <ele>616.7</ele>
        <time>2023-09-13T15:29:16.000Z</time>
      </trkpt>
      <trkpt lat="43.65274" lon="6.18663">
        <ele>617.3</ele>
        <time>2023-09-13T15:29:26.000Z</time>
      </trkpt>
      <trkpt lat="43.65268" lon="6.18653">
        <ele>618.3</ele>
        <time>2023-09-13T15:29:36.000Z</time>
      </trkpt>
      <trkpt lat="43.65257" lon="6.18643">
        <ele>618.8</ele>
        <time>2023-09-13T15:29:46.000Z</time>
      </trkpt>
      <trkpt lat="43.65251" lon="6.18634">
        <ele>619.5</ele>
        <time>2023-09-13T15:29:56.000Z</time>
      </trkpt>
      <trkpt lat="43.65247" lon="6.18624">
        <ele>620.5</ele>
        <time>2023-09-13T15:30:06.000Z</time>
      </trkpt>
      <trkpt lat="43.65237" lon="6.18616">
        <ele>620.8</ele>
        <time>2023-09-13T15:30:16.000Z</time>
      </trkpt>
      <trkpt lat="43.65226" lon="6.18613">
        <ele>622.1</ele>
        <time>2023-09-13T15:30:26.000Z</time>
      </trkpt>
      <trkpt lat="43.65219" lon="6.18608">
        <ele>622.3</ele>
        <time>2023-09-13T15:30:36.000Z</time>
      </trkpt>
      <trkpt lat="43.65218" lon="6.186">
        <ele>623.5</ele>
        <time>2023-09-13T15:30:46.000Z</time>
      </trkpt>
      <trkpt lat="43.65206" lon="6.18589">
        <ele>624.2</ele>
        <time>2023-09-13T15:30:56.000Z</time>
      </trkpt>
      <trkpt lat="43.652" lon="6.18582">
        <ele>624.4</ele>
        <time>2023-09-13T15:31:06.000Z</time>
      </trkpt>
      <trkpt lat="43.65194" lon="6.18572">
        <ele>624</ele>
        <time>2023-09-13T15:31:16.000Z</time>
      </trkpt>
      <trkpt lat="43.65188" lon="6.18562">
        <ele>623.9</ele>
        <time>2023-09-13T15:31:26.000Z</time>
      </trkpt>
      <trkpt lat="43.65184" lon="6.18549">
        <ele>623.7</ele>
        <time>2023-09-13T15:31:36.000Z</time>
      </trkpt>
      <trkpt lat="43.65182" lon="6.18538">
        <ele>623.8</ele>
        <time>2023-09-13T15:31:46.000Z</time>
      </trkpt>
      <trkpt lat="43.65181" lon="6.18533">
        <ele>624.1</ele>
        <time>2023-09-13T15:31:56.000Z</time>
      </trkpt>
      <trkpt lat="43.65182" lon="6.18529">
        <ele>624</ele>
        <time>2023-09-13T15:32:06.000Z</time>
      </trkpt>
      <trkpt lat="43.65185" lon="6.18519">
        <ele>624.1</ele>
        <time>2023-09-13T15:32:16.000Z</time>
      </trkpt>
      <trkpt lat="43.65185" lon="6.1851">
        <ele>624.5</ele>
        <time>2023-09-13T15:32:26.000Z</time>
      </trkpt>
      <trkpt lat="43.65189" lon="6.18499">
        <ele>624.8</ele>
        <time>2023-09-13T15:32:36.000Z</time>
      </trkpt>
      <trkpt lat="43.6519" lon="6.18489">
        <ele>625.1</ele>
        <time>2023-09-13T15:32:46.000Z</time>
      </trkpt>
      <trkpt lat="43.65196" lon="6.1848">
        <ele>625.2</ele>
        <time>2023-09-13T15:32:56.000Z</time>
      </trkpt>
      <trkpt lat="43.652" lon="6.18469">
        <ele>625.3</ele>
        <time>2023-09-13T15:33:06.000Z</time>
      </trkpt>
      <trkpt lat="43.65206" lon="6.18462">
        <ele>625.9</ele>
        <time>2023-09-13T15:33:16.000Z</time>
      </trkpt>
      <trkpt lat="43.65212" lon="6.18455">
        <ele>626.1</ele>
        <time>2023-09-13T15:33:26.000Z</time>
      </trkpt>
      <trkpt lat="43.65219" lon="6.18449">
        <ele>626.5</ele>
        <time>2023-09-13T15:33:36.000Z</time>
      </trkpt>
      <trkpt lat="43.65224" lon="6.18444">
        <ele>626.8</ele>
        <time>2023-09-13T15:33:46.000Z</time>
      </trkpt>
      <trkpt lat="43.65232" lon="6.18441">
        <ele>627</ele>
        <time>2023-09-13T15:33:56.000Z</time>
      </trkpt>
      <trkpt lat="43.65243" lon="6.18434">
        <ele>627.1</ele>
        <time>2023-09-13T15:34:06.000Z</time>
      </trkpt>
      <trkpt lat="43.65252" lon="6.18426">
        <ele>627.1</ele>
        <time>2023-09-13T15:34:16.000Z</time>
      </trkpt>
      <trkpt lat="43.65259" lon="6.18419">
        <ele>627</ele>
        <time>2023-09-13T15:34:26.000Z</time>
      </trkpt>
      <trkpt lat="43.65268" lon="6.18411">
        <ele>626.8</ele>
        <time>2023-09-13T15:34:36.000Z</time>
      </trkpt>
      <trkpt lat="43.65278" lon="6.18405">
        <ele>626.5</ele>
        <time>2023-09-13T15:34:46.000Z</time>
      </trkpt>
      <trkpt lat="43.65288" lon="6.18397">
        <ele>626.4</ele>
        <time>2023-09-13T15:34:56.000Z</time>
      </trkpt>
      <trkpt lat="43.65296" lon="6.18392">
        <ele>625.9</ele>
        <time>2023-09-13T15:35:06.000Z</time>
      </trkpt>
      <trkpt lat="43.65306" lon="6.18384">
        <ele>625.4</ele>
        <time>2023-09-13T15:35:16.000Z</time>
      </trkpt>
      <trkpt lat="43.65313" lon="6.18372">
        <ele>625.6</ele>
        <time>2023-09-13T15:35:26.000Z</time>
      </trkpt>
      <trkpt lat="43.6532" lon="6.1836">
        <ele>625</ele>
        <time>2023-09-13T15:35:36.000Z</time>
      </trkpt>
      <trkpt lat="43.65328" lon="6.18347">
        <ele>624.7</ele>
        <time>2023-09-13T15:35:46.000Z</time>
      </trkpt>
      <trkpt lat="43.65335" lon="6.18338">
        <ele>624.1</ele>
        <time>2023-09-13T15:35:56.000Z</time>
      </trkpt>
      <trkpt lat="43.65339" lon="6.1833">
        <ele>623.8</ele>
        <time>2023-09-13T15:36:06.000Z</time>
      </trkpt>
      <trkpt lat="43.65348" lon="6.18316">
        <ele>623.5</ele>
        <time>2023-09-13T15:36:16.000Z</time>
      </trkpt>
      <trkpt lat="43.65356" lon="6.18306">
        <ele>623.1</ele>
        <time>2023-09-13T15:36:26.000Z</time>
      </trkpt>
      <trkpt lat="43.65365" lon="6.18295">
        <ele>622.6</ele>
        <time>2023-09-13T15:36:36.000Z</time>
      </trkpt>
      <trkpt lat="43.65375" lon="6.18284">
        <ele>622.7</ele>
        <time>2023-09-13T15:36:46.000Z</time>
      </trkpt>
      <trkpt lat="43.6538" lon="6.18276">
        <ele>622.5</ele>
        <time>2023-09-13T15:36:56.000Z</time>
      </trkpt>
      <trkpt lat="43.65379" lon="6.18274">
        <ele>622.1</ele>
        <time>2023-09-13T15:37:06.000Z</time>
      </trkpt>
      <trkpt lat="43.65383" lon="6.1827">
        <ele>622.7</ele>
        <time>2023-09-13T15:37:16.000Z</time>
      </trkpt>
      <trkpt lat="43.65392" lon="6.1826">
        <ele>622</ele>
        <time>2023-09-13T15:37:26.000Z</time>
      </trkpt>
      <trkpt lat="43.65401" lon="6.1825">
        <ele>622.1</ele>
        <time>2023-09-13T15:37:36.000Z</time>
      </trkpt>
      <trkpt lat="43.65412" lon="6.18239">
        <ele>621.5</ele>
        <time>2023-09-13T15:37:46.000Z</time>
      </trkpt>
      <trkpt lat="43.65421" lon="6.18232">
        <ele>620.3</ele>
        <time>2023-09-13T15:37:56.000Z</time>
      </trkpt>
      <trkpt lat="43.65433" lon="6.18222">
        <ele>619.2</ele>
        <time>2023-09-13T15:38:06.000Z</time>
      </trkpt>
      <trkpt lat="43.65443" lon="6.18214">
        <ele>618.2</ele>
        <time>2023-09-13T15:38:16.000Z</time>
      </trkpt>
      <trkpt lat="43.65452" lon="6.18202">
        <ele>617.8</ele>
        <time>2023-09-13T15:38:26.000Z</time>
      </trkpt>
      <trkpt lat="43.65461" lon="6.1819">
        <ele>617.1</ele>
        <time>2023-09-13T15:38:36.000Z</time>
      </trkpt>
      <trkpt lat="43.6547" lon="6.18175">
        <ele>616.5</ele>
        <time>2023-09-13T15:38:46.000Z</time>
      </trkpt>
      <trkpt lat="43.65478" lon="6.18162">
        <ele>615.2</ele>
        <time>2023-09-13T15:38:56.000Z</time>
      </trkpt>
      <trkpt lat="43.65486" lon="6.18148">
        <ele>613.7</ele>
        <time>2023-09-13T15:39:06.000Z</time>
      </trkpt>
      <trkpt lat="43.65492" lon="6.18133">
        <ele>613.4</ele>
        <time>2023-09-13T15:39:16.000Z</time>
      </trkpt>
      <trkpt lat="43.65498" lon="6.18118">
        <ele>612.7</ele>
        <time>2023-09-13T15:39:26.000Z</time>
      </trkpt>
      <trkpt lat="43.65506" lon="6.18103">
        <ele>612.1</ele>
        <time>2023-09-13T15:39:36.000Z</time>
      </trkpt>
      <trkpt lat="43.65512" lon="6.1809">
        <ele>611.2</ele>
        <time>2023-09-13T15:39:46.000Z</time>
      </trkpt>
      <trkpt lat="43.65517" lon="6.18074">
        <ele>610.3</ele>
        <time>2023-09-13T15:39:56.000Z</time>
      </trkpt>
      <trkpt lat="43.65518" lon="6.1806">
        <ele>609.9</ele>
        <time>2023-09-13T15:40:06.000Z</time>
      </trkpt>
      <trkpt lat="43.65524" lon="6.18042">
        <ele>608.9</ele>
        <time>2023-09-13T15:40:16.000Z</time>
      </trkpt>
      <trkpt lat="43.65527" lon="6.18025">
        <ele>608.5</ele>
        <time>2023-09-13T15:40:26.000Z</time>
      </trkpt>
      <trkpt lat="43.6553" lon="6.18012">
        <ele>608.8</ele>
        <time>2023-09-13T15:40:36.000Z</time>
      </trkpt>
      <trkpt lat="43.65534" lon="6.17999">
        <ele>608.8</ele>
        <time>2023-09-13T15:40:46.000Z</time>
      </trkpt>
      <trkpt lat="43.65537" lon="6.17985">
        <ele>609.4</ele>
        <time>2023-09-13T15:40:56.000Z</time>
      </trkpt>
      <trkpt lat="43.65539" lon="6.17972">
        <ele>609.9</ele>
        <time>2023-09-13T15:41:06.000Z</time>
      </trkpt>
      <trkpt lat="43.6554" lon="6.17958">
        <ele>610.2</ele>
        <time>2023-09-13T15:41:16.000Z</time>
      </trkpt>
      <trkpt lat="43.65543" lon="6.17945">
        <ele>610.7</ele>
        <time>2023-09-13T15:41:26.000Z</time>
      </trkpt>
      <trkpt lat="43.65546" lon="6.17933">
        <ele>611.2</ele>
        <time>2023-09-13T15:41:36.000Z</time>
      </trkpt>
      <trkpt lat="43.6555" lon="6.17919">
        <ele>611.8</ele>
        <time>2023-09-13T15:41:46.000Z</time>
      </trkpt>
      <trkpt lat="43.65554" lon="6.17903">
        <ele>612.4</ele>
        <time>2023-09-13T15:41:56.000Z</time>
      </trkpt>
      <trkpt lat="43.65556" lon="6.17889">
        <ele>613.9</ele>
        <time>2023-09-13T15:42:06.000Z</time>
      </trkpt>
      <trkpt lat="43.65558" lon="6.17875">
        <ele>614.8</ele>
        <time>2023-09-13T15:42:16.000Z</time>
      </trkpt>
      <trkpt lat="43.65561" lon="6.17864">
        <ele>615.7</ele>
        <time>2023-09-13T15:42:26.000Z</time>
      </trkpt>
      <trkpt lat="43.65565" lon="6.17849">
        <ele>616.1</ele>
        <time>2023-09-13T15:42:36.000Z</time>
      </trkpt>
      <trkpt lat="43.65568" lon="6.17834">
        <ele>616.9</ele>
        <time>2023-09-13T15:42:46.000Z</time>
      </trkpt>
      <trkpt lat="43.6557" lon="6.17819">
        <ele>617.8</ele>
        <time>2023-09-13T15:42:56.000Z</time>
      </trkpt>
      <trkpt lat="43.65575" lon="6.17804">
        <ele>618.9</ele>
        <time>2023-09-13T15:43:06.000Z</time>
      </trkpt>
      <trkpt lat="43.6558" lon="6.17791">
        <ele>619.3</ele>
        <time>2023-09-13T15:43:16.000Z</time>
      </trkpt>
      <trkpt lat="43.65583" lon="6.17777">
        <ele>619.9</ele>
        <time>2023-09-13T15:43:26.000Z</time>
      </trkpt>
      <trkpt lat="43.65586" lon="6.17765">
        <ele>620.4</ele>
        <time>2023-09-13T15:43:36.000Z</time>
      </trkpt>
      <trkpt lat="43.65588" lon="6.1775">
        <ele>621.3</ele>
        <time>2023-09-13T15:43:46.000Z</time>
      </trkpt>
      <trkpt lat="43.65591" lon="6.17738">
        <ele>621.9</ele>
        <time>2023-09-13T15:43:56.000Z</time>
      </trkpt>
      <trkpt lat="43.65595" lon="6.17726">
        <ele>622.9</ele>
        <time>2023-09-13T15:44:06.000Z</time>
      </trkpt>
      <trkpt lat="43.65598" lon="6.1771">
        <ele>624.1</ele>
        <time>2023-09-13T15:44:16.000Z</time>
      </trkpt>
      <trkpt lat="43.65598" lon="6.17695">
        <ele>624.6</ele>
        <time>2023-09-13T15:44:26.000Z</time>
      </trkpt>
      <trkpt lat="43.65599" lon="6.17682">
        <ele>625.1</ele>
        <time>2023-09-13T15:44:36.000Z</time>
      </trkpt>
      <trkpt lat="43.656" lon="6.17666">
        <ele>625.6</ele>
        <time>2023-09-13T15:44:46.000Z</time>
      </trkpt>
      <trkpt lat="43.65599" lon="6.17652">
        <ele>625.8</ele>
        <time>2023-09-13T15:44:56.000Z</time>
      </trkpt>
      <trkpt lat="43.65601" lon="6.17639">
        <ele>625.9</ele>
        <time>2023-09-13T15:45:06.000Z</time>
      </trkpt>
      <trkpt lat="43.65602" lon="6.17625">
        <ele>626.2</ele>
        <time>2023-09-13T15:45:16.000Z</time>
      </trkpt>
      <trkpt lat="43.65603" lon="6.17612">
        <ele>626.2</ele>
        <time>2023-09-13T15:45:26.000Z</time>
      </trkpt>
      <trkpt lat="43.65604" lon="6.17598">
        <ele>625.9</ele>
        <time>2023-09-13T15:45:36.000Z</time>
      </trkpt>
      <trkpt lat="43.65602" lon="6.17583">
        <ele>624.8</ele>
        <time>2023-09-13T15:45:46.000Z</time>
      </trkpt>
      <trkpt lat="43.65603" lon="6.17567">
        <ele>623.5</ele>
        <time>2023-09-13T15:45:56.000Z</time>
      </trkpt>
      <trkpt lat="43.65604" lon="6.17551">
        <ele>623</ele>
        <time>2023-09-13T15:46:06.000Z</time>
      </trkpt>
      <trkpt lat="43.65604" lon="6.17534">
        <ele>621.9</ele>
        <time>2023-09-13T15:46:16.000Z</time>
      </trkpt>
      <trkpt lat="43.65608" lon="6.17518">
        <ele>621.2</ele>
        <time>2023-09-13T15:46:26.000Z</time>
      </trkpt>
      <trkpt lat="43.65615" lon="6.17505">
        <ele>620.8</ele>
        <time>2023-09-13T15:46:36.000Z</time>
      </trkpt>
      <trkpt lat="43.65625" lon="6.17494">
        <ele>620.9</ele>
        <time>2023-09-13T15:46:46.000Z</time>
      </trkpt>
      <trkpt lat="43.6563" lon="6.17486">
        <ele>621.2</ele>
        <time>2023-09-13T15:46:56.000Z</time>
      </trkpt>
      <trkpt lat="43.65638" lon="6.17475">
        <ele>621.6</ele>
        <time>2023-09-13T15:47:06.000Z</time>
      </trkpt>
      <trkpt lat="43.65645" lon="6.17463">
        <ele>622.1</ele>
        <time>2023-09-13T15:47:16.000Z</time>
      </trkpt>
      <trkpt lat="43.6565" lon="6.17451">
        <ele>622.3</ele>
        <time>2023-09-13T15:47:26.000Z</time>
      </trkpt>
      <trkpt lat="43.65655" lon="6.17441">
        <ele>623.1</ele>
        <time>2023-09-13T15:47:36.000Z</time>
      </trkpt>
      <trkpt lat="43.65659" lon="6.17426">
        <ele>623.9</ele>
        <time>2023-09-13T15:47:46.000Z</time>
      </trkpt>
      <trkpt lat="43.65664" lon="6.17413">
        <ele>625</ele>
        <time>2023-09-13T15:47:56.000Z</time>
      </trkpt>
      <trkpt lat="43.65669" lon="6.17402">
        <ele>625.9</ele>
        <time>2023-09-13T15:48:06.000Z</time>
      </trkpt>
      <trkpt lat="43.65675" lon="6.1739">
        <ele>626.3</ele>
        <time>2023-09-13T15:48:16.000Z</time>
      </trkpt>
      <trkpt lat="43.65681" lon="6.17379">
        <ele>627.5</ele>
        <time>2023-09-13T15:48:26.000Z</time>
      </trkpt>
      <trkpt lat="43.65686" lon="6.17368">
        <ele>628.1</ele>
        <time>2023-09-13T15:48:36.000Z</time>
      </trkpt>
      <trkpt lat="43.65689" lon="6.17355">
        <ele>629.3</ele>
        <time>2023-09-13T15:48:46.000Z</time>
      </trkpt>
      <trkpt lat="43.6569" lon="6.17341">
        <ele>629.7</ele>
        <time>2023-09-13T15:48:56.000Z</time>
      </trkpt>
      <trkpt lat="43.65692" lon="6.17324">
        <ele>629.9</ele>
        <time>2023-09-13T15:49:06.000Z</time>
      </trkpt>
      <trkpt lat="43.65696" lon="6.17308">
        <ele>630</ele>
        <time>2023-09-13T15:49:16.000Z</time>
      </trkpt>
      <trkpt lat="43.65699" lon="6.17293">
        <ele>630.1</ele>
        <time>2023-09-13T15:49:26.000Z</time>
      </trkpt>
      <trkpt lat="43.657" lon="6.17278">
        <ele>630.3</ele>
        <time>2023-09-13T15:49:36.000Z</time>
      </trkpt>
      <trkpt lat="43.65703" lon="6.17262">
        <ele>630</ele>
        <time>2023-09-13T15:49:46.000Z</time>
      </trkpt>
      <trkpt lat="43.65704" lon="6.17247">
        <ele>629.8</ele>
        <time>2023-09-13T15:49:56.000Z</time>
      </trkpt>
      <trkpt lat="43.65706" lon="6.17233">
        <ele>629.5</ele>
        <time>2023-09-13T15:50:06.000Z</time>
      </trkpt>
      <trkpt lat="43.65708" lon="6.17218">
        <ele>629.2</ele>
        <time>2023-09-13T15:50:16.000Z</time>
      </trkpt>
      <trkpt lat="43.65708" lon="6.17203">
        <ele>628.2</ele>
        <time>2023-09-13T15:50:26.000Z</time>
      </trkpt>
      <trkpt lat="43.65709" lon="6.17186">
        <ele>628.1</ele>
        <time>2023-09-13T15:50:36.000Z</time>
      </trkpt>
      <trkpt lat="43.6571" lon="6.17172">
        <ele>627.2</ele>
        <time>2023-09-13T15:50:46.000Z</time>
      </trkpt>
      <trkpt lat="43.65711" lon="6.17158">
        <ele>627.1</ele>
        <time>2023-09-13T15:50:56.000Z</time>
      </trkpt>
      <trkpt lat="43.65717" lon="6.17142">
        <ele>626.8</ele>
        <time>2023-09-13T15:51:06.000Z</time>
      </trkpt>
      <trkpt lat="43.65722" lon="6.17134">
        <ele>626.9</ele>
        <time>2023-09-13T15:51:16.000Z</time>
      </trkpt>
      <trkpt lat="43.65731" lon="6.17127">
        <ele>627</ele>
        <time>2023-09-13T15:51:26.000Z</time>
      </trkpt>
      <trkpt lat="43.65739" lon="6.17115">
        <ele>626.8</ele>
        <time>2023-09-13T15:51:36.000Z</time>
      </trkpt>
      <trkpt lat="43.65747" lon="6.17103">
        <ele>626.7</ele>
        <time>2023-09-13T15:51:46.000Z</time>
      </trkpt>
      <trkpt lat="43.65756" lon="6.17091">
        <ele>626</ele>
        <time>2023-09-13T15:51:56.000Z</time>
      </trkpt>
      <trkpt lat="43.65767" lon="6.17081">
        <ele>624.9</ele>
        <time>2023-09-13T15:52:06.000Z</time>
      </trkpt>
      <trkpt lat="43.65777" lon="6.17075">
        <ele>623.7</ele>
        <time>2023-09-13T15:52:16.000Z</time>
      </trkpt>
      <trkpt lat="43.65787" lon="6.17078">
        <ele>623.3</ele>
        <time>2023-09-13T15:52:26.000Z</time>
      </trkpt>
      <trkpt lat="43.65793" lon="6.17085">
        <ele>622.9</ele>
        <time>2023-09-13T15:52:36.000Z</time>
      </trkpt>
      <trkpt lat="43.65797" lon="6.17095">
        <ele>622.9</ele>
        <time>2023-09-13T15:52:46.000Z</time>
      </trkpt>
      <trkpt lat="43.65802" lon="6.17107">
        <ele>623.2</ele>
        <time>2023-09-13T15:52:56.000Z</time>
      </trkpt>
      <trkpt lat="43.65807" lon="6.17115">
        <ele>623.6</ele>
        <time>2023-09-13T15:53:06.000Z</time>
      </trkpt>
      <trkpt lat="43.65816" lon="6.17125">
        <ele>623.4</ele>
        <time>2023-09-13T15:53:16.000Z</time>
      </trkpt>
      <trkpt lat="43.65825" lon="6.17128">
        <ele>623.2</ele>
        <time>2023-09-13T15:53:26.000Z</time>
      </trkpt>
      <trkpt lat="43.65827" lon="6.1713">
        <ele>623.5</ele>
        <time>2023-09-13T15:53:36.000Z</time>
      </trkpt>
      <trkpt lat="43.65828" lon="6.17131">
        <ele>623.5</ele>
        <time>2023-09-13T15:53:46.000Z</time>
      </trkpt>
      <trkpt lat="43.65828" lon="6.17131">
        <ele>623.5</ele>
        <time>2023-09-13T15:53:56.000Z</time>
      </trkpt>
      <trkpt lat="43.65828" lon="6.17132">
        <ele>623.3</ele>
        <time>2023-09-13T15:54:06.000Z</time>
      </trkpt>
      <trkpt lat="43.65829" lon="6.17133">
        <ele>623.5</ele>
        <time>2023-09-13T15:54:16.000Z</time>
      </trkpt>
      <trkpt lat="43.65829" lon="6.17134">
        <ele>623.3</ele>
        <time>2023-09-13T15:54:26.000Z</time>
      </trkpt>
      <trkpt lat="43.6583" lon="6.17136">
        <ele>623.3</ele>
        <time>2023-09-13T15:54:36.000Z</time>
      </trkpt>
      <trkpt lat="43.6583" lon="6.17134">
        <ele>623.3</ele>
        <time>2023-09-13T15:54:46.000Z</time>
      </trkpt>
      <trkpt lat="43.65831" lon="6.17133">
        <ele>623.4</ele>
        <time>2023-09-13T15:54:56.000Z</time>
      </trkpt>
      <trkpt lat="43.65831" lon="6.17132">
        <ele>623.5</ele>
        <time>2023-09-13T15:55:06.000Z</time>
      </trkpt>
      <trkpt lat="43.65831" lon="6.17132">
        <ele>623.6</ele>
        <time>2023-09-13T15:55:16.000Z</time>
      </trkpt>
      <trkpt lat="43.6583" lon="6.17132">
        <ele>623.3</ele>
        <time>2023-09-13T15:55:26.000Z</time>
      </trkpt>
      <trkpt lat="43.65833" lon="6.17134">
        <ele>624</ele>
        <time>2023-09-13T15:55:36.000Z</time>
      </trkpt>
      <trkpt lat="43.65833" lon="6.17135">
        <ele>623.4</ele>
        <time>2023-09-13T15:55:46.000Z</time>
      </trkpt>
      <trkpt lat="43.65833" lon="6.17133">
        <ele>623.6</ele>
        <time>2023-09-13T15:55:56.000Z</time>
      </trkpt>
      <trkpt lat="43.65834" lon="6.17131">
        <ele>623.3</ele>
        <time>2023-09-13T15:56:06.000Z</time>
      </trkpt>
      <trkpt lat="43.65834" lon="6.17132">
        <ele>622.7</ele>
        <time>2023-09-13T15:56:16.000Z</time>
      </trkpt>
      <trkpt lat="43.65833" lon="6.17133">
        <ele>623.3</ele>
        <time>2023-09-13T15:56:26.000Z</time>
      </trkpt>
      <trkpt lat="43.65834" lon="6.17134">
        <ele>622.9</ele>
        <time>2023-09-13T15:56:36.000Z</time>
      </trkpt>
      <trkpt lat="43.65839" lon="6.17136">
        <ele>624.2</ele>
        <time>2023-09-13T15:56:46.000Z</time>
      </trkpt>
      <trkpt lat="43.65847" lon="6.17123">
        <ele>623.5</ele>
        <time>2023-09-13T15:56:56.000Z</time>
      </trkpt>
      <trkpt lat="43.65849" lon="6.17109">
        <ele>622.9</ele>
        <time>2023-09-13T15:57:06.000Z</time>
      </trkpt>
      <trkpt lat="43.65848" lon="6.17101">
        <ele>622.3</ele>
        <time>2023-09-13T15:57:16.000Z</time>
      </trkpt>
      <trkpt lat="43.65848" lon="6.17088">
        <ele>622.5</ele>
        <time>2023-09-13T15:57:26.000Z</time>
      </trkpt>
      <trkpt lat="43.65848" lon="6.17072">
        <ele>621.7</ele>
        <time>2023-09-13T15:57:36.000Z</time>
      </trkpt>
      <trkpt lat="43.65848" lon="6.17058">
        <ele>621</ele>
        <time>2023-09-13T15:57:46.000Z</time>
      </trkpt>
      <trkpt lat="43.65848" lon="6.17043">
        <ele>620.8</ele>
        <time>2023-09-13T15:57:56.000Z</time>
      </trkpt>
      <trkpt lat="43.6585" lon="6.1703">
        <ele>619.9</ele>
        <time>2023-09-13T15:58:06.000Z</time>
      </trkpt>
      <trkpt lat="43.65851" lon="6.17018">
        <ele>619.6</ele>
        <time>2023-09-13T15:58:16.000Z</time>
      </trkpt>
      <trkpt lat="43.65852" lon="6.17002">
        <ele>618.6</ele>
        <time>2023-09-13T15:58:26.000Z</time>
      </trkpt>
      <trkpt lat="43.65852" lon="6.16987">
        <ele>617.9</ele>
        <time>2023-09-13T15:58:36.000Z</time>
      </trkpt>
      <trkpt lat="43.65854" lon="6.16971">
        <ele>616.8</ele>
        <time>2023-09-13T15:58:46.000Z</time>
      </trkpt>
      <trkpt lat="43.65852" lon="6.16957">
        <ele>616.8</ele>
        <time>2023-09-13T15:58:56.000Z</time>
      </trkpt>
      <trkpt lat="43.65848" lon="6.16941">
        <ele>616.1</ele>
        <time>2023-09-13T15:59:06.000Z</time>
      </trkpt>
      <trkpt lat="43.65845" lon="6.16928">
        <ele>615.9</ele>
        <time>2023-09-13T15:59:16.000Z</time>
      </trkpt>
      <trkpt lat="43.65842" lon="6.1691">
        <ele>615.4</ele>
        <time>2023-09-13T15:59:26.000Z</time>
      </trkpt>
      <trkpt lat="43.65838" lon="6.16896">
        <ele>614.8</ele>
        <time>2023-09-13T15:59:36.000Z</time>
      </trkpt>
      <trkpt lat="43.65837" lon="6.16882">
        <ele>614.2</ele>
        <time>2023-09-13T15:59:46.000Z</time>
      </trkpt>
      <trkpt lat="43.65837" lon="6.16868">
        <ele>614.1</ele>
        <time>2023-09-13T15:59:56.000Z</time>
      </trkpt>
      <trkpt lat="43.65836" lon="6.16854">
        <ele>613.4</ele>
        <time>2023-09-13T16:00:06.000Z</time>
      </trkpt>
      <trkpt lat="43.65836" lon="6.1684">
        <ele>613</ele>
        <time>2023-09-13T16:00:16.000Z</time>
      </trkpt>
      <trkpt lat="43.65836" lon="6.16826">
        <ele>612.4</ele>
        <time>2023-09-13T16:00:26.000Z</time>
      </trkpt>
      <trkpt lat="43.65834" lon="6.16812">
        <ele>611.8</ele>
        <time>2023-09-13T16:00:36.000Z</time>
      </trkpt>
      <trkpt lat="43.65833" lon="6.16797">
        <ele>611.3</ele>
        <time>2023-09-13T16:00:46.000Z</time>
      </trkpt>
      <trkpt lat="43.65832" lon="6.16787">
        <ele>611.2</ele>
        <time>2023-09-13T16:00:56.000Z</time>
      </trkpt>
      <trkpt lat="43.65829" lon="6.16773">
        <ele>610.2</ele>
        <time>2023-09-13T16:01:06.000Z</time>
      </trkpt>
      <trkpt lat="43.65821" lon="6.16761">
        <ele>609.9</ele>
        <time>2023-09-13T16:01:16.000Z</time>
      </trkpt>
      <trkpt lat="43.65813" lon="6.16749">
        <ele>609.2</ele>
        <time>2023-09-13T16:01:26.000Z</time>
      </trkpt>
      <trkpt lat="43.6581" lon="6.16739">
        <ele>608.9</ele>
        <time>2023-09-13T16:01:36.000Z</time>
      </trkpt>
      <trkpt lat="43.65804" lon="6.16728">
        <ele>608.7</ele>
        <time>2023-09-13T16:01:46.000Z</time>
      </trkpt>
      <trkpt lat="43.65795" lon="6.16714">
        <ele>608.4</ele>
        <time>2023-09-13T16:01:56.000Z</time>
      </trkpt>
      <trkpt lat="43.65786" lon="6.16702">
        <ele>607.9</ele>
        <time>2023-09-13T16:02:06.000Z</time>
      </trkpt>
      <trkpt lat="43.65778" lon="6.1669">
        <ele>607.6</ele>
        <time>2023-09-13T16:02:16.000Z</time>
      </trkpt>
      <trkpt lat="43.65769" lon="6.16679">
        <ele>606.9</ele>
        <time>2023-09-13T16:02:26.000Z</time>
      </trkpt>
      <trkpt lat="43.65766" lon="6.16667">
        <ele>606.3</ele>
        <time>2023-09-13T16:02:36.000Z</time>
      </trkpt>
      <trkpt lat="43.65763" lon="6.16655">
        <ele>605.5</ele>
        <time>2023-09-13T16:02:46.000Z</time>
      </trkpt>
      <trkpt lat="43.65758" lon="6.16643">
        <ele>604.8</ele>
        <time>2023-09-13T16:02:56.000Z</time>
      </trkpt>
      <trkpt lat="43.65754" lon="6.16629">
        <ele>604</ele>
        <time>2023-09-13T16:03:06.000Z</time>
      </trkpt>
      <trkpt lat="43.65748" lon="6.16615">
        <ele>603.4</ele>
        <time>2023-09-13T16:03:16.000Z</time>
      </trkpt>
      <trkpt lat="43.65748" lon="6.16603">
        <ele>602.6</ele>
        <time>2023-09-13T16:03:26.000Z</time>
      </trkpt>
      <trkpt lat="43.65747" lon="6.16592">
        <ele>601.8</ele>
        <time>2023-09-13T16:03:36.000Z</time>
      </trkpt>
      <trkpt lat="43.65747" lon="6.16579">
        <ele>600.9</ele>
        <time>2023-09-13T16:03:46.000Z</time>
      </trkpt>
      <trkpt lat="43.65743" lon="6.16563">
        <ele>600.5</ele>
        <time>2023-09-13T16:03:56.000Z</time>
      </trkpt>
      <trkpt lat="43.6574" lon="6.16548">
        <ele>600</ele>
        <time>2023-09-13T16:04:06.000Z</time>
      </trkpt>
      <trkpt lat="43.65737" lon="6.16529">
        <ele>598.9</ele>
        <time>2023-09-13T16:04:16.000Z</time>
      </trkpt>
      <trkpt lat="43.65733" lon="6.16512">
        <ele>598.3</ele>
        <time>2023-09-13T16:04:26.000Z</time>
      </trkpt>
      <trkpt lat="43.65726" lon="6.16496">
        <ele>597.5</ele>
        <time>2023-09-13T16:04:36.000Z</time>
      </trkpt>
      <trkpt lat="43.65721" lon="6.16482">
        <ele>596.8</ele>
        <time>2023-09-13T16:04:46.000Z</time>
      </trkpt>
      <trkpt lat="43.65716" lon="6.16467">
        <ele>596</ele>
        <time>2023-09-13T16:04:56.000Z</time>
      </trkpt>
      <trkpt lat="43.65712" lon="6.1646">
        <ele>594.9</ele>
        <time>2023-09-13T16:05:06.000Z</time>
      </trkpt>
      <trkpt lat="43.65707" lon="6.16445">
        <ele>595.1</ele>
        <time>2023-09-13T16:05:16.000Z</time>
      </trkpt>
      <trkpt lat="43.65703" lon="6.1643">
        <ele>594.5</ele>
        <time>2023-09-13T16:05:26.000Z</time>
      </trkpt>
      <trkpt lat="43.657" lon="6.16418">
        <ele>593.4</ele>
        <time>2023-09-13T16:05:36.000Z</time>
      </trkpt>
      <trkpt lat="43.65694" lon="6.16407">
        <ele>593.1</ele>
        <time>2023-09-13T16:05:46.000Z</time>
      </trkpt>
      <trkpt lat="43.65691" lon="6.16394">
        <ele>592.4</ele>
        <time>2023-09-13T16:05:56.000Z</time>
      </trkpt>
      <trkpt lat="43.65683" lon="6.16376">
        <ele>592</ele>
        <time>2023-09-13T16:06:06.000Z</time>
      </trkpt>
      <trkpt lat="43.65677" lon="6.16366">
        <ele>591.2</ele>
        <time>2023-09-13T16:06:16.000Z</time>
      </trkpt>
      <trkpt lat="43.65674" lon="6.1635">
        <ele>590.1</ele>
        <time>2023-09-13T16:06:26.000Z</time>
      </trkpt>
      <trkpt lat="43.65672" lon="6.16336">
        <ele>589.6</ele>
        <time>2023-09-13T16:06:36.000Z</time>
      </trkpt>
      <trkpt lat="43.6567" lon="6.1632">
        <ele>589.3</ele>
        <time>2023-09-13T16:06:46.000Z</time>
      </trkpt>
      <trkpt lat="43.65667" lon="6.16311">
        <ele>588.7</ele>
        <time>2023-09-13T16:06:56.000Z</time>
      </trkpt>
      <trkpt lat="43.65662" lon="6.16293">
        <ele>588</ele>
        <time>2023-09-13T16:07:06.000Z</time>
      </trkpt>
      <trkpt lat="43.6566" lon="6.16277">
        <ele>587.6</ele>
        <time>2023-09-13T16:07:16.000Z</time>
      </trkpt>
      <trkpt lat="43.65654" lon="6.16261">
        <ele>587.2</ele>
        <time>2023-09-13T16:07:26.000Z</time>
      </trkpt>
      <trkpt lat="43.65651" lon="6.16255">
        <ele>586.4</ele>
        <time>2023-09-13T16:07:36.000Z</time>
      </trkpt>
      <trkpt lat="43.65651" lon="6.16253">
        <ele>586.4</ele>
        <time>2023-09-13T16:07:46.000Z</time>
      </trkpt>
      <trkpt lat="43.6565" lon="6.16253">
        <ele>586.2</ele>
        <time>2023-09-13T16:07:56.000Z</time>
      </trkpt>
      <trkpt lat="43.65646" lon="6.16246">
        <ele>586.6</ele>
        <time>2023-09-13T16:08:06.000Z</time>
      </trkpt>
      <trkpt lat="43.65639" lon="6.1624">
        <ele>586.4</ele>
        <time>2023-09-13T16:08:16.000Z</time>
      </trkpt>
      <trkpt lat="43.65632" lon="6.16233">
        <ele>586.2</ele>
        <time>2023-09-13T16:08:26.000Z</time>
      </trkpt>
      <trkpt lat="43.65624" lon="6.1623">
        <ele>585.8</ele>
        <time>2023-09-13T16:08:36.000Z</time>
      </trkpt>
      <trkpt lat="43.65622" lon="6.16227">
        <ele>585.7</ele>
        <time>2023-09-13T16:08:46.000Z</time>
      </trkpt>
      <trkpt lat="43.65616" lon="6.16229">
        <ele>585.8</ele>
        <time>2023-09-13T16:08:56.000Z</time>
      </trkpt>
      <trkpt lat="43.65608" lon="6.16229">
        <ele>585.1</ele>
        <time>2023-09-13T16:09:06.000Z</time>
      </trkpt>
      <trkpt lat="43.65598" lon="6.16228">
        <ele>585.5</ele>
        <time>2023-09-13T16:09:16.000Z</time>
      </trkpt>
      <trkpt lat="43.65586" lon="6.16226">
        <ele>585.2</ele>
        <time>2023-09-13T16:09:26.000Z</time>
      </trkpt>
      <trkpt lat="43.6558" lon="6.16226">
        <ele>586</ele>
        <time>2023-09-13T16:09:36.000Z</time>
      </trkpt>
      <trkpt lat="43.65573" lon="6.16226">
        <ele>586</ele>
        <time>2023-09-13T16:09:46.000Z</time>
      </trkpt>
      <trkpt lat="43.65573" lon="6.16226">
        <ele>585.4</ele>
        <time>2023-09-13T16:09:56.000Z</time>
      </trkpt>
      <trkpt lat="43.65572" lon="6.16228">
        <ele>585.8</ele>
        <time>2023-09-13T16:10:06.000Z</time>
      </trkpt>
      <trkpt lat="43.65572" lon="6.16229">
        <ele>585.7</ele>
        <time>2023-09-13T16:10:16.000Z</time>
      </trkpt>
      <trkpt lat="43.65572" lon="6.1623">
        <ele>585.4</ele>
        <time>2023-09-13T16:10:26.000Z</time>
      </trkpt>
      <trkpt lat="43.65571" lon="6.16229">
        <ele>585.7</ele>
        <time>2023-09-13T16:10:36.000Z</time>
      </trkpt>
      <trkpt lat="43.65571" lon="6.16228">
        <ele>585.5</ele>
        <time>2023-09-13T16:10:46.000Z</time>
      </trkpt>
      <trkpt lat="43.65569" lon="6.16227">
        <ele>585.6</ele>
        <time>2023-09-13T16:10:56.000Z</time>
      </trkpt>
      <trkpt lat="43.65568" lon="6.16226">
        <ele>586.4</ele>
        <time>2023-09-13T16:11:06.000Z</time>
      </trkpt>
      <trkpt lat="43.65568" lon="6.16228">
        <ele>585.8</ele>
        <time>2023-09-13T16:11:16.000Z</time>
      </trkpt>
      <trkpt lat="43.65568" lon="6.1623">
        <ele>585.8</ele>
        <time>2023-09-13T16:11:26.000Z</time>
      </trkpt>
      <trkpt lat="43.65563" lon="6.16232">
        <ele>586.5</ele>
        <time>2023-09-13T16:11:36.000Z</time>
      </trkpt>
      <trkpt lat="43.65554" lon="6.16236">
        <ele>585.9</ele>
        <time>2023-09-13T16:11:46.000Z</time>
      </trkpt>
      <trkpt lat="43.65552" lon="6.16242">
        <ele>585.8</ele>
        <time>2023-09-13T16:11:56.000Z</time>
      </trkpt>
      <trkpt lat="43.65552" lon="6.16243">
        <ele>585.2</ele>
        <time>2023-09-13T16:12:06.000Z</time>
      </trkpt>
      <trkpt lat="43.65551" lon="6.16243">
        <ele>585.5</ele>
        <time>2023-09-13T16:12:16.000Z</time>
      </trkpt>
      <trkpt lat="43.65551" lon="6.16241">
        <ele>585.3</ele>
        <time>2023-09-13T16:12:26.000Z</time>
      </trkpt>
      <trkpt lat="43.6555" lon="6.16241">
        <ele>585.2</ele>
        <time>2023-09-13T16:12:36.000Z</time>
      </trkpt>
      <trkpt lat="43.65551" lon="6.16242">
        <ele>585.4</ele>
        <time>2023-09-13T16:12:46.000Z</time>
      </trkpt>
      <trkpt lat="43.65552" lon="6.16243">
        <ele>585.3</ele>
        <time>2023-09-13T16:12:56.000Z</time>
      </trkpt>
      <trkpt lat="43.65553" lon="6.16244">
        <ele>585.2</ele>
        <time>2023-09-13T16:13:06.000Z</time>
      </trkpt>
      <trkpt lat="43.65554" lon="6.16244">
        <ele>585.3</ele>
        <time>2023-09-13T16:13:16.000Z</time>
      </trkpt>
      <trkpt lat="43.65553" lon="6.16245">
        <ele>585.3</ele>
        <time>2023-09-13T16:13:26.000Z</time>
      </trkpt>
      <trkpt lat="43.65554" lon="6.16245">
        <ele>585</ele>
        <time>2023-09-13T16:13:36.000Z</time>
      </trkpt>
      <trkpt lat="43.65553" lon="6.16244">
        <ele>585</ele>
        <time>2023-09-13T16:13:46.000Z</time>
      </trkpt>
      <trkpt lat="43.65552" lon="6.16243">
        <ele>584.8</ele>
        <time>2023-09-13T16:13:56.000Z</time>
      </trkpt>
      <trkpt lat="43.65551" lon="6.16243">
        <ele>584.7</ele>
        <time>2023-09-13T16:14:06.000Z</time>
      </trkpt>
      <trkpt lat="43.65551" lon="6.16241">
        <ele>585</ele>
        <time>2023-09-13T16:14:16.000Z</time>
      </trkpt>
      <trkpt lat="43.6555" lon="6.16241">
        <ele>585.1</ele>
        <time>2023-09-13T16:14:26.000Z</time>
      </trkpt>
      <trkpt lat="43.65551" lon="6.16241">
        <ele>585</ele>
        <time>2023-09-13T16:14:36.000Z</time>
      </trkpt>
      <trkpt lat="43.65551" lon="6.16241">
        <ele>585.2</ele>
        <time>2023-09-13T16:14:46.000Z</time>
      </trkpt>
      <trkpt lat="43.65551" lon="6.16241">
        <ele>585.5</ele>
        <time>2023-09-13T16:14:56.000Z</time>
      </trkpt>
      <trkpt lat="43.65552" lon="6.16241">
        <ele>585.4</ele>
        <time>2023-09-13T16:15:06.000Z</time>
      </trkpt>
      <trkpt lat="43.65552" lon="6.16242">
        <ele>585.1</ele>
        <time>2023-09-13T16:15:16.000Z</time>
      </trkpt>
      <trkpt lat="43.65551" lon="6.16242">
        <ele>585.2</ele>
        <time>2023-09-13T16:15:26.000Z</time>
      </trkpt>
      <trkpt lat="43.6555" lon="6.16244">
        <ele>585.1</ele>
        <time>2023-09-13T16:15:36.000Z</time>
      </trkpt>
      <trkpt lat="43.6555" lon="6.16245">
        <ele>585.1</ele>
        <time>2023-09-13T16:15:46.000Z</time>
      </trkpt>
      <trkpt lat="43.6555" lon="6.16245">
        <ele>585.2</ele>
        <time>2023-09-13T16:15:56.000Z</time>
      </trkpt>
      <trkpt lat="43.65549" lon="6.16245">
        <ele>585.5</ele>
        <time>2023-09-13T16:16:06.000Z</time>
      </trkpt>
      <trkpt lat="43.6555" lon="6.16246">
        <ele>585.5</ele>
        <time>2023-09-13T16:16:16.000Z</time>
      </trkpt>
      <trkpt lat="43.6555" lon="6.16246">
        <ele>585.3</ele>
        <time>2023-09-13T16:16:26.000Z</time>
      </trkpt>
      <trkpt lat="43.6555" lon="6.16246">
        <ele>585.2</ele>
        <time>2023-09-13T16:16:36.000Z</time>
      </trkpt>
      <trkpt lat="43.6555" lon="6.16247">
        <ele>585.2</ele>
        <time>2023-09-13T16:16:46.000Z</time>
      </trkpt>
      <trkpt lat="43.6555" lon="6.16246">
        <ele>585.1</ele>
        <time>2023-09-13T16:16:56.000Z</time>
      </trkpt>
      <trkpt lat="43.65552" lon="6.16246">
        <ele>585.7</ele>
        <time>2023-09-13T16:17:06.000Z</time>
      </trkpt>
      <trkpt lat="43.65553" lon="6.16249">
        <ele>585.6</ele>
        <time>2023-09-13T16:17:16.000Z</time>
      </trkpt>
      <trkpt lat="43.65552" lon="6.1625">
        <ele>585.5</ele>
        <time>2023-09-13T16:17:26.000Z</time>
      </trkpt>
      <trkpt lat="43.65549" lon="6.16247">
        <ele>585.5</ele>
        <time>2023-09-13T16:17:36.000Z</time>
      </trkpt>
      <trkpt lat="43.65549" lon="6.16247">
        <ele>585.5</ele>
        <time>2023-09-13T16:17:36.000Z</time>
      </trkpt>
    </trkseg>
  </trk>
</gpx>